Provisional Data: South Branch Codorus Creek near Leader Heights, PA


Please select a monitoring station.
Please select start date.
Please select start date.

Toggle Unit: C/F Toggle Unit: C/F
Sample Time Temperature (C) Temperature (F) Specific Conductivity (mS/cm) pH   Turbidity (NTU+) DO (mg/L)
6/22/2021 12:00:00 AM 22.34 72.212 0.239 7.16 553.5 5.79
6/22/2021 12:15:00 AM 22.35 72.23 0.238 7.16 631.5 5.82
6/22/2021 12:30:00 AM 22.31 72.158 0.237 7.17 545.7 5.83
6/22/2021 12:45:00 AM 22.34 72.212 0.236 7.17 461.2 5.87
6/22/2021 1:00:00 AM 22.35 72.23 0.235 7.17 773.6 5.92
6/22/2021 1:15:00 AM 22.35 72.23 0.234 7.18 636.6 5.93
6/22/2021 1:30:00 AM 22.34 72.212 0.233 7.18 588.5 5.98
6/22/2021 1:45:00 AM 22.35 72.23 0.233 7.19 682.4 6
6/22/2021 2:00:00 AM 22.35 72.23 0.232 7.19 601.2 6.03
6/22/2021 2:15:00 AM 22.34 72.212 0.232 7.2 492.2 6.04
6/22/2021 2:30:00 AM 22.39 72.302 0.232 7.2 611.1 6.05
6/22/2021 2:45:00 AM 22.39 72.302 0.232 7.21 635.6 6.04
6/22/2021 3:00:00 AM 22.39 72.302 0.232 7.21 456.2 6.02
6/22/2021 3:15:00 AM 22.42 72.356 0.232 7.2 939.8 6
6/22/2021 3:30:00 AM 22.37 72.266 0.232 7.2 499.1 5.99
6/22/2021 3:45:00 AM 22.31 72.158 0.232 7.2 569.3 5.97
6/22/2021 4:00:00 AM 22.3 72.14 0.232 7.2 547.2 5.98
6/22/2021 4:15:00 AM 22.24 72.032 0.232 7.19 597.7 5.99
6/22/2021 4:30:00 AM 22.23 72.014 0.232 7.19 566.5 6.02
6/22/2021 4:45:00 AM 22.21 71.978 0.232 7.2 827.5 6.06
6/22/2021 5:00:00 AM 22.16 71.888 0.232 7.2 593.3 6.09
6/22/2021 5:15:00 AM 22.15 71.87 0.232 7.2 709.5 6.13
6/22/2021 5:30:00 AM 22.15 71.87 0.232 7.2 693.7 6.15
6/22/2021 5:45:00 AM 22.07 71.726 0.232 7.21 632.7 6.17
6/22/2021 6:00:00 AM 22.04 71.672 0.231 7.21 543.1 6.17
6/22/2021 6:15:00 AM 22 71.6 0.231 7.21 657.1 6.17
6/22/2021 6:30:00 AM 21.95 71.51 0.231 7.2 573.4 6.16
6/22/2021 6:45:00 AM 21.91 71.438 0.231 7.2 651.2 6.14
6/22/2021 7:00:00 AM 21.87 71.366 0.231 7.19 711.9 6.15
6/22/2021 7:15:00 AM 21.82 71.276 0.231 7.19 737.5 6.13
6/22/2021 7:30:00 AM 21.81 71.258 0.231 7.19 615.8 6.14
6/22/2021 7:45:00 AM 21.81 71.258 0.231 7.19 882.9 6.17
6/22/2021 8:00:00 AM 21.83 71.294 0.231 7.19 695.8 6.2
6/22/2021 8:15:00 AM 21.77 71.186 0.231 7.19 850.4 6.23
6/22/2021 8:30:00 AM 21.76 71.168 0.231 7.2 734 6.27
6/22/2021 8:45:00 AM 21.72 71.096 0.231 7.2 1081 6.31
6/22/2021 9:00:00 AM 21.64 70.952 0.23 7.21 932.3 6.33
6/22/2021 9:15:00 AM 21.63 70.934 0.23 7.21 895.1 6.38
6/22/2021 9:30:00 AM 21.6 70.88 0.23 7.21 764.9 6.42
6/22/2021 9:45:00 AM 21.56 70.808 0.23 7.22 896.6 6.45
6/22/2021 10:00:00 AM 21.52 70.736 0.23 7.22 833.6 6.48
6/22/2021 10:15:00 AM 21.47 70.646 0.23 7.22 730.6 6.51
6/22/2021 10:30:00 AM 21.39 70.502 0.229 7.23 1027 6.55
6/22/2021 10:45:00 AM 21.33 70.394 0.229 7.23 731.1 6.55
6/22/2021 11:00:00 AM 21.24 70.232 0.228 7.21 793.5 6.55
6/22/2021 11:15:00 AM 21.18 70.124 0.228 7.22 717.3 6.57
6/22/2021 11:30:00 AM 21.12 70.016 0.227 7.21 1006 6.57
6/22/2021 11:45:00 AM 21.03 69.854 0.227 7.21 853.7 6.57
6/22/2021 12:00:00 PM 21.02 69.836 0.226 7.21 873.4 6.62
6/22/2021 12:15:00 PM 20.99 69.782 0.226 7.21 1225 6.64
6/22/2021 12:30:00 PM 20.99 69.782 0.226 7.21 822 6.71
6/22/2021 12:45:00 PM 20.98 69.764 0.226 7.22 1256 6.78
6/22/2021 1:00:00 PM 20.97 69.746 0.226 7.23 972 6.84
6/22/2021 1:15:00 PM 20.95 69.71 0.226 7.23 903.6 6.85
6/22/2021 1:30:00 PM 20.92 69.656 0.226 7.24 850.9 6.86
6/22/2021 1:45:00 PM 20.89 69.602 0.227 7.23 937.6 6.86
6/22/2021 2:00:00 PM 20.84 69.512 0.228 7.24 938.2 6.88
6/22/2021 2:15:00 PM 20.81 69.458 0.228 7.24 932 6.88
6/22/2021 2:30:00 PM 20.76 69.368 0.229 7.24 892.6 6.88
6/22/2021 2:45:00 PM 20.74 69.332 0.229 7.24 1069 6.88
6/22/2021 3:00:00 PM 20.72 69.296 0.23 7.25 1181 6.89
6/22/2021 3:15:00 PM 20.71 69.278 0.23 7.25 1180 6.91
6/22/2021 3:30:00 PM 20.7 69.26 0.23 7.26 930.3 6.96
6/22/2021 3:45:00 PM 20.69 69.242 0.23 7.27 1225 6.99
6/22/2021 4:00:00 PM 20.7 69.26 0.23 7.27 1102 7.03
6/22/2021 4:15:00 PM 20.73 69.314 0.23 7.27 905.4 7.07
6/22/2021 4:30:00 PM 20.73 69.314 0.23 7.29 1372 7.12
6/22/2021 4:45:00 PM 20.74 69.332 0.229 7.3 894.3 7.13
6/22/2021 5:00:00 PM 20.74 69.332 0.228 7.31 1123 7.17
6/22/2021 5:15:00 PM 20.73 69.314 0.228 7.31 1183 7.16
6/22/2021 5:30:00 PM 20.69 69.242 0.227 7.31 1100 7.17
6/22/2021 5:45:00 PM 20.69 69.242 0.226 7.31 1201 7.16
6/22/2021 6:00:00 PM 20.68 69.224 0.226 7.32 1166 7.17
6/22/2021 6:15:00 PM 20.67 69.206 0.225 7.32 1011 7.19
6/22/2021 6:30:00 PM 20.63 69.134 0.225 7.33 1522 7.19
6/22/2021 6:45:00 PM 20.64 69.152 0.225 7.33 1032 7.2
6/22/2021 7:00:00 PM 20.63 69.134 0.224 7.34 1243 7.19
6/22/2021 7:15:00 PM 20.62 69.116 0.224 7.34 1120 7.17
6/22/2021 7:30:00 PM 20.61 69.098 0.223 7.33 1219 7.15
6/22/2021 7:45:00 PM 20.56 69.008 0.222 7.34 1064 7.11
6/22/2021 8:00:00 PM 20.52 68.936 0.222 7.33 1060 7.07
6/22/2021 8:15:00 PM 20.47 68.846 0.221 7.32 1284 7.03
6/22/2021 8:30:00 PM 20.41 68.738 0.22 7.32 1239 6.99
6/22/2021 8:45:00 PM 20.35 68.63 0.22 7.31 1637 6.96
6/22/2021 9:00:00 PM 20.3 68.54 0.22 7.3 1168 6.95
6/22/2021 9:15:00 PM 20.23 68.414 0.219 7.29 1443 6.97
6/22/2021 9:30:00 PM 20.16 68.288 0.219 7.3 1354 6.99
6/22/2021 9:45:00 PM 20.1 68.18 0.219 7.3 1395 7.02
6/22/2021 10:00:00 PM 20.03 68.054 0.219 7.29 1256 7.03
6/22/2021 10:15:00 PM 19.97 67.946 0.219 7.29 1441 7.04
6/22/2021 10:30:00 PM 19.9 67.82 0.219 7.29 1295 7.04
6/22/2021 10:45:00 PM 19.82 67.676 0.219 7.28 1597 7.04
6/22/2021 11:00:00 PM 19.74 67.532 0.22 7.28 1782 7.03
6/22/2021 11:15:00 PM 19.66 67.388 0.22 7.28 1649 7.01
6/22/2021 11:30:00 PM 19.57 67.226 0.22 7.27 1464 7.02
6/22/2021 11:45:00 PM 19.48 67.064 0.221 7.26 1531 7.02
6/23/2021 12:00:00 AM 19.4 66.92 0.221 7.26 1515 7.03
6/23/2021 12:15:00 AM 19.32 66.776 0.221 7.25 1666 7.05
6/23/2021 12:30:00 AM 19.25 66.65 0.221 7.25 1673 7.07
6/23/2021 12:45:00 AM 19.18 66.524 0.221 7.25 1863 7.07
6/23/2021 1:00:00 AM 19.11 66.398 0.221 7.24 1408 7.08
6/23/2021 1:15:00 AM 19.05 66.29 0.221 7.23 1448 7.09
6/23/2021 1:30:00 AM 18.98 66.164 0.221 7.23 1732 7.1
6/23/2021 1:45:00 AM 18.92 66.056 0.221 7.23 1504 7.11
6/23/2021 2:00:00 AM 18.86 65.948 0.221 7.22 1494 7.11
6/23/2021 2:15:00 AM 18.79 65.82201 0.221 7.22 1634 7.12
6/23/2021 2:30:00 AM 18.71 65.67799 0.221 7.22 1775 7.16
6/23/2021 2:45:00 AM 18.64 65.552 0.221 7.22 1558 7.17
6/23/2021 3:00:00 AM 18.56 65.408 0.221 7.21 1857 7.18
6/23/2021 3:15:00 AM 18.5 65.3 0.221 7.21 1986 7.18
6/23/2021 3:30:00 AM 18.43 65.174 0.221 7.2 1509 7.2
6/23/2021 3:45:00 AM 18.36 65.048 0.221 7.2 1713 7.17
6/23/2021 4:00:00 AM 18.3 64.94 0.221 7.19 1705 7.15
6/23/2021 4:15:00 AM 18.24 64.832 0.221 7.19 1609 7.14
6/23/2021 4:30:00 AM 18.16 64.688 0.221 7.18 2184 7.13
6/23/2021 4:45:00 AM 18.08 64.544 0.222 7.17 1967 7.15
6/23/2021 5:00:00 AM 18 64.4 0.222 7.16 2017 7.17
6/23/2021 5:15:00 AM 17.92 64.256 0.222 7.16 1841 7.19
6/23/2021 5:30:00 AM 17.86 64.148 0.222 7.16 1994 7.19
6/23/2021 5:45:00 AM 17.8 64.04 0.222 7.15 2205 7.2
6/23/2021 6:00:00 AM 17.75 63.95 0.222 7.14 2414 7.2
6/23/2021 6:15:00 AM 17.7 63.86 0.222 7.14 1604 7.21
6/23/2021 6:30:00 AM 17.67 63.806 0.222 7.13 2535 7.18
6/23/2021 6:45:00 AM 17.64 63.752 0.222 7.13 2130 7.2
6/23/2021 7:00:00 AM 17.6 63.68 0.222 7.13 1979 7.21
6/23/2021 7:15:00 AM 17.56 63.608 0.222 7.12 1969 7.23
6/23/2021 7:30:00 AM 17.53 63.554 0.222 7.13 1671 7.26
6/23/2021 7:45:00 AM 17.52 63.536 0.222 7.13 2196 7.28
6/23/2021 8:00:00 AM 17.52 63.536 0.222 7.12 2448 7.3
6/23/2021 8:15:00 AM 17.55 63.59 0.222 7.12 2316 7.35
6/23/2021 8:30:00 AM 17.6 63.68 0.221 7.12 1875 7.37
6/23/2021 8:45:00 AM 17.67 63.806 0.221 7.13 1807 7.4
6/23/2021 9:00:00 AM 17.76 63.968 0.221 7.13 1894 7.43
6/23/2021 9:15:00 AM 17.82 64.076 0.221 7.13 1591 7.46
6/23/2021 9:30:00 AM 17.9 64.22 0.221 7.14 2148 7.54
6/23/2021 9:45:00 AM 18.01 64.418 0.221 7.15 1891 7.61
6/23/2021 10:00:00 AM 18.11 64.598 0.221 7.16 2407 7.66
6/23/2021 10:15:00 AM 18.24 64.832 0.221 7.18 1801 7.72
6/23/2021 10:30:00 AM 18.38 65.084 0.22 7.2 2466 7.77
6/23/2021 10:45:00 AM 18.53 65.354 0.22 7.2 2190 7.8
6/23/2021 11:00:00 AM 18.72 65.696 0.22 7.21 2209 7.85
6/23/2021 11:15:00 AM 18.93 66.074 0.22 7.22 2562 7.85
6/23/2021 11:30:00 AM 19.15 66.47 0.221 7.24 1894 7.87
6/23/2021 11:45:00 AM 19.36 66.848 0.221 7.26 1907 7.89
6/23/2021 12:00:00 PM 19.54 67.172 0.221 7.27 1801 7.95
6/23/2021 12:15:00 PM 19.74 67.532 0.222 7.29 1715 8.01
6/23/2021 12:30:00 PM 19.93 67.874 0.222 7.31 2280 8.04
6/23/2021 12:45:00 PM 20.16 68.288 0.222 7.33 1748 8.06
6/23/2021 1:00:00 PM 20.36 68.648 0.223 7.34 1710 8.09
6/23/2021 1:15:00 PM 20.57 69.026 0.223 7.36 2523 8.11
6/23/2021 1:30:00 PM 20.76 69.368 0.223 7.38 2122 8.14
6/23/2021 1:45:00 PM 20.98 69.764 0.223 7.4 1717 8.11
6/23/2021 2:00:00 PM 21.08 69.944 0.223 7.42 2017 8.1
6/23/2021 2:15:00 PM 21.07 69.926 0.224 7.44 2004 8.08
6/23/2021 2:30:00 PM 21.03 69.854 0.224 7.45 1954 8.04
6/23/2021 2:45:00 PM 21.09 69.962 0.221 7.45 1604 8.03
6/23/2021 3:00:00 PM 21.15 70.07 0.222 7.46 1780 7.99
6/23/2021 3:15:00 PM 21.23 70.214 0.219 7.46 1715 8.01
6/23/2021 3:30:00 PM 21.21 70.17799 0.22 7.46 1707 7.94
6/23/2021 3:45:00 PM 21.23 70.214 0.226 7.46 1699 7.92
6/23/2021 4:00:00 PM 21.23 70.214 0.225 7.46 1708 7.88
6/23/2021 4:15:00 PM 21.22 70.196 0.225 7.46 1791 7.81
6/23/2021 4:30:00 PM 21.19 70.142 0.225 7.45 1710 7.72
6/23/2021 4:45:00 PM 21.2 70.16 0.225 7.44 1753 7.69
6/23/2021 5:00:00 PM 21.15 70.07 0.225 7.42 1727 7.64
6/23/2021 5:15:00 PM 21.11 69.998 0.226 7.42 1772 7.62
6/23/2021 5:30:00 PM 21.1 69.98 0.226 7.41 1771 7.54
6/23/2021 5:45:00 PM 21.07 69.926 0.225 7.4 1783 7.51
6/23/2021 6:00:00 PM 21.05 69.89 0.225 7.39 1783 7.44
6/23/2021 6:15:00 PM 21.04 69.872 0.225 7.39 1837 7.38
6/23/2021 6:30:00 PM 21.03 69.854 0.225 7.38 1842 7.34
6/23/2021 6:45:00 PM 21.02 69.836 0.224 7.37 1790 7.27
6/23/2021 7:00:00 PM 21.02 69.836 0.224 7.37 1901 7.24
6/23/2021 7:15:00 PM 20.98 69.764 0.224 7.36 1818 7.23
6/23/2021 7:30:00 PM 20.94 69.692 0.225 7.35 1855 7.19
6/23/2021 7:45:00 PM 20.89 69.602 0.225 7.35 1803 7.17
6/23/2021 8:00:00 PM 20.81 69.458 0.224 7.34 1854 7.15
6/23/2021 8:15:00 PM 20.72 69.296 0.224 7.34 1853 7.09
6/23/2021 8:30:00 PM 20.62 69.116 0.224 7.32 1901 7.03
6/23/2021 8:45:00 PM 20.51 68.918 0.224 7.3 1855 6.95
6/23/2021 9:00:00 PM 20.41 68.738 0.224 7.28 1917 6.9
6/23/2021 9:15:00 PM 20.31 68.558 0.223 7.26 1892 6.84
6/23/2021 9:30:00 PM 20.21 68.378 0.223 7.24 1827 6.76
6/23/2021 9:45:00 PM 20.11 68.198 0.224 7.23 1893 6.79
6/23/2021 10:00:00 PM 20.02 68.036 0.224 7.22 1933 6.81
6/23/2021 10:15:00 PM 19.95 67.91 0.224 7.21 1918 6.8
6/23/2021 10:30:00 PM 19.88 67.784 0.224 7.21 1893 6.81
6/23/2021 10:45:00 PM 19.82 67.676 0.223 7.21 1965 6.82
6/23/2021 11:00:00 PM 19.76 67.568 0.223 7.2 2027 6.83
6/23/2021 11:15:00 PM 19.71 67.478 0.222 7.19 2094 6.84
6/23/2021 11:30:00 PM 19.67 67.406 0.222 7.19 2026 6.83
6/23/2021 11:45:00 PM 19.63 67.334 0.222 7.2 2133 6.84
6/24/2021 12:00:00 AM 19.57 67.226 0.222 7.19 2127 6.87
6/24/2021 12:15:00 AM 19.51 67.118 0.222 7.19 2069 6.9
6/24/2021 12:30:00 AM 19.45 67.01 0.222 7.19 2176 6.9
6/24/2021 12:45:00 AM 19.4 66.92 0.222 7.19 2287 6.9
6/24/2021 1:00:00 AM 19.34 66.812 0.222 7.18 2271 6.9
6/24/2021 1:15:00 AM 19.29 66.722 0.222 7.18 2216 6.88
6/24/2021 1:30:00 AM 19.22 66.596 0.222 7.17 2218 6.85
6/24/2021 1:45:00 AM 19.15 66.47 0.222 7.17 2200 6.8
6/24/2021 2:00:00 AM 19.09 66.362 0.222 7.15 2236 6.73
6/24/2021 2:15:00 AM 19.03 66.254 0.222 7.13 2196 6.72
6/24/2021 2:30:00 AM 18.96 66.128 0.223 7.13 2271 6.72
6/24/2021 2:45:00 AM 18.9 66.02 0.224 7.12 2215 6.71
6/24/2021 3:00:00 AM 18.86 65.948 0.224 7.12 2162 6.72
6/24/2021 3:15:00 AM 18.82 65.876 0.224 7.11 2212 6.74
6/24/2021 3:30:00 AM 18.8 65.84 0.224 7.11 2302 6.76
6/24/2021 3:45:00 AM 18.79 65.82201 0.224 7.12 2317 6.77
6/24/2021 4:00:00 AM 18.78 65.804 0.224 7.12 2278 6.78
6/24/2021 4:15:00 AM 18.78 65.804 0.224 7.1 2355 6.77
6/24/2021 4:30:00 AM 18.78 65.804 0.224 7.11 2326 6.78
6/24/2021 4:45:00 AM 18.75 65.75 0.224 7.11 2385 6.81
6/24/2021 5:00:00 AM 18.72 65.696 0.224 7.11 2323 6.85
6/24/2021 5:15:00 AM 18.69 65.642 0.225 7.12 2331 6.89
6/24/2021 5:30:00 AM 18.66 65.588 0.225 7.12 2267 6.9
6/24/2021 5:45:00 AM 18.64 65.552 0.225 7.13 2300 6.93
6/24/2021 6:00:00 AM 18.61 65.498 0.225 7.12 2400 6.93
6/24/2021 6:15:00 AM 18.59 65.462 0.225 7.12 2285 6.95
6/24/2021 6:30:00 AM 18.58 65.444 0.225 7.12 2368 6.96
6/24/2021 6:45:00 AM 18.59 65.462 0.225 7.12 2455 6.96
6/24/2021 7:00:00 AM 18.57 65.426 0.225 7.12 2380 6.97
6/24/2021 7:15:00 AM 18.55 65.39 0.225 7.12 2417 7.02
6/24/2021 7:30:00 AM 18.52 65.336 0.226 7.12 2390 7.07
6/24/2021 7:45:00 AM 18.52 65.336 0.226 7.13 2480 7.12
6/24/2021 8:00:00 AM 18.55 65.39 0.226 7.13 2388 7.16
6/24/2021 8:15:00 AM 18.6 65.48 0.226 7.13 2337 7.19
6/24/2021 8:30:00 AM 18.66 65.588 0.226 7.14 2349 7.24
6/24/2021 8:45:00 AM 18.74 65.732 0.226 7.15 2382 7.27
6/24/2021 9:00:00 AM 18.82 65.876 0.226 7.15 2396 7.29
6/24/2021 9:15:00 AM 18.94 66.092 0.226 7.16 2430 7.3
6/24/2021 9:30:00 AM 19.02 66.236 0.226 7.16 2402 7.36
6/24/2021 9:45:00 AM 19.12 66.416 0.226 7.17 2318 7.44
6/24/2021 10:00:00 AM 19.24 66.632 0.226 7.19 2438 7.51
6/24/2021 10:15:00 AM 19.36 66.848 0.226 7.19 2389 7.56
6/24/2021 10:30:00 AM 19.48 67.064 0.226 7.21 2434 7.64
6/24/2021 10:45:00 AM 19.61 67.298 0.226 7.23 2456 7.69
6/24/2021 11:00:00 AM 19.76 67.568 0.226 7.24 2436 7.76
6/24/2021 11:15:00 AM 19.92 67.856 0.226 7.25 2459 7.82
6/24/2021 11:30:00 AM 20.14 68.252 0.226 7.27 2444 7.85
6/24/2021 11:45:00 AM 20.34 68.612 0.226 7.29 2427 7.91
6/24/2021 12:00:00 PM 20.56 69.008 0.226 7.31 2458 7.97
6/24/2021 12:15:00 PM 20.72 69.296 0.226 7.33 2508 8.05
6/24/2021 12:30:00 PM 20.91 69.638 0.226 7.34 2388 8.09
6/24/2021 12:45:00 PM 21.1 69.98 0.226 7.37 2532 8.13
6/24/2021 1:00:00 PM 21.29 70.32201 0.226 7.39 2449 8.17
6/24/2021 1:15:00 PM 21.49 70.682 0.226 7.4 2405 8.19
6/24/2021 1:30:00 PM 21.61 70.898 0.226 7.42 2231 8.21
6/24/2021 1:45:00 PM 21.74 71.132 0.226 7.44 2437 8.22
6/24/2021 2:00:00 PM 21.85 71.33 0.226 7.46 2390 8.2
6/24/2021 2:15:00 PM 21.93 71.474 0.226 7.47 2286 8.22
6/24/2021 2:30:00 PM 22.06 71.708 0.226 7.48 2414 8.22
6/24/2021 2:45:00 PM 22.11 71.798 0.227 7.49 2411 8.2
6/24/2021 3:00:00 PM 22.1 71.78 0.227 7.5 2468 8.13
6/24/2021 3:15:00 PM 22.13 71.834 0.227 7.5 2511 8.12
6/24/2021 3:30:00 PM 22.09 71.762 0.227 7.5 2465 8.04
6/24/2021 3:45:00 PM 22.08 71.744 0.227 7.5 2468 8
6/24/2021 4:00:00 PM 22.03 71.654 0.227 7.49 2573 7.91
6/24/2021 4:15:00 PM 22 71.6 0.227 7.48 2457 7.83
6/24/2021 4:30:00 PM 21.93 71.474 0.227 7.47 2612 7.73
6/24/2021 4:45:00 PM 21.93 71.474 0.227 7.46 2529 7.68
6/24/2021 5:00:00 PM 21.91 71.438 0.227 7.45 2467 7.68
6/24/2021 5:15:00 PM 21.87 71.366 0.228 7.44 2488 7.65
6/24/2021 5:30:00 PM 21.82 71.276 0.228 7.45 2510 7.59
6/24/2021 5:45:00 PM 21.79 71.222 0.228 7.45 2534 7.55
6/24/2021 6:00:00 PM 21.76 71.168 0.228 7.45 2462 7.5
6/24/2021 6:15:00 PM 21.74 71.132 0.227 7.44 2468 7.48
6/24/2021 6:30:00 PM 21.71 71.078 0.227 7.44 2564 7.41
6/24/2021 6:45:00 PM 21.66 70.988 0.227 7.43 2416 7.36
6/24/2021 7:00:00 PM 21.61 70.898 0.227 7.42 2513 7.29
6/24/2021 7:15:00 PM 21.55 70.79 0.227 7.4 2467 7.24
6/24/2021 7:30:00 PM 21.46 70.628 0.228 7.39 2500 7.16
6/24/2021 7:45:00 PM 21.35 70.43 0.228 7.37 2397 7.07
6/24/2021 8:00:00 PM 21.23 70.214 0.228 7.35 2518 6.98
6/24/2021 8:15:00 PM 21.12 70.016 0.228 7.32 2502 6.89
6/24/2021 8:30:00 PM 21.02 69.836 0.228 7.29 2521 6.82
6/24/2021 8:45:00 PM 20.93 69.674 0.228 7.28 2507 6.76
6/24/2021 9:00:00 PM 20.84 69.512 0.228 7.26 2436 6.73
6/24/2021 9:15:00 PM 20.76 69.368 0.228 7.24 2370 6.66
6/24/2021 9:30:00 PM 20.68 69.224 0.228 7.22 2381 6.62
6/24/2021 9:45:00 PM 20.61 69.098 0.228 7.21 2468 6.63
6/24/2021 10:00:00 PM 20.53 68.954 0.228 7.2 2474 6.61
6/24/2021 10:15:00 PM 20.47 68.846 0.228 7.2 2491 6.64
6/24/2021 10:30:00 PM 20.39 68.702 0.229 7.19 2607 6.66
6/24/2021 10:45:00 PM 20.34 68.612 0.228 7.19 2521 6.65
6/24/2021 11:00:00 PM 20.28 68.504 0.228 7.19 2610 6.67
6/24/2021 11:15:00 PM 20.23 68.414 0.228 7.18 2614 6.68
6/24/2021 11:30:00 PM 20.17 68.306 0.228 7.18 2598 6.68
6/24/2021 11:45:00 PM 20.12 68.216 0.228 7.18 4908 6.65
6/25/2021 12:00:00 AM 20.06 68.108 0.228 7.17 2788 6.68
6/25/2021 12:15:00 AM 19.99 67.982 0.228 7.17 2707 6.68
6/25/2021 12:30:00 AM 19.93 67.874 0.229 7.16 2680 6.68
6/25/2021 12:45:00 AM 19.87 67.766 0.229 7.17 2795 6.7
6/25/2021 1:00:00 AM 19.82 67.676 0.229 7.16 225.9 6.68
6/25/2021 1:15:00 AM 19.78 67.604 0.229 7.15 237.7 6.69
6/25/2021 1:30:00 AM 19.74 67.532 0.229 7.15 239.6 6.69
6/25/2021 1:45:00 AM 19.71 67.478 0.228 7.15 255.3 6.71
6/25/2021 2:00:00 AM 19.68 67.424 0.228 7.14 232.9 6.68
6/25/2021 2:15:00 AM 19.66 67.388 0.228 7.14 256.1 6.7
6/25/2021 2:30:00 AM 19.62 67.316 0.228 7.14 281.6 6.72
6/25/2021 2:45:00 AM 19.58 67.244 0.228 7.14 288.5 6.76
6/25/2021 3:00:00 AM 19.54 67.172 0.229 7.14 293.5 6.78
6/25/2021 3:15:00 AM 19.51 67.118 0.229 7.14 308.5 6.81
6/25/2021 3:30:00 AM 19.48 67.064 0.229 7.15 404.8 6.81
6/25/2021 3:45:00 AM 19.45 67.01 0.229 7.14 430.2 6.81
6/25/2021 4:00:00 AM 19.42 66.956 0.229 7.14 326.4 6.8
6/25/2021 4:15:00 AM 19.39 66.902 0.229 7.13 328.6 6.76
6/25/2021 4:30:00 AM 19.36 66.848 0.229 7.13 321.8 6.74
6/25/2021 4:45:00 AM 19.31 66.758 0.229 7.12 477.6 6.73
6/25/2021 5:00:00 AM 19.24 66.632 0.229 7.12 380.5 6.73
6/25/2021 5:15:00 AM 19.18 66.524 0.23 7.12 516.1 6.71
6/25/2021 5:30:00 AM 19.13 66.434 0.23 7.11 412.1 6.72
6/25/2021 5:45:00 AM 19.09 66.362 0.231 7.11 494.3 6.7
6/25/2021 6:00:00 AM 19.06 66.308 0.23 7.1 428.3 6.72
6/25/2021 6:15:00 AM 19.04 66.272 0.23 7.1 440.5 6.72
6/25/2021 6:30:00 AM 19.03 66.254 0.23 7.09 439 6.71
6/25/2021 6:45:00 AM 19.03 66.254 0.23 7.09 490.2 6.74
6/25/2021 7:00:00 AM 19.04 66.272 0.23 7.1 624.7 6.73
6/25/2021 7:15:00 AM 19.03 66.254 0.23 7.09 495.5 6.77
6/25/2021 7:30:00 AM 19.03 66.254 0.23 7.1 484.6 6.81
6/25/2021 7:45:00 AM 19.04 66.272 0.231 7.1 533.9 6.85
6/25/2021 8:00:00 AM 19.08 66.344 0.231 7.1 392.4 6.91
6/25/2021 8:15:00 AM 19.14 66.452 0.231 7.12 373.4 6.95
6/25/2021 8:30:00 AM 19.23 66.614 0.23 7.11 386.7 7
6/25/2021 8:45:00 AM 19.33 66.794 0.23 7.12 500.5 7.01
6/25/2021 9:00:00 AM 19.45 67.01 0.23 7.13 462.8 7.05
6/25/2021 9:15:00 AM 19.57 67.226 0.23 7.14 436.9 7.09
6/25/2021 9:30:00 AM 19.68 67.424 0.229 7.15 394.8 7.18
6/25/2021 9:45:00 AM 19.78 67.604 0.229 7.17 504 7.3
6/25/2021 10:00:00 AM 19.9 67.82 0.23 7.18 439.7 7.43
6/25/2021 10:15:00 AM 20 68 0.23 7.19 374.2 7.55
6/25/2021 10:30:00 AM 20.11 68.198 0.229 7.21 377.4 7.66
6/25/2021 10:45:00 AM 20.24 68.432 0.229 7.23 392.1 7.76
6/25/2021 11:00:00 AM 20.42 68.756 0.229 7.24 529.7 7.84
6/25/2021 11:15:00 AM 20.59 69.062 0.229 7.26 326.3 7.92
6/25/2021 11:30:00 AM 20.76 69.368 0.229 7.28 739.7 7.99
6/25/2021 11:45:00 AM 20.96 69.728 0.228 7.29 554.4 8.05
6/25/2021 12:00:00 PM 21.12 70.016 0.228 7.31 498.8 8.1
6/25/2021 12:15:00 PM 21.28 70.304 0.229 7.34 426.4 8.17
6/25/2021 12:30:00 PM 21.45 70.61 0.229 7.36 527.9 8.23
6/25/2021 12:45:00 PM 21.63 70.934 0.229 7.38 523.8 8.23
6/25/2021 1:00:00 PM 21.77 71.186 0.229 7.39 667.5 8.25
6/25/2021 1:15:00 PM 21.96 71.528 0.229 7.41 490.3 8.28
6/25/2021 1:30:00 PM 22.14 71.852 0.229 7.43 483.6 8.29
6/25/2021 1:45:00 PM 22.28 72.104 0.229 7.44 743.2 8.28
6/25/2021 2:00:00 PM 22.41 72.338 0.229 7.45 1036 8.27
6/25/2021 2:15:00 PM 22.51 72.518 0.229 7.47 459.5 8.26
6/25/2021 2:30:00 PM 22.57 72.626 0.229 7.48 591.9 8.25
6/25/2021 2:45:00 PM 22.63 72.734 0.229 7.49 530.9 8.25
6/25/2021 3:00:00 PM 22.67 72.806 0.23 7.51 360.5 8.2
6/25/2021 3:15:00 PM 22.68 72.824 0.23 7.51 646.5 8.15
6/25/2021 3:30:00 PM 22.69 72.842 0.23 7.51 615.7 8.09
6/25/2021 3:45:00 PM 22.67 72.806 0.23 7.51 597.6 8.04
6/25/2021 4:00:00 PM 22.66 72.788 0.23 7.5 452.7 8.01
6/25/2021 4:15:00 PM 22.65 72.77 0.229 7.5 630.9 7.94
6/25/2021 4:30:00 PM 22.61 72.698 0.23 7.49 392.2 7.86
6/25/2021 4:45:00 PM 22.58 72.644 0.229 7.48 485.2 7.8
6/25/2021 5:00:00 PM 22.53 72.554 0.23 7.46 870.4 7.71
6/25/2021 5:15:00 PM 22.49 72.482 0.23 7.45 726.3 7.66
6/25/2021 5:30:00 PM 22.44 72.392 0.231 7.45 617.6 7.57
6/25/2021 5:45:00 PM 22.4 72.32 0.231 7.45 741 7.51
6/25/2021 6:00:00 PM 22.35 72.23 0.231 7.43 587.4 7.41
6/25/2021 6:15:00 PM 22.3 72.14 0.23 7.42 624.7 7.36
6/25/2021 6:30:00 PM 22.27 72.086 0.23 7.41 462.5 7.3
6/25/2021 6:45:00 PM 22.23 72.014 0.23 7.4 509.2 7.24
6/25/2021 7:00:00 PM 22.2 71.96 0.23 7.39 584.4 7.2
6/25/2021 7:15:00 PM 22.14 71.852 0.23 7.39 502.6 7.17
6/25/2021 7:30:00 PM 22.06 71.708 0.23 7.37 702.3 7.11
6/25/2021 7:45:00 PM 21.96 71.528 0.231 7.36 801 7.04
6/25/2021 8:00:00 PM 21.84 71.312 0.231 7.34 500.8 6.94
6/25/2021 8:15:00 PM 21.72 71.096 0.231 7.3 694.9 6.84
6/25/2021 8:30:00 PM 21.62 70.916 0.231 7.27 781 6.75
6/25/2021 8:45:00 PM 21.52 70.736 0.231 7.25 627.3 6.66
6/25/2021 9:00:00 PM 21.44 70.592 0.231 7.23 652.6 6.62
6/25/2021 9:15:00 PM 21.35 70.43 0.231 7.2 759.2 6.55
6/25/2021 9:30:00 PM 21.28 70.304 0.231 7.18 557.4 6.5
6/25/2021 9:45:00 PM 21.22 70.196 0.231 7.17 623.6 6.51
6/25/2021 10:00:00 PM 21.16 70.088 0.231 7.15 875.6 6.52
6/25/2021 10:15:00 PM 21.12 70.016 0.232 7.15 714 6.54
6/25/2021 10:30:00 PM 21.05 69.89 0.232 7.14 735.4 6.53
6/25/2021 10:45:00 PM 21 69.8 0.232 7.14 744.6 6.54
6/25/2021 11:00:00 PM 20.96 69.728 0.231 7.13 727.8 6.53
6/25/2021 11:15:00 PM 20.92 69.656 0.231 7.14 567 6.53
6/25/2021 11:30:00 PM 20.9 69.62 0.231 7.12 577.1 6.53
6/25/2021 11:45:00 PM 20.89 69.602 0.23 7.12 751.2 6.52
6/26/2021 12:00:00 AM 20.85 69.53 0.231 7.12 739.4 6.52
6/26/2021 12:15:00 AM 20.82 69.476 0.231 7.11 1026 6.55
6/26/2021 12:30:00 AM 20.8 69.44 0.231 7.12 839.1 6.56
6/26/2021 12:45:00 AM 20.8 69.44 0.231 7.11 670.3 6.57
6/26/2021 1:00:00 AM 20.82 69.476 0.231 7.12 1056 6.56
6/26/2021 1:15:00 AM 20.83 69.494 0.231 7.12 720.1 6.59
6/26/2021 1:30:00 AM 20.84 69.512 0.231 7.12 761.7 6.59
6/26/2021 1:45:00 AM 20.85 69.53 0.23 7.13 780 6.6
6/26/2021 2:00:00 AM 20.85 69.53 0.23 7.12 793.2 6.58
6/26/2021 2:15:00 AM 20.84 69.512 0.23 7.13 818.9 6.56
6/26/2021 2:30:00 AM 20.8 69.44 0.23 7.12 1006 6.55
6/26/2021 2:45:00 AM 20.76 69.368 0.231 7.11 980 6.53
6/26/2021 3:00:00 AM 20.74 69.332 0.231 7.11 817.4 6.51
6/26/2021 3:15:00 AM 20.73 69.314 0.232 7.11 827 6.48
6/26/2021 3:30:00 AM 20.73 69.314 0.232 7.1 903.7 6.47
6/26/2021 3:45:00 AM 20.74 69.332 0.231 7.1 741.2 6.44
6/26/2021 4:00:00 AM 20.75 69.35 0.231 7.09 687.3 6.43
6/26/2021 4:15:00 AM 20.77 69.386 0.231 7.09 655.9 6.42
6/26/2021 4:30:00 AM 20.8 69.44 0.231 7.08 737.7 6.41
6/26/2021 4:45:00 AM 20.82 69.476 0.231 7.08 821.3 6.42
6/26/2021 5:00:00 AM 20.83 69.494 0.232 7.08 800.1 6.44
6/26/2021 5:15:00 AM 20.84 69.512 0.232 7.09 1006 6.48
6/26/2021 5:30:00 AM 20.86 69.548 0.232 7.09 827 6.47
6/26/2021 5:45:00 AM 20.88 69.584 0.232 7.09 1162 6.47
6/26/2021 6:00:00 AM 20.9 69.62 0.232 7.1 836.1 6.5
6/26/2021 6:15:00 AM 20.92 69.656 0.231 7.1 765.9 6.52
6/26/2021 6:30:00 AM 20.94 69.692 0.231 7.1 787.8 6.52
6/26/2021 6:45:00 AM 20.95 69.71 0.231 7.1 1142 6.55
6/26/2021 7:00:00 AM 20.97 69.746 0.231 7.11 789.5 6.57
6/26/2021 7:15:00 AM 20.98 69.764 0.231 7.11 933.1 6.6
6/26/2021 7:30:00 AM 21 69.8 0.231 7.12 948.2 6.66
6/26/2021 7:45:00 AM 21.03 69.854 0.232 7.12 737.9 6.71
6/26/2021 8:00:00 AM 21.07 69.926 0.232 7.13 933.6 6.76
6/26/2021 8:15:00 AM 21.13 70.034 0.232 7.13 991.8 6.81
6/26/2021 8:30:00 AM 21.19 70.142 0.231 7.15 1134 6.88
6/26/2021 8:45:00 AM 21.25 70.25 0.231 7.15 942.4 6.94
6/26/2021 9:00:00 AM 21.32 70.376 0.231 7.16 913.5 7.01
6/26/2021 9:15:00 AM 21.4 70.52 0.231 7.18 791.2 7.05
6/26/2021 9:30:00 AM 21.49 70.682 0.231 7.19 845.9 7.12
6/26/2021 9:45:00 AM 21.6 70.88 0.231 7.19 713.6 7.23
6/26/2021 10:00:00 AM 21.68 71.024 0.231 7.21 877.5 7.32
6/26/2021 10:15:00 AM 21.74 71.132 0.231 7.22 795.3 7.39
6/26/2021 10:30:00 AM 21.8 71.24 0.231 7.23 797.1 7.42
6/26/2021 10:45:00 AM 21.84 71.312 0.231 7.24 1032 7.44
6/26/2021 11:00:00 AM 21.89 71.402 0.231 7.25 1050 7.47
6/26/2021 11:15:00 AM 21.94 71.492 0.231 7.25 962.5 7.51
6/26/2021 11:30:00 AM 22.03 71.654 0.23 7.26 927.5 7.61
6/26/2021 11:45:00 AM 22.08 71.744 0.23 7.27 848.2 7.66
6/26/2021 12:00:00 PM 22.15 71.87 0.23 7.28 1013 7.7
6/26/2021 12:15:00 PM 22.2 71.96 0.23 7.29 859.9 7.74
6/26/2021 12:30:00 PM 22.24 72.032 0.23 7.31 1023 7.73
6/26/2021 12:45:00 PM 22.27 72.086 0.23 7.31 871.9 7.71
6/26/2021 1:00:00 PM 22.31 72.158 0.23 7.32 880.7 7.73
6/26/2021 1:15:00 PM 22.36 72.248 0.23 7.33 945.8 7.79
6/26/2021 1:30:00 PM 22.37 72.266 0.23 7.35 1149 7.75
6/26/2021 1:45:00 PM 22.4 72.32 0.23 7.36 905.5 7.77
6/26/2021 2:00:00 PM 22.43 72.374 0.229 7.36 1089 7.77
6/26/2021 2:15:00 PM 22.44 72.392 0.229 7.37 1253 7.78
6/26/2021 2:30:00 PM 22.51 72.518 0.23 7.38 886 7.86
6/26/2021 2:45:00 PM 22.56 72.608 0.23 7.39 901.9 7.89
6/26/2021 3:00:00 PM 22.57 72.626 0.23 7.4 1011 7.83
6/26/2021 3:15:00 PM 22.57 72.626 0.23 7.4 990.6 7.8
6/26/2021 3:30:00 PM 22.54 72.57201 0.23 7.4 854.6 7.72
6/26/2021 3:45:00 PM 22.51 72.518 0.23 7.4 913.5 7.63
6/26/2021 4:00:00 PM 22.51 72.518 0.23 7.4 1041 7.63
6/26/2021 4:15:00 PM 22.51 72.518 0.23 7.39 830.3 7.62
6/26/2021 4:30:00 PM 22.5 72.5 0.23 7.39 823.9 7.56
6/26/2021 4:45:00 PM 22.49 72.482 0.23 7.38 880.7 7.5
6/26/2021 5:00:00 PM 22.5 72.5 0.23 7.37 688.4 7.52
6/26/2021 5:15:00 PM 22.53 72.554 0.231 7.36 867 7.51
6/26/2021 5:30:00 PM 22.52 72.536 0.231 7.36 699.7 7.48
6/26/2021 5:45:00 PM 22.52 72.536 0.231 7.36 959.3 7.42
6/26/2021 6:00:00 PM 22.52 72.536 0.231 7.35 965.9 7.35
6/26/2021 6:15:00 PM 22.53 72.554 0.231 7.35 755.2 7.3
6/26/2021 6:30:00 PM 22.52 72.536 0.231 7.34 859.3 7.24
6/26/2021 6:45:00 PM 22.5 72.5 0.231 7.34 761.3 7.17
6/26/2021 7:00:00 PM 22.47 72.446 0.231 7.33 764.9 7.12
6/26/2021 7:15:00 PM 22.45 72.41 0.231 7.33 737 7.06
6/26/2021 7:30:00 PM 22.4 72.32 0.232 7.31 915.2 7.01
6/26/2021 7:45:00 PM 22.39 72.302 0.232 7.31 872.4 6.96
6/26/2021 8:00:00 PM 22.35 72.23 0.232 7.3 973.5 6.92
6/26/2021 8:15:00 PM 22.31 72.158 0.232 7.29 905.5 6.87
6/26/2021 8:30:00 PM 22.27 72.086 0.232 7.28 861.8 6.8
6/26/2021 8:45:00 PM 22.24 72.032 0.232 7.26 813.9 6.71
6/26/2021 9:00:00 PM 22.2 71.96 0.232 7.25 765.7 6.65
6/26/2021 9:15:00 PM 22.14 71.852 0.232 7.23 881.5 6.57
6/26/2021 9:30:00 PM 22.08 71.744 0.232 7.22 841.7 6.5
6/26/2021 9:45:00 PM 22.03 71.654 0.232 7.2 858.7 6.46
6/26/2021 10:00:00 PM 22 71.6 0.232 7.19 887.3 6.44
6/26/2021 10:15:00 PM 21.98 71.564 0.233 7.17 1162 6.42
6/26/2021 10:30:00 PM 21.96 71.528 0.233 7.16 1050 6.41
6/26/2021 10:45:00 PM 21.96 71.528 0.233 7.17 860.7 6.41
6/26/2021 11:00:00 PM 21.95 71.51 0.233 7.16 864.9 6.4
6/26/2021 11:15:00 PM 21.95 71.51 0.232 7.16 817 6.41
6/26/2021 11:30:00 PM 21.95 71.51 0.232 7.16 881.3 6.41
6/26/2021 11:45:00 PM 21.96 71.528 0.232 7.15 860.7 6.42
6/27/2021 12:00:00 AM 21.95 71.51 0.232 7.15 976.7 6.43
6/27/2021 12:15:00 AM 21.92 71.456 0.232 7.16 971.3 6.44
6/27/2021 12:30:00 AM 21.9 71.42 0.233 7.15 1078 6.44
6/27/2021 12:45:00 AM 21.87 71.366 0.233 7.14 1053 6.42
6/27/2021 1:00:00 AM 21.82 71.276 0.233 7.14 1283 6.4
6/27/2021 1:15:00 AM 21.77 71.186 0.233 7.13 1252 6.35
6/27/2021 1:30:00 AM 21.72 71.096 0.233 7.12 1221 6.32
6/27/2021 1:45:00 AM 21.66 70.988 0.233 7.11 1283 6.27
6/27/2021 2:00:00 AM 21.63 70.934 0.232 7.1 1070 6.25
6/27/2021 2:15:00 AM 21.6 70.88 0.232 7.09 1209 6.22
6/27/2021 2:30:00 AM 21.58 70.844 0.232 7.08 977.8 6.24
6/27/2021 2:45:00 AM 21.57 70.826 0.233 7.08 1140 6.26
6/27/2021 3:00:00 AM 21.58 70.844 0.233 7.08 1074 6.28
6/27/2021 3:15:00 AM 21.59 70.862 0.233 7.09 1178 6.31
6/27/2021 3:30:00 AM 21.61 70.898 0.233 7.09 1220 6.32
6/27/2021 3:45:00 AM 21.63 70.934 0.232 7.1 1201 6.36
6/27/2021 4:00:00 AM 21.64 70.952 0.232 7.09 1143 6.37
6/27/2021 4:15:00 AM 21.65 70.97 0.232 7.1 1095 6.39
6/27/2021 4:30:00 AM 21.66 70.988 0.232 7.11 1374 6.4
6/27/2021 4:45:00 AM 21.66 70.988 0.232 7.11 1097 6.41
6/27/2021 5:00:00 AM 21.65 70.97 0.232 7.12 1266 6.44
6/27/2021 5:15:00 AM 21.65 70.97 0.232 7.12 1572 6.46
6/27/2021 5:30:00 AM 21.63 70.934 0.232 7.13 1201 6.46
6/27/2021 5:45:00 AM 21.62 70.916 0.232 7.12 1277 6.45
6/27/2021 6:00:00 AM 21.6 70.88 0.232 7.13 1255 6.45
6/27/2021 6:15:00 AM 21.59 70.862 0.232 7.12 1512 6.43
6/27/2021 6:30:00 AM 21.56 70.808 0.232 7.12 1507 6.43
6/27/2021 6:45:00 AM 21.53 70.754 0.232 7.11 1514 6.41
6/27/2021 7:00:00 AM 21.52 70.736 0.232 7.1 1144 6.39
6/27/2021 7:15:00 AM 21.51 70.718 0.232 7.1 1167 6.42
6/27/2021 7:30:00 AM 21.51 70.718 0.232 7.09 1415 6.45
6/27/2021 7:45:00 AM 21.52 70.736 0.233 7.09 1261 6.49
6/27/2021 8:00:00 AM 21.56 70.808 0.233 7.11 1244 6.55
6/27/2021 8:15:00 AM 21.62 70.916 0.233 7.1 1439 6.6
6/27/2021 8:30:00 AM 21.7 71.06 0.232 7.11 1305 6.68
6/27/2021 8:45:00 AM 21.78 71.204 0.232 7.13 1282 6.73
6/27/2021 9:00:00 AM 21.87 71.366 0.232 7.14 1349 6.81
6/27/2021 9:15:00 AM 21.96 71.528 0.232 7.14 1420 6.88
6/27/2021 9:30:00 AM 22.06 71.708 0.232 7.16 1433 6.93
6/27/2021 9:45:00 AM 22.17 71.906 0.232 7.18 1439 7.03
6/27/2021 10:00:00 AM 22.27 72.086 0.232 7.19 1160 7.09
6/27/2021 10:15:00 AM 22.4 72.32 0.232 7.2 1293 7.16
6/27/2021 10:30:00 AM 22.53 72.554 0.232 7.21 1354 7.24
6/27/2021 10:45:00 AM 22.67 72.806 0.232 7.23 1461 7.29
6/27/2021 11:00:00 AM 22.83 73.094 0.232 7.25 1695 7.37
6/27/2021 11:15:00 AM 22.97 73.346 0.232 7.26 1553 7.43
6/27/2021 11:30:00 AM 23.11 73.598 0.231 7.27 1617 7.48
6/27/2021 11:45:00 AM 23.23 73.814 0.231 7.29 1833 7.5
6/27/2021 12:00:00 PM 23.43 74.174 0.231 7.3 1984 7.58
6/27/2021 12:15:00 PM 23.55 74.39 0.231 7.31 2147 7.6
6/27/2021 12:30:00 PM 23.72 74.696 0.232 7.32 1725 7.68
6/27/2021 12:45:00 PM 23.84 74.912 0.232 7.33 1718 7.7
6/27/2021 1:00:00 PM 23.92 75.056 0.232 7.34 1326 7.68
6/27/2021 1:15:00 PM 23.97 75.146 0.232 7.34 1237 7.64
6/27/2021 1:30:00 PM 24.06 75.308 0.231 7.35 2103 7.64
6/27/2021 1:45:00 PM 24.14 75.452 0.231 7.36 1329 7.64
6/27/2021 2:00:00 PM 24.19 75.542 0.231 7.36 1456 7.58
6/27/2021 2:15:00 PM 24.24 75.632 0.231 7.37 1409 7.56
6/27/2021 2:30:00 PM 24.35 75.83 0.231 7.37 1432 7.58
6/27/2021 2:45:00 PM 24.42 75.956 0.231 7.38 1495 7.59
6/27/2021 3:00:00 PM 24.41 75.938 0.232 7.38 1357 7.52
6/27/2021 3:15:00 PM 24.46 76.028 0.232 7.39 1532 7.49
6/27/2021 3:30:00 PM 24.45 76.01 0.232 7.39 1460 7.49
6/27/2021 3:45:00 PM 24.5 76.1 0.231 7.39 1738 7.45
6/27/2021 4:00:00 PM 24.51 76.118 0.231 7.4 1443 7.43
6/27/2021 4:15:00 PM 24.49 76.082 0.231 7.4 1645 7.35
6/27/2021 4:30:00 PM 24.48 76.064 0.231 7.4 1428 7.3
6/27/2021 4:45:00 PM 24.47 76.046 0.231 7.39 1669 7.24
6/27/2021 5:00:00 PM 24.45 76.01 0.231 7.39 1368 7.2
6/27/2021 5:15:00 PM 24.41 75.938 0.232 7.38 1444 7.11
6/27/2021 5:30:00 PM 24.41 75.938 0.232 7.38 1509 7.08
6/27/2021 5:45:00 PM 24.4 75.92 0.232 7.37 1421 7.03
6/27/2021 6:00:00 PM 24.37 75.866 0.232 7.36 1431 6.96
6/27/2021 6:15:00 PM 24.32 75.776 0.232 7.36 1410 6.88
6/27/2021 6:30:00 PM 24.26 75.668 0.232 7.34 1741 6.8
6/27/2021 6:45:00 PM 24.18 75.524 0.232 7.32 1563 6.69
6/27/2021 7:00:00 PM 24.14 75.452 0.232 7.31 1525 6.6
6/27/2021 7:15:00 PM 24.03 75.254 0.232 7.29 1720 6.53
6/27/2021 7:30:00 PM 24.05 75.29 0.233 7.28 1410 6.51
6/27/2021 7:45:00 PM 24 75.2 0.233 7.26 1697 6.48
6/27/2021 8:00:00 PM 24 75.2 0.233 7.26 1480 6.44
6/27/2021 8:15:00 PM 23.94 75.092 0.233 7.25 1418 6.42
6/27/2021 8:30:00 PM 23.92 75.056 0.233 7.25 1606 6.4
6/27/2021 8:45:00 PM 23.93 75.074 0.233 7.25 1496 6.38
6/27/2021 9:00:00 PM 23.85 74.93 0.232 7.24 1486 6.35
6/27/2021 9:15:00 PM 23.8 74.84 0.232 7.24 1628 6.31
6/27/2021 9:30:00 PM 23.73 74.714 0.232 7.22 1670 6.27
6/27/2021 9:45:00 PM 23.7 74.66 0.232 7.21 1570 6.25
6/27/2021 10:00:00 PM 23.68 74.624 0.232 7.21 1660 6.21
6/27/2021 10:15:00 PM 23.59 74.462 0.233 7.2 1846 6.19
6/27/2021 10:30:00 PM 23.55 74.39 0.233 7.2 1748 6.17
6/27/2021 10:45:00 PM 23.49 74.282 0.233 7.18 2104 6.14
6/27/2021 11:00:00 PM 23.4 74.12 0.233 7.17 2271 6.12
6/27/2021 11:15:00 PM 23.36 74.048 0.233 7.16 1846 6.08
6/27/2021 11:30:00 PM 23.31 73.958 0.233 7.15 1825 6.05
6/27/2021 11:45:00 PM 23.21 73.778 0.233 7.14 1833 6.03
6/28/2021 12:00:00 AM 23.21 73.778 0.232 7.13 1741 6.02
6/28/2021 12:15:00 AM 23.16 73.688 0.233 7.12 1817 6.03
6/28/2021 12:30:00 AM 23.13 73.634 0.233 7.11 2094 6.03
6/28/2021 12:45:00 AM 23.08 73.544 0.234 7.1 2033 6.02
6/28/2021 1:00:00 AM 23.06 73.508 0.234 7.1 1842 6.03
6/28/2021 1:15:00 AM 23.04 73.472 0.233 7.1 1820 6.04
6/28/2021 1:30:00 AM 23.01 73.418 0.233 7.11 1926 6.05
6/28/2021 1:45:00 AM 23.02 73.436 0.233 7.1 1882 6.05
6/28/2021 2:00:00 AM 23.01 73.418 0.233 7.1 1934 6.06
6/28/2021 2:15:00 AM 22.99 73.382 0.232 7.1 1908 6.07
6/28/2021 2:30:00 AM 23.01 73.418 0.232 7.1 2080 6.09
6/28/2021 2:45:00 AM 22.97 73.346 0.233 7.1 2041 6.1
6/28/2021 3:00:00 AM 22.96 73.328 0.233 7.1 2113 6.12
6/28/2021 3:15:00 AM 22.95 73.31 0.233 7.1 1999 6.1
6/28/2021 3:30:00 AM 22.92 73.256 0.234 7.1 2014 6.08
6/28/2021 3:45:00 AM 22.9 73.22 0.233 7.09 1722 6.09
6/28/2021 4:00:00 AM 22.89 73.202 0.233 7.09 1806 6.07
6/28/2021 4:15:00 AM 22.87 73.166 0.233 7.09 1779 6.09
6/28/2021 4:30:00 AM 22.89 73.202 0.233 7.09 2044 6.08
6/28/2021 4:45:00 AM 22.86 73.148 0.233 7.09 1955 6.1
6/28/2021 5:00:00 AM 22.83 73.094 0.233 7.09 1983 6.11
6/28/2021 5:15:00 AM 22.82 73.076 0.233 7.1 2841 6.12
6/28/2021 5:30:00 AM 22.8 73.04 0.234 7.09 2042 6.13
6/28/2021 5:45:00 AM 22.8 73.04 0.234 7.1 2011 6.12
6/28/2021 6:00:00 AM 22.79 73.022 0.234 7.09 2342 6.11
6/28/2021 6:15:00 AM 22.78 73.004 0.234 7.08 2236 6.1
6/28/2021 6:30:00 AM 22.79 73.022 0.233 7.08 2197 6.11
6/28/2021 6:45:00 AM 22.79 73.022 0.233 7.09 2029 6.12
6/28/2021 7:00:00 AM 22.83 73.094 0.233 7.09 2021 6.14
6/28/2021 7:15:00 AM 22.83 73.094 0.233 7.08 2143 6.17
6/28/2021 7:30:00 AM 22.87 73.166 0.233 7.08 2025 6.23
6/28/2021 7:45:00 AM 22.87 73.166 0.233 7.09 2067 6.26
6/28/2021 8:00:00 AM 22.93 73.274 0.233 7.1 2134 6.31
6/28/2021 8:15:00 AM 22.97 73.346 0.233 7.1 1816 6.36
6/28/2021 8:30:00 AM 23.03 73.454 0.233 7.1 1935 6.43
6/28/2021 8:45:00 AM 23.08 73.544 0.233 7.11 1869 6.5
6/28/2021 9:00:00 AM 23.14 73.652 0.232 7.11 1921 6.57
6/28/2021 9:15:00 AM 23.21 73.778 0.232 7.13 2074 6.62
6/28/2021 9:30:00 AM 23.29 73.922 0.232 7.14 2105 6.7
6/28/2021 9:45:00 AM 23.38 74.084 0.232 7.14 2326 6.76
6/28/2021 10:00:00 AM 23.47 74.246 0.232 7.16 2134 6.83
6/28/2021 10:15:00 AM 23.58 74.444 0.233 7.17 1869 6.89
6/28/2021 10:30:00 AM 23.66 74.588 0.233 7.17 2006 6.93
6/28/2021 10:45:00 AM 23.8 74.84 0.233 7.19 2010 7
6/28/2021 11:00:00 AM 23.93 75.074 0.233 7.19 1961 7.05
6/28/2021 11:15:00 AM 24.06 75.308 0.232 7.2 2026 7.09
6/28/2021 11:30:00 AM 24.21 75.578 0.232 7.21 1950 7.13
6/28/2021 11:45:00 AM 24.38 75.884 0.232 7.22 2526 7.18
6/28/2021 12:00:00 PM 24.54 76.172 0.232 7.24 2107 7.24
6/28/2021 12:15:00 PM 24.74 76.532 0.232 7.26 2010 7.3
6/28/2021 12:30:00 PM 24.92 76.856 0.233 7.27 1989 7.36
6/28/2021 12:45:00 PM 25.12 77.216 0.233 7.29 1940 7.39
6/28/2021 1:00:00 PM 25.28 77.504 0.233 7.29 2020 7.47
6/28/2021 1:15:00 PM 25.37 77.666 0.233 7.3 2396 7.43
6/28/2021 1:30:00 PM 25.53 77.954 0.233 7.31 2268 7.49
6/28/2021 1:45:00 PM 25.66 78.188 0.233 7.31 2140 7.49
6/28/2021 2:00:00 PM 25.71 78.278 0.232 7.32 2207 7.41
6/28/2021 2:15:00 PM 25.7 78.26 0.232 7.33 2149 7.37
6/28/2021 2:30:00 PM 25.73 78.314 0.232 7.33 2150 7.32
6/28/2021 2:45:00 PM 25.73 78.314 0.233 7.33 2418 7.3
6/28/2021 3:00:00 PM 25.75 78.35 0.234 7.34 2304 7.27
6/28/2021 3:15:00 PM 25.78 78.404 0.234 7.34 2122 7.26
6/28/2021 3:30:00 PM 25.84 78.512 0.234 7.35 2156 7.21
6/28/2021 3:45:00 PM 25.8 78.44 0.234 7.34 2188 7.15
6/28/2021 4:00:00 PM 25.77 78.386 0.234 7.34 2133 7.11
6/28/2021 4:15:00 PM 25.74 78.332 0.233 7.34 2031 7.04
6/28/2021 4:30:00 PM 25.69 78.242 0.233 7.32 2009 6.97
6/28/2021 4:45:00 PM 25.66 78.188 0.233 7.33 2244 6.91
6/28/2021 5:00:00 PM 25.59 78.062 0.233 7.32 2018 6.86
6/28/2021 5:15:00 PM 25.63 78.134 0.233 7.31 2149 6.82
6/28/2021 5:30:00 PM 25.56 78.008 0.234 7.31 2444 6.75
6/28/2021 5:45:00 PM 25.55 77.99 0.234 7.31 2066 6.71
6/28/2021 6:00:00 PM 25.56 78.008 0.234 7.3 2119 6.66
6/28/2021 6:15:00 PM 25.51 77.918 0.234 7.3 2280 6.63
6/28/2021 6:30:00 PM 25.55 77.99 0.233 7.3 2388 6.58
6/28/2021 6:45:00 PM 25.46 77.828 0.233 7.31 2113 6.52
6/28/2021 7:00:00 PM 25.45 77.81 0.232 7.3 2549 6.46
6/28/2021 7:15:00 PM 25.38 77.684 0.233 7.28 2151 6.41
6/28/2021 7:30:00 PM 25.29 77.522 0.233 7.27 2403 6.34
6/28/2021 7:45:00 PM 25.23 77.414 0.234 7.27 2168 6.29
6/28/2021 8:00:00 PM 25.19 77.342 0.234 7.25 2230 6.22
6/28/2021 8:15:00 PM 25.07 77.126 0.234 7.23 2194 6.17
6/28/2021 8:30:00 PM 25.02 77.036 0.234 7.22 2324 6.11
6/28/2021 8:45:00 PM 24.89 76.802 0.234 7.21 2130 6.05
6/28/2021 9:00:00 PM 24.81 76.658 0.234 7.19 2314 6.01
6/28/2021 9:15:00 PM 24.79 76.622 0.233 7.18 2289 5.99
6/28/2021 9:30:00 PM 24.72 76.496 0.233 7.17 2477 5.98
6/28/2021 9:45:00 PM 24.63 76.334 0.233 7.16 2417 5.97
6/28/2021 10:00:00 PM 24.56 76.208 0.233 7.16 2362 5.97
6/28/2021 10:15:00 PM 24.54 76.172 0.234 7.15 2320 5.98
6/28/2021 10:30:00 PM 24.47 76.046 0.234 7.15 2482 5.98
6/28/2021 10:45:00 PM 24.42 75.956 0.234 7.14 2419 5.96
6/28/2021 11:00:00 PM 24.37 75.866 0.234 7.12 2441 5.95
6/28/2021 11:15:00 PM 24.31 75.758 0.234 7.13 2346 5.93
6/28/2021 11:30:00 PM 24.26 75.668 0.233 7.12 2616 5.92
6/28/2021 11:45:00 PM 24.19 75.542 0.233 7.11 3068 5.9
6/29/2021 12:00:00 AM 24.08 75.344 0.233 7.1 2502 5.9
6/29/2021 12:15:00 AM 24.07 75.326 0.233 7.09 2438 5.89
6/29/2021 12:30:00 AM 24.02 75.236 0.234 7.08 2581 5.9
6/29/2021 12:45:00 AM 24.02 75.236 0.234 7.08 2438 5.9
6/29/2021 1:00:00 AM 23.94 75.092 0.234 7.07 2567 5.89
6/29/2021 1:15:00 AM 23.89 75.002 0.234 7.08 2594 5.88
6/29/2021 1:30:00 AM 23.92 75.056 0.234 7.06 2701 5.9
6/29/2021 1:45:00 AM 23.86 74.948 0.233 7.08 2493 5.92
6/29/2021 2:00:00 AM 23.85 74.93 0.233 7.06 2698 5.9
6/29/2021 2:15:00 AM 23.83 74.894 0.233 7.06 2638 5.92
6/29/2021 2:30:00 AM 23.81 74.858 0.233 7.06 2788 5.92
6/29/2021 2:45:00 AM 23.8 74.84 0.233 7.06 2567 5.94
6/29/2021 3:00:00 AM 23.75 74.75 0.234 7.06 2713 5.94
6/29/2021 3:15:00 AM 23.69 74.642 0.234 7.06 2537 5.93
6/29/2021 3:30:00 AM 23.65 74.57 0.234 7.05 2636 5.9
6/29/2021 3:45:00 AM 23.6 74.48 0.234 7.05 3349 5.88
6/29/2021 4:00:00 AM 23.54 74.372 0.234 7.04 2659 5.86
6/29/2021 4:15:00 AM 23.47 74.246 0.234 7.03 2601 5.84
6/29/2021 4:30:00 AM 23.48 74.264 0.233 7.02 2625 5.83
6/29/2021 4:45:00 AM 23.37 74.066 0.234 7.02 2654 5.84
6/29/2021 5:00:00 AM 23.35 74.03 0.234 7.02 2711 5.86
6/29/2021 5:15:00 AM 23.35 74.03 0.234 7.01 2619 5.88
6/29/2021 5:30:00 AM 23.36 74.048 0.235 7.02 2661 5.9
6/29/2021 5:45:00 AM 23.34 74.012 0.235 7.02 2973 5.91
6/29/2021 6:00:00 AM 23.39 74.102 0.234 7.02 2707 5.93
6/29/2021 6:15:00 AM 23.33 73.994 0.234 7.02 2764 5.93
6/29/2021 6:30:00 AM 23.38 74.084 0.234 7.02 2759 5.95
6/29/2021 6:45:00 AM 23.29 73.922 0.234 7.03 2634 5.98
6/29/2021 7:00:00 AM 23.33 73.994 0.233 7.03 2950 6
6/29/2021 7:15:00 AM 23.33 73.994 0.233 7.04 2733 6.03
6/29/2021 7:30:00 AM 23.33 73.994 0.233 7.04 2804 6.06
6/29/2021 7:45:00 AM 23.37 74.066 0.234 7.03 2870 6.1
6/29/2021 8:00:00 AM 23.43 74.174 0.234 7.04 2783 6.15
6/29/2021 8:15:00 AM 23.46 74.228 0.234 7.05 3187 6.18
6/29/2021 8:30:00 AM 23.5 74.3 0.234 7.05 3072 6.22
6/29/2021 8:45:00 AM 23.56 74.408 0.233 7.06 2751 6.26
6/29/2021 9:00:00 AM 23.62 74.516 0.233 7.06 2846 6.3
6/29/2021 9:15:00 AM 23.66 74.588 0.233 7.07 2953 6.35
6/29/2021 9:30:00 AM 23.75 74.75 0.233 7.08 2769 6.4
6/29/2021 9:45:00 AM 23.85 74.93 0.233 7.08 2790 6.47
6/29/2021 10:00:00 AM 23.94 75.092 0.233 7.09 2767 6.52
6/29/2021 10:15:00 AM 24.01 75.218 0.234 7.11 3007 6.58
6/29/2021 10:30:00 AM 24.14 75.452 0.234 7.12 2860 6.66
6/29/2021 10:45:00 AM 24.25 75.65 0.234 7.12 2882 6.71
6/29/2021 11:00:00 AM 24.49 76.082 0.233 7.13 3107 6.77
6/29/2021 11:15:00 AM 24.58 76.244 0.234 7.14 2812 6.83
6/29/2021 11:30:00 AM 24.72 76.496 0.234 7.15 2839 6.89
6/29/2021 11:45:00 AM 24.91 76.838 0.233 7.17 2937 6.94
6/29/2021 12:00:00 PM 25.09 77.162 0.233 7.19 2941 7.01
6/29/2021 12:15:00 PM 25.28 77.504 0.233 7.19 2849 7.07
6/29/2021 12:30:00 PM 25.45 77.81 0.233 7.21 2890 7.11
6/29/2021 12:45:00 PM 25.63 78.134 0.234 7.22 2931 7.14
6/29/2021 1:00:00 PM 25.8 78.44 0.234 7.23 2974 7.19
6/29/2021 1:15:00 PM 25.97 78.746 0.234 7.24 2996 7.22
6/29/2021 1:30:00 PM 26.11 78.998 0.234 7.26 2994 7.21
6/29/2021 1:45:00 PM 26.28 79.304 0.234 7.26 2926 7.23
6/29/2021 2:00:00 PM 26.37 79.466 0.234 7.28 2941 7.22
6/29/2021 2:15:00 PM 26.42 79.556 0.234 7.28 2857 7.2
6/29/2021 2:30:00 PM 26.52 79.736 0.234 7.29 2853 7.19
6/29/2021 2:45:00 PM 26.57 79.826 0.234 7.3 3033 7.16
6/29/2021 3:00:00 PM 26.6 79.88 0.235 7.3 2940 7.14
6/29/2021 3:15:00 PM 26.65 79.97 0.235 7.31 2938 7.09
6/29/2021 3:30:00 PM 26.66 79.988 0.235 7.31 2903 7.05
6/29/2021 3:45:00 PM 26.63 79.934 0.234 7.32 2914 7.01
6/29/2021 4:00:00 PM 26.63 79.934 0.234 7.32 3077 6.96
6/29/2021 4:15:00 PM 26.63 79.934 0.234 7.33 3016 6.93
6/29/2021 4:30:00 PM 26.58 79.844 0.234 7.32 3110 6.85
6/29/2021 4:45:00 PM 26.5 79.7 0.234 7.32 2938 6.78
6/29/2021 5:00:00 PM 26.49 79.682 0.233 7.31 2948 6.7
6/29/2021 5:15:00 PM 26.4 79.52 0.234 7.31 2940 6.65
6/29/2021 5:30:00 PM 26.34 79.412 0.235 7.3 2855 6.57
6/29/2021 5:45:00 PM 26.24 79.232 0.235 7.3 2967 6.51
6/29/2021 6:00:00 PM 26.23 79.214 0.235 7.29 2971 6.45
6/29/2021 6:15:00 PM 26.15 79.07 0.235 7.29 2949 6.39
6/29/2021 6:30:00 PM 26.05 78.89 0.235 7.28 2962 6.36
6/29/2021 6:45:00 PM 26.08 78.944 0.234 7.27 2959 6.32
6/29/2021 7:00:00 PM 26.01 78.818 0.234 7.26 2925 6.26
6/29/2021 7:15:00 PM 25.89 78.602 0.234 7.26 3032 6.2
6/29/2021 7:30:00 PM 25.82 78.476 0.234 7.24 3017 6.15
6/29/2021 7:45:00 PM 25.79 78.422 0.235 7.23 2935 6.11
6/29/2021 8:00:00 PM 25.67 78.206 0.235 7.22 3058 6.03
6/29/2021 8:15:00 PM 25.55 77.99 0.235 7.2 3089 5.97
6/29/2021 8:30:00 PM 25.48 77.864 0.235 7.19 3068 5.93
6/29/2021 8:45:00 PM 25.42 77.756 0.235 7.18 3096 5.89
6/29/2021 9:00:00 PM 25.34 77.612 0.235 7.17 3216 5.86
6/29/2021 9:15:00 PM 25.26 77.468 0.235 7.16 3269 5.85
6/29/2021 9:30:00 PM 25.18 77.324 0.234 7.14 3078 5.83
6/29/2021 9:45:00 PM 25.11 77.198 0.234 7.13 3203 5.82
6/29/2021 10:00:00 PM 25.04 77.07201 0.234 7.13 3178 5.83
6/29/2021 10:15:00 PM 24.9 76.82 0.235 7.12 3110 5.82
6/29/2021 10:30:00 PM 24.86 76.748 0.235 7.11 3245 5.81
6/29/2021 10:45:00 PM 24.79 76.622 0.235 7.1 3039 5.77
6/29/2021 11:00:00 PM 24.68 76.424 0.235 7.1 3050 5.75
6/29/2021 11:15:00 PM 24.54 76.172 0.235 7.08 3053 5.74
6/29/2021 11:30:00 PM 24.49 76.082 0.235 7.07 3306 5.73
6/29/2021 11:45:00 PM 24.37 75.866 0.234 7.07 3095 5.74
6/30/2021 12:00:00 AM 24.32 75.776 0.234 7.07 3090 5.76
6/30/2021 12:15:00 AM 24.32 75.776 0.234 7.07 3161 5.8
6/30/2021 12:30:00 AM 24.28 75.704 0.234 7.06 3173 5.82
6/30/2021 12:45:00 AM 24.22 75.596 0.234 7.06 3187 5.82
6/30/2021 1:00:00 AM 24.17 75.506 0.235 7.06 3327 5.83
6/30/2021 1:15:00 AM 24.14 75.452 0.235 7.06 3179 5.82
6/30/2021 1:30:00 AM 24.07 75.326 0.234 7.06 3162 5.81
6/30/2021 1:45:00 AM 24.06 75.308 0.234 7.06 3337 5.79
6/30/2021 2:00:00 AM 23.98 75.164 0.234 7.05 3361 5.8
6/30/2021 2:15:00 AM 23.95 75.11 0.234 7.05 3230 5.8
6/30/2021 2:30:00 AM 23.89 75.002 0.234 7.05 3220 5.79
6/30/2021 2:45:00 AM 23.84 74.912 0.234 7.04 3244 5.79
6/30/2021 3:00:00 AM 23.81 74.858 0.234 7.03 3292 5.79
6/30/2021 3:15:00 AM 23.72 74.696 0.235 7.04 3469 5.78
6/30/2021 3:30:00 AM 23.77 74.786 0.235 7.02 3232 5.8
6/30/2021 3:45:00 AM 23.74 74.732 0.235 7.02 3284 5.78
6/30/2021 4:00:00 AM 23.67 74.606 0.234 7.02 3688 5.8
6/30/2021 4:15:00 AM 23.63 74.534 0.235 7.02 3401 5.79
6/30/2021 4:30:00 AM 23.61 74.498 0.234 7.02 3341 5.8
6/30/2021 4:45:00 AM 23.62 74.516 0.234 7.02 3271 5.8
6/30/2021 5:00:00 AM 23.56 74.408 0.235 7.02 3318 5.83
6/30/2021 5:15:00 AM 23.53 74.354 0.235 7.03 3357 5.81
6/30/2021 5:30:00 AM 23.51 74.318 0.235 7.03 3212 5.81
6/30/2021 5:45:00 AM 23.45 74.21 0.236 7.02 3245 5.81
6/30/2021 6:00:00 AM 23.5 74.3 0.235 7.02 3306 5.82
6/30/2021 6:15:00 AM 23.46 74.228 0.236 7.02 3336 5.81
6/30/2021 6:30:00 AM 23.44 74.192 0.235 7.01 3436 5.82
6/30/2021 6:45:00 AM 23.43 74.174 0.235 7.02 3517 5.84
6/30/2021 7:00:00 AM 23.42 74.156 0.234 7.02 3443 5.86
6/30/2021 7:15:00 AM 23.45 74.21 0.234 7.02 3471 5.89
6/30/2021 7:30:00 AM 23.47 74.246 0.234 7.02 3332 5.93
6/30/2021 7:45:00 AM 23.48 74.264 0.234 7.02 3445 5.97
6/30/2021 8:00:00 AM 23.56 74.408 0.235 7.03 3409 6.01
6/30/2021 8:15:00 AM 23.58 74.444 0.235 7.04 3286 6.03
6/30/2021 8:30:00 AM 23.61 74.498 0.234 7.05 3317 6.06
6/30/2021 8:45:00 AM 23.67 74.606 0.234 7.05 3301 6.11
6/30/2021 9:00:00 AM 23.62 74.516 0.234 7.05 3564 6.1
6/30/2021 9:15:00 AM 23.65 74.57 0.234 7.04 3439 6.06
6/30/2021 9:30:00 AM 23.69 74.642 0.234 7.04 3516 6.06
6/30/2021 9:45:00 AM 23.75 74.75 0.234 7.03 3466 6.07
6/30/2021 10:00:00 AM 23.84 74.912 0.234 7.03 3476 6.13
6/30/2021 10:15:00 AM 23.96 75.128 0.233 7.03 3411 6.23
6/30/2021 10:30:00 AM 24.06 75.308 0.233 7.04 3277 6.31
6/30/2021 10:45:00 AM 24.16 75.488 0.233 7.04 3364 6.35
6/30/2021 11:00:00 AM 24.25 75.65 0.234 7.04 3347 6.37
6/30/2021 11:15:00 AM 24.37 75.866 0.233 7.04 3342 6.41
6/30/2021 11:30:00 AM 24.5 76.1 0.233 7.04 3357 6.46
6/30/2021 11:45:00 AM 24.64 76.352 0.233 7.05 3238 6.48
6/30/2021 12:00:00 PM 24.79 76.622 0.233 7.06 3294 6.53
6/30/2021 12:15:00 PM 24.92 76.856 0.233 7.06 3423 6.56
6/30/2021 12:30:00 PM 25 77 0.232 7.07 3296 6.59
6/30/2021 12:45:00 PM 25.14 77.252 0.233 7.08 3316 6.6
6/30/2021 1:00:00 PM 25.31 77.558 0.233 7.09 3284 6.64
6/30/2021 1:15:00 PM 25.36 77.648 0.233 7.1 3197 6.65
6/30/2021 1:30:00 PM 25.55 77.99 0.233 7.11 3217 6.7
6/30/2021 1:45:00 PM 25.63 78.134 0.233 7.13 3314 6.71
6/30/2021 2:00:00 PM 25.72 78.296 0.232 7.13 3315 6.71
6/30/2021 2:15:00 PM 25.77 78.386 0.233 7.14 3174 6.69
6/30/2021 2:30:00 PM 25.93 78.674 0.233 7.14 3230 6.72
6/30/2021 2:45:00 PM 25.96 78.728 0.233 7.15 3137 6.7
6/30/2021 3:00:00 PM 25.98 78.764 0.234 7.16 3277 6.65
6/30/2021 3:15:00 PM 25.97 78.746 0.233 7.16 3179 6.6
6/30/2021 3:30:00 PM 26.01 78.818 0.233 7.17 3223 6.58
6/30/2021 3:45:00 PM 25.96 78.728 0.233 7.17 3206 6.52
6/30/2021 4:00:00 PM 25.94 78.692 0.233 7.17 3313 6.47
6/30/2021 4:15:00 PM 25.91 78.638 0.233 7.18 3352 6.44
6/30/2021 4:30:00 PM 25.84 78.512 0.232 7.17 3225 6.36
6/30/2021 4:45:00 PM 25.82 78.476 0.232 7.17 3201 6.32
6/30/2021 5:00:00 PM 25.8 78.44 0.232 7.17 3508 6.3
6/30/2021 5:15:00 PM 25.75 78.35 0.233 7.17 3285 6.28
6/30/2021 5:30:00 PM 25.73 78.314 0.233 7.18 3200 6.28
6/30/2021 5:45:00 PM 25.71 78.278 0.233 7.17 3587 6.21
6/30/2021 6:00:00 PM 25.64 78.152 0.233 7.17 3512 6.19
6/30/2021 6:15:00 PM 25.57 78.026 0.234 7.16 3380 6.15
6/30/2021 6:30:00 PM 25.51 77.918 0.232 7.16 3385 6.08
6/30/2021 6:45:00 PM 25.45 77.81 0.232 7.15 3449 6.02
6/30/2021 7:00:00 PM 25.33 77.594 0.232 7.14 3343 5.96
6/30/2021 7:15:00 PM 25.26 77.468 0.232 7.13 3349 5.92
6/30/2021 7:30:00 PM 25.2 77.36 0.233 7.12 3640 5.9
6/30/2021 7:45:00 PM 25.16 77.288 0.233 7.11 3565 5.89
6/30/2021 8:00:00 PM 25.1 77.18 0.233 7.11 3418 5.86
6/30/2021 8:15:00 PM 25.05 77.09 0.233 7.1 3521 5.85
6/30/2021 8:30:00 PM 24.92 76.856 0.233 7.1 3477 5.83
6/30/2021 8:45:00 PM 24.79 76.622 0.233 7.09 3349 5.8
6/30/2021 9:00:00 PM 24.8 76.64 0.233 7.09 3359 5.79
6/30/2021 9:15:00 PM 24.73 76.514 0.233 7.08 3358 5.76
6/30/2021 9:30:00 PM 24.62 76.316 0.233 7.08 3370 5.74
6/30/2021 9:45:00 PM 24.64 76.352 0.232 7.06 3519 5.73
6/30/2021 10:00:00 PM 24.56 76.208 0.234 7.06 3479 5.75
6/30/2021 10:15:00 PM 24.51 76.118 0.234 7.06 3422 5.75
6/30/2021 10:30:00 PM 24.51 76.118 0.233 7.06 3655 5.76
6/30/2021 10:45:00 PM 24.55 76.19 0.234 7.06 3616 5.78
6/30/2021 11:00:00 PM 24.47 76.046 0.233 7.06 3591 5.79
6/30/2021 11:15:00 PM 24.36 75.848 0.233 7.06 3529 5.74
6/30/2021 11:30:00 PM 24.14 75.452 0.233 7.04 3580 5.62
6/30/2021 11:45:00 PM 23.93 75.074 0.234 7.01 3940 5.5
7/1/2021 12:00:00 AM 23.81 74.858 0.234 6.99 3666 5.44
7/1/2021 12:15:00 AM 23.77 74.786 0.234 6.97 3728 5.44
7/1/2021 12:30:00 AM 23.78 74.804 0.234 6.96 3556 5.48
7/1/2021 12:45:00 AM 23.79 74.82201 0.234 6.96 3549 5.53
7/1/2021 1:00:00 AM 23.79 74.82201 0.234 6.97 3613 5.59
7/1/2021 1:15:00 AM 23.84 74.912 0.234 6.97 3574 5.64
7/1/2021 1:30:00 AM 23.84 74.912 0.233 6.99 3467 5.69
7/1/2021 1:45:00 AM 23.86 74.948 0.233 6.99 3506 5.72
7/1/2021 2:00:00 AM 23.81 74.858 0.233 6.99 3544 5.72
7/1/2021 2:15:00 AM 23.78 74.804 0.232 6.99 3722 5.72
7/1/2021 2:30:00 AM 23.78 74.804 0.232 6.99 3927 5.76
7/1/2021 2:45:00 AM 23.73 74.714 0.233 6.99 3768 5.74
7/1/2021 3:00:00 AM 23.67 74.606 0.233 6.99 3702 5.73
7/1/2021 3:15:00 AM 23.57 74.426 0.233 6.99 3970 5.67
7/1/2021 3:30:00 AM 23.49 74.282 0.233 6.97 3652 5.6
7/1/2021 3:45:00 AM 23.38 74.084 0.234 6.96 3721 5.55
7/1/2021 4:00:00 AM 23.33 73.994 0.233 6.94 3534 5.5
7/1/2021 4:15:00 AM 23.32 73.976 0.233 6.94 3605 5.5
7/1/2021 4:30:00 AM 23.35 74.03 0.233 6.94 3666 5.52
7/1/2021 4:45:00 AM 23.32 73.976 0.233 6.93 3671 5.55
7/1/2021 5:00:00 AM 23.33 73.994 0.234 6.93 3645 5.58
7/1/2021 5:15:00 AM 23.35 74.03 0.234 6.93 3698 5.61
7/1/2021 5:30:00 AM 23.35 74.03 0.234 6.94 3582 5.63
7/1/2021 5:45:00 AM 23.35 74.03 0.234 6.95 3618 5.65
7/1/2021 6:00:00 AM 23.37 74.066 0.233 6.96 3603 5.68
7/1/2021 6:15:00 AM 23.34 74.012 0.233 6.96 3711 5.68
7/1/2021 6:30:00 AM 23.35 74.03 0.233 6.96 3556 5.69
7/1/2021 6:45:00 AM 23.33 73.994 0.233 6.96 3613 5.68
7/1/2021 7:00:00 AM 23.3 73.94 0.233 6.96 3812 5.67
7/1/2021 7:15:00 AM 23.28 73.904 0.233 6.96 3808 5.66
7/1/2021 7:30:00 AM 23.29 73.922 0.233 6.95 3716 5.7
7/1/2021 7:45:00 AM 23.31 73.958 0.233 6.96 3538 5.73
7/1/2021 8:00:00 AM 23.4 74.12 0.233 6.96 3605 5.79
7/1/2021 8:15:00 AM 23.51 74.318 0.233 6.97 3572 5.9
7/1/2021 8:30:00 AM 23.61 74.498 0.233 6.98 3659 5.96
7/1/2021 8:45:00 AM 23.67 74.606 0.233 7 3655 6.03
7/1/2021 9:00:00 AM 23.72 74.696 0.233 7.01 3737 6.05
7/1/2021 9:15:00 AM 23.74 74.732 0.232 7.02 3756 6.04
7/1/2021 9:30:00 AM 23.69 74.642 0.232 7.02 3740 6.01
7/1/2021 9:45:00 AM 23.62 74.516 0.232 7.02 3787 5.96
7/1/2021 10:00:00 AM 23.58 74.444 0.233 7.02 3699 5.9
7/1/2021 10:15:00 AM 23.56 74.408 0.233 7.01 4091 5.86
7/1/2021 10:30:00 AM 23.5 74.3 0.232 7.01 3985 5.81
7/1/2021 10:45:00 AM 23.54 74.372 0.231 7 3845 5.82
7/1/2021 11:00:00 AM 23.59 74.462 0.232 7 3802 5.91
7/1/2021 11:15:00 AM 23.7 74.66 0.231 7 3785 6.02
7/1/2021 11:30:00 AM 23.78 74.804 0.231 7.01 3754 6.07
7/1/2021 11:45:00 AM 23.94 75.092 0.231 7.02 3828 6.19
7/1/2021 12:00:00 PM 24.07 75.326 0.231 7.03 3722 6.28
7/1/2021 12:15:00 PM 24.18 75.524 0.232 7.04 3676 6.37
7/1/2021 12:30:00 PM 24.22 75.596 0.232 7.06 3650 6.38
7/1/2021 12:45:00 PM 24.25 75.65 0.232 7.07 3760 6.41
7/1/2021 1:00:00 PM 24.26 75.668 0.232 7.08 3741 6.42
7/1/2021 1:15:00 PM 24.26 75.668 0.232 7.08 3727 6.44
7/1/2021 1:30:00 PM 24.28 75.704 0.232 7.09 3765 6.48
7/1/2021 1:45:00 PM 24.23 75.614 0.233 7.09 3945 6.45
7/1/2021 2:00:00 PM 24.2 75.56 0.232 7.09 3784 6.39
7/1/2021 2:15:00 PM 24.14 75.452 0.233 7.08 3791 6.34
7/1/2021 2:30:00 PM 24.11 75.398 0.234 7.09 3787 6.32
7/1/2021 2:45:00 PM 24.08 75.344 0.233 7.09 3705 6.23
7/1/2021 3:00:00 PM 24.04 75.272 0.234 7.09 3814 6.24
7/1/2021 3:15:00 PM 24.03 75.254 0.234 7.09 3726 6.25
7/1/2021 3:30:00 PM 24.09 75.362 0.233 7.09 3804 6.28
7/1/2021 3:45:00 PM 24.11 75.398 0.234 7.09 3788 6.29
7/1/2021 4:00:00 PM 24.14 75.452 0.233 7.1 3743 6.31
7/1/2021 4:15:00 PM 24.12 75.416 0.232 7.11 3838 6.29
7/1/2021 4:30:00 PM 24.07 75.326 0.232 7.11 3692 6.24
7/1/2021 4:45:00 PM 24.14 75.452 0.232 7.11 3706 6.27
7/1/2021 5:00:00 PM 24.21 75.578 0.233 7.11 3744 6.32
7/1/2021 5:15:00 PM 24.19 75.542 0.233 7.13 3825 6.36
7/1/2021 5:30:00 PM 24.21 75.578 0.233 7.14 3709 6.41
7/1/2021 5:45:00 PM 24.23 75.614 0.233 7.15 3746 6.45
7/1/2021 6:00:00 PM 24.22 75.596 0.233 7.16 3755 6.46
7/1/2021 6:15:00 PM 24.25 75.65 0.233 7.18 3757 6.48
7/1/2021 6:30:00 PM 24.2 75.56 0.233 7.17 3813 6.42
7/1/2021 6:45:00 PM 24.16 75.488 0.233 7.18 4030 6.35
7/1/2021 7:00:00 PM 24.06 75.308 0.235 7.18 3960 6.25
7/1/2021 7:15:00 PM 24.03 75.254 0.234 7.18 4106 6.18
7/1/2021 7:30:00 PM 23.94 75.092 0.235 7.18 3873 6.12
7/1/2021 7:45:00 PM 23.88 74.984 0.235 7.17 3958 6.06
7/1/2021 8:00:00 PM 23.76 74.768 0.234 7.18 3968 6.18
7/1/2021 8:15:00 PM 23.69 74.642 0.231 7.17 4086 6.25
7/1/2021 8:30:00 PM 23.61 74.498 0.229 7.17 4025 6.24
7/1/2021 8:45:00 PM 23.58 74.444 0.229 7.17 4002 6.17
7/1/2021 9:00:00 PM 23.57 74.426 0.229 7.15 3998 6.13
7/1/2021 9:15:00 PM 23.54 74.372 0.23 7.15 4011 6.1
7/1/2021 9:30:00 PM 23.55 74.39 0.231 7.14 4092 6.09
7/1/2021 9:45:00 PM 23.57 74.426 0.231 7.14 4035 6.07
7/1/2021 10:00:00 PM 23.55 74.39 0.231 7.15 3915 6.02
7/1/2021 10:15:00 PM 23.53 74.354 0.231 7.14 4024 5.97
7/1/2021 10:30:00 PM 23.49 74.282 0.231 7.14 4081 5.96
7/1/2021 10:45:00 PM 23.46 74.228 0.231 7.13 4155 5.96
7/1/2021 11:00:00 PM 23.41 74.138 0.231 7.13 4075 5.96
7/1/2021 11:15:00 PM 23.39 74.102 0.231 7.13 4034 5.97
7/1/2021 11:30:00 PM 23.36 74.048 0.231 7.12 4050 5.98
7/1/2021 11:45:00 PM 23.38 74.084 0.231 7.12 4445 5.98
7/2/2021 12:00:00 AM 23.37 74.066 0.231 7.12 4102 5.99
7/2/2021 12:15:00 AM 23.4 74.12 0.23 7.12 4140 6
7/2/2021 12:30:00 AM 23.37 74.066 0.23 7.12 4143 6
7/2/2021 12:45:00 AM 23.37 74.066 0.23 7.12 4269 5.99
7/2/2021 1:00:00 AM 23.33 73.994 0.229 7.12 4306 5.95
7/2/2021 1:15:00 AM 23.31 73.958 0.229 7.11 4204 5.96
7/2/2021 1:30:00 AM 23.25 73.85 0.23 7.12 4092 5.93
7/2/2021 1:45:00 AM 23.23 73.814 0.23 7.11 4211 5.93
7/2/2021 2:00:00 AM 23.19 73.742 0.23 7.11 4176 5.93
7/2/2021 2:15:00 AM 23.16 73.688 0.23 7.11 4184 5.91
7/2/2021 2:30:00 AM 23.16 73.688 0.23 7.11 4372 5.93
7/2/2021 2:45:00 AM 23.14 73.652 0.23 7.1 4315 5.93
7/2/2021 3:00:00 AM 23.14 73.652 0.23 7.11 4177 5.95
7/2/2021 3:15:00 AM 23.14 73.652 0.23 7.11 4296 5.96
7/2/2021 3:30:00 AM 23.11 73.598 0.23 7.11 4306 5.95
7/2/2021 3:45:00 AM 23.11 73.598 0.229 7.11 4282 5.95
7/2/2021 4:00:00 AM 23.09 73.562 0.23 7.11 4386 5.97
7/2/2021 4:15:00 AM 23.05 73.49 0.23 7.11 4244 5.96
7/2/2021 4:30:00 AM 23.04 73.472 0.23 7.11 4394 5.99
7/2/2021 4:45:00 AM 23.02 73.436 0.23 7.11 4332 6
7/2/2021 5:00:00 AM 22.99 73.382 0.231 7.11 4348 6.01
7/2/2021 5:15:00 AM 22.97 73.346 0.231 7.13 4292 6.02
7/2/2021 5:30:00 AM 22.97 73.346 0.231 7.12 4347 6.02
7/2/2021 5:45:00 AM 22.94 73.292 0.231 7.11 4331 6.02
7/2/2021 6:00:00 AM 22.91 73.238 0.231 7.11 4329 6.03
7/2/2021 6:15:00 AM 22.89 73.202 0.231 7.11 4372 6.02
7/2/2021 6:30:00 AM 22.86 73.148 0.231 7.12 4331 6.02
7/2/2021 6:45:00 AM 22.82 73.076 0.231 7.12 4521 6.03
7/2/2021 7:00:00 AM 22.77 72.986 0.232 7.11 4420 6.03
7/2/2021 7:15:00 AM 22.74 72.932 0.232 7.11 4372 6.06
7/2/2021 7:30:00 AM 22.73 72.914 0.233 7.1 4376 6.09
7/2/2021 7:45:00 AM 22.7 72.86 0.232 7.1 4362 6.09
7/2/2021 8:00:00 AM 22.69 72.842 0.232 7.11 4467 6.1
7/2/2021 8:15:00 AM 22.7 72.86 0.232 7.11 4537 6.13
7/2/2021 8:30:00 AM 22.69 72.842 0.232 7.11 4588 6.14
7/2/2021 8:45:00 AM 22.7 72.86 0.232 7.11 4444 6.21
7/2/2021 9:00:00 AM 22.7 72.86 0.232 7.11 4438 6.26
7/2/2021 9:15:00 AM 22.69 72.842 0.232 7.12 4352 6.33
7/2/2021 9:30:00 AM 22.68 72.824 0.232 7.12 4598 6.37
7/2/2021 9:45:00 AM 22.66 72.788 0.232 7.12 4395 6.4
7/2/2021 10:00:00 AM 22.66 72.788 0.232 7.13 4731 6.45
7/2/2021 10:15:00 AM 22.67 72.806 0.232 7.13 4732 6.51
7/2/2021 10:30:00 AM 22.68 72.824 0.232 7.14 4501 6.58
7/2/2021 10:45:00 AM 22.69 72.842 0.232 7.14 4439 6.62
7/2/2021 11:00:00 AM 22.7 72.86 0.232 7.15 4544 6.63
7/2/2021 11:15:00 AM 22.69 72.842 0.232 7.16 4791 6.65
7/2/2021 11:30:00 AM 22.7 72.86 0.231 7.15 4613 6.64
7/2/2021 11:45:00 AM 22.74 72.932 0.231 7.16 4433 6.71
7/2/2021 12:00:00 PM 22.77 72.986 0.231 7.16 4468 6.8
7/2/2021 12:15:00 PM 22.86 73.148 0.232 7.17 4429 6.95
7/2/2021 12:30:00 PM 22.94 73.292 0.23 7.18 4443 7.04
7/2/2021 12:45:00 PM 23.07 73.526 0.23 7.19 4474 7.14
7/2/2021 1:00:00 PM 23.19 73.742 0.23 7.21 4451 7.2
7/2/2021 1:15:00 PM 23.32 73.976 0.229 7.22 4474 7.3
7/2/2021 1:30:00 PM 23.4 74.12 0.229 7.24 4404 7.32
7/2/2021 1:45:00 PM 23.47 74.246 0.228 7.25 4425 7.37
7/2/2021 2:00:00 PM 23.59 74.462 0.227 7.26 4504 7.44
7/2/2021 2:15:00 PM 23.64 74.552 0.227 7.28 4544 7.47
7/2/2021 2:30:00 PM 23.65 74.57 0.227 7.29 4510 7.5
7/2/2021 2:45:00 PM 23.71 74.67799 0.227 7.31 4415 7.56
7/2/2021 3:00:00 PM 23.82 74.876 0.227 7.32 4416 7.58
7/2/2021 3:15:00 PM 23.91 75.038 0.227 7.34 4426 7.63
7/2/2021 3:30:00 PM 24 75.2 0.227 7.35 4486 7.59
7/2/2021 3:45:00 PM 23.95 75.11 0.226 7.37 4485 7.48
7/2/2021 4:00:00 PM 24.02 75.236 0.226 7.38 4390 7.48
7/2/2021 4:15:00 PM 23.97 75.146 0.226 7.38 4496 7.34
7/2/2021 4:30:00 PM 24.01 75.218 0.226 7.38 4487 7.31
7/2/2021 4:45:00 PM 24.01 75.218 0.226 7.38 4506 7.3
7/2/2021 5:00:00 PM 24.04 75.272 0.226 7.38 4485 7.27
7/2/2021 5:15:00 PM 24.02 75.236 0.226 7.38 4486 7.25
7/2/2021 5:30:00 PM 24 75.2 0.226 7.38 4463 7.18
7/2/2021 5:45:00 PM 23.97 75.146 0.227 7.38 4758 7.12
7/2/2021 6:00:00 PM 23.94 75.092 0.227 7.38 4496 7.06
7/2/2021 6:15:00 PM 23.91 75.038 0.227 7.38 4525 6.97
7/2/2021 6:30:00 PM 23.88 74.984 0.227 7.37 4487 6.93
7/2/2021 6:45:00 PM 23.83 74.894 0.226 7.37 4658 6.88
7/2/2021 7:00:00 PM 23.78 74.804 0.226 7.36 4675 6.82
7/2/2021 7:15:00 PM 23.69 74.642 0.226 7.35 4546 6.74
7/2/2021 7:30:00 PM 23.61 74.498 0.227 7.34 4587 6.7
7/2/2021 7:45:00 PM 23.5 74.3 0.227 7.33 4595 6.65
7/2/2021 8:00:00 PM 23.42 74.156 0.227 7.31 4547 6.6
7/2/2021 8:15:00 PM 23.32 73.976 0.227 7.3 4634 6.56
7/2/2021 8:30:00 PM 23.24 73.832 0.227 7.29 4572 6.51
7/2/2021 8:45:00 PM 23.14 73.652 0.227 7.28 4624 6.45
7/2/2021 9:00:00 PM 23.05 73.49 0.227 7.27 4624 6.38
7/2/2021 9:15:00 PM 22.96 73.328 0.227 7.25 4677 6.35
7/2/2021 9:30:00 PM 22.86 73.148 0.227 7.23 4697 6.3
7/2/2021 9:45:00 PM 22.76 72.968 0.227 7.22 4913 6.27
7/2/2021 10:00:00 PM 22.66 72.788 0.227 7.21 4743 6.26
7/2/2021 10:15:00 PM 22.57 72.626 0.227 7.2 4744 6.24
7/2/2021 10:30:00 PM 22.5 72.5 0.227 7.19 4687 6.26
7/2/2021 10:45:00 PM 22.42 72.356 0.227 7.19 4721 6.25
7/2/2021 11:00:00 PM 22.35 72.23 0.227 7.18 4750 6.25
7/2/2021 11:15:00 PM 22.28 72.104 0.227 7.17 4733 6.27
7/2/2021 11:30:00 PM 22.21 71.978 0.227 7.17 4746 6.26
7/2/2021 11:45:00 PM 22.14 71.852 0.227 7.16 4705 6.23
7/3/2021 12:00:00 AM 22.07 71.726 0.227 7.15 4770 6.24
7/3/2021 12:15:00 AM 21.97 71.546 0.227 7.15 4729 6.25
7/3/2021 12:30:00 AM 21.88 71.384 0.227 7.15 4783 6.26
7/3/2021 12:45:00 AM 21.78 71.204 0.228 7.16 4773 6.25
7/3/2021 1:00:00 AM 21.69 71.042 0.228 7.15 4860 6.23
7/3/2021 1:15:00 AM 21.61 70.898 0.227 7.14 4804 6.19
7/3/2021 1:30:00 AM 21.53 70.754 0.228 7.12 4803 6.18
7/3/2021 1:45:00 AM 21.46 70.628 0.228 7.11 4745 6.15
7/3/2021 2:00:00 AM 21.42 70.556 0.228 7.1 4736 6.16
7/3/2021 2:15:00 AM 21.38 70.484 0.228 7.09 4915 6.14
7/3/2021 2:30:00 AM 21.35 70.43 0.228 7.08 4822 6.17
7/3/2021 2:45:00 AM 21.3 70.34 0.228 7.08 4806 6.2
7/3/2021 3:00:00 AM 21.26 70.268 0.228 7.08 4813 6.24
7/3/2021 3:15:00 AM 21.22 70.196 0.227 7.08 5130 6.28
7/3/2021 3:30:00 AM 21.2 70.16 0.228 7.09 4847 6.28
7/3/2021 3:45:00 AM 21.17 70.106 0.229 7.09 4851 6.29
7/3/2021 4:00:00 AM 21.14 70.052 0.229 7.09 4838 6.31
7/3/2021 4:15:00 AM 21.11 69.998 0.229 7.09 4871 6.29
7/3/2021 4:30:00 AM 21.08 69.944 0.227 7.09 4820 6.29
7/3/2021 4:45:00 AM 21.03 69.854 0.228 7.08 4872 6.27
7/3/2021 5:00:00 AM 20.97 69.746 0.229 7.08 4902 6.26
7/3/2021 5:15:00 AM 20.9 69.62 0.229 7.08 4911 6.27
7/3/2021 5:30:00 AM 20.84 69.512 0.23 7.07 4922 6.28
7/3/2021 5:45:00 AM 20.78 69.404 0.23 7.06 4929 6.28
7/3/2021 6:00:00 AM 20.74 69.332 0.23 7.07 4948 6.26
7/3/2021 6:15:00 AM 20.7 69.26 0.23 7.07 4980 6.28
7/3/2021 6:30:00 AM 20.68 69.224 0.23 7.06 4964 6.29
7/3/2021 6:45:00 AM 20.66 69.188 0.23 7.05 4991 6.3
7/3/2021 7:00:00 AM 20.65 69.17 0.23 7.05 5027 6.29
7/3/2021 7:15:00 AM 20.66 69.188 0.23 7.05 5085 6.32
7/3/2021 7:30:00 AM 20.66 69.188 0.23 7.05 4894 6.37
7/3/2021 7:45:00 AM 20.68 69.224 0.23 7.07 4880 6.46
7/3/2021 8:00:00 AM 20.7 69.26 0.23 7.07 4901 6.51
7/3/2021 8:15:00 AM 20.75 69.35 0.23 7.08 4910 6.55
7/3/2021 8:30:00 AM 20.79 69.422 0.23 7.08 4970 6.59
7/3/2021 8:45:00 AM 20.85 69.53 0.23 7.09 5042 6.63
7/3/2021 9:00:00 AM 20.93 69.674 0.23 7.09 4984 6.69
7/3/2021 9:15:00 AM 21.03 69.854 0.23 7.1 4959 6.74
7/3/2021 9:30:00 AM 21.1 69.98 0.231 7.11 4997 6.81
7/3/2021 9:45:00 AM 21.14 70.052 0.231 7.11 5020 6.91
7/3/2021 10:00:00 AM 21.2 70.16 0.231 7.12 4998 6.99
7/3/2021 10:15:00 AM 21.25 70.25 0.231 7.14 5038 7.09
7/3/2021 10:30:00 AM 21.3 70.34 0.231 7.14 5087 7.14
7/3/2021 10:45:00 AM 21.4 70.52 0.23 7.15 5033 7.22
7/3/2021 11:00:00 AM 21.51 70.718 0.231 7.16 5062 7.33
7/3/2021 11:15:00 AM 21.6 70.88 0.23 7.18 5060 7.38
7/3/2021 11:30:00 AM 21.69 71.042 0.23 7.19 5018 7.41
7/3/2021 11:45:00 AM 21.82 71.276 0.23 7.21 5035 7.44
7/3/2021 12:00:00 PM 21.99 71.582 0.23 7.22 5086 7.53
7/3/2021 12:15:00 PM 22.15 71.87 0.23 7.24 5103 7.6
7/3/2021 12:30:00 PM 22.32 72.176 0.23 7.25 5060 7.63
7/3/2021 12:45:00 PM 22.49 72.482 0.23 7.26 5008 7.69
7/3/2021 1:00:00 PM 22.59 72.662 0.23 7.29 5073 7.67
7/3/2021 1:15:00 PM 22.68 72.824 0.231 7.3 5096 7.66
7/3/2021 1:30:00 PM 22.75 72.95 0.23 7.31 5022 7.63
7/3/2021 1:45:00 PM 22.75 72.95 0.23 7.33 5100 7.58
7/3/2021 2:00:00 PM 22.72 72.896 0.23 7.33 5033 7.48
7/3/2021 2:15:00 PM 22.8 73.04 0.23 7.33 4968 7.54
7/3/2021 2:30:00 PM 22.88 73.184 0.228 7.34 5116 7.54
7/3/2021 2:45:00 PM 22.96 73.328 0.229 7.35 5067 7.59
7/3/2021 3:00:00 PM 23.06 73.508 0.228 7.36 5075 7.63
7/3/2021 3:15:00 PM 23.13 73.634 0.23 7.37 5018 7.6
7/3/2021 3:30:00 PM 23.17 73.706 0.23 7.38 5015 7.62
7/3/2021 3:45:00 PM 23.16 73.688 0.23 7.39 4929 7.58
7/3/2021 4:00:00 PM 23.18 73.724 0.23 7.4 5060 7.54
7/3/2021 4:15:00 PM 23.25 73.85 0.229 7.4 4947 7.57
7/3/2021 4:30:00 PM 23.24 73.832 0.23 7.41 4970 7.47
7/3/2021 4:45:00 PM 23.01 73.418 0.23 7.41 5057 7.41
7/3/2021 5:00:00 PM 22.84 73.112 0.228 7.41 5087 7.35
7/3/2021 5:15:00 PM 22.74 72.932 0.227 7.4 5151 7.28
7/3/2021 5:30:00 PM 22.63 72.734 0.225 7.39 5141 7.16
7/3/2021 5:45:00 PM 22.59 72.662 0.225 7.38 5086 7.11
7/3/2021 6:00:00 PM 22.54 72.57201 0.224 7.37 5126 7.05
7/3/2021 6:15:00 PM 22.5 72.5 0.224 7.36 5159 6.98
7/3/2021 6:30:00 PM 22.44 72.392 0.224 7.35 5108 6.81
7/3/2021 6:45:00 PM 22.39 72.302 0.225 7.32 5106 6.62
7/3/2021 7:00:00 PM 22.25 72.05 0.226 7.3 5060 6.67
7/3/2021 7:15:00 PM 22.1 71.78 0.228 7.29 5101 6.67
7/3/2021 7:30:00 PM 22.03 71.654 0.23 7.27 5180 6.64
7/3/2021 7:45:00 PM 21.96 71.528 0.231 7.25 5161 6.66
7/3/2021 8:00:00 PM 21.9 71.42 0.232 7.25 5150 6.7
7/3/2021 8:15:00 PM 21.88 71.384 0.23 7.24 5162 6.64
7/3/2021 8:30:00 PM 21.88 71.384 0.228 7.24 5234 6.61
7/3/2021 8:45:00 PM 21.87 71.366 0.227 7.23 5142 6.58
7/3/2021 9:00:00 PM 21.85 71.33 0.225 7.23 5183 6.56
7/3/2021 9:15:00 PM 21.81 71.258 0.227 7.22 5149 6.52
7/3/2021 9:30:00 PM 21.74 71.132 0.227 7.21 5197 6.45
7/3/2021 9:45:00 PM 21.66 70.988 0.228 7.19 5200 6.37
7/3/2021 10:00:00 PM 21.57 70.826 0.228 7.17 5144 6.29
7/3/2021 10:15:00 PM 21.49 70.682 0.228 7.15 5185 6.23
7/3/2021 10:30:00 PM 21.43 70.574 0.227 7.13 5211 6.19
7/3/2021 10:45:00 PM 21.4 70.52 0.227 7.11 5234 6.17
7/3/2021 11:00:00 PM 21.38 70.484 0.227 7.1 5137 6.15
7/3/2021 11:15:00 PM 21.38 70.484 0.226 7.1 5204 6.21
7/3/2021 11:30:00 PM 21.37 70.466 0.225 7.1 5150 6.24
7/3/2021 11:45:00 PM 21.37 70.466 0.227 7.1 5210 6.26
7/4/2021 12:00:00 AM 21.36 70.448 0.227 7.11 5141 6.32
7/4/2021 12:15:00 AM 21.36 70.448 0.227 7.11 5185 6.34
7/4/2021 12:30:00 AM 21.36 70.448 0.226 7.11 5205 6.34
7/4/2021 12:45:00 AM 21.37 70.466 0.225 7.12 5168 6.38
7/4/2021 1:00:00 AM 21.36 70.448 0.226 7.12 5199 6.37
7/4/2021 1:15:00 AM 21.35 70.43 0.226 7.12 5132 6.35
7/4/2021 1:30:00 AM 21.35 70.43 0.226 7.12 5223 6.32
7/4/2021 1:45:00 AM 21.33 70.394 0.226 7.12 5229 6.3
7/4/2021 2:00:00 AM 21.3 70.34 0.226 7.11 5216 6.3
7/4/2021 2:15:00 AM 21.26 70.268 0.226 7.11 5218 6.32
7/4/2021 2:30:00 AM 21.22 70.196 0.226 7.11 5234 6.32
7/4/2021 2:45:00 AM 21.18 70.124 0.226 7.1 5213 6.33
7/4/2021 3:00:00 AM 21.16 70.088 0.226 7.1 5205 6.33
7/4/2021 3:15:00 AM 21.15 70.07 0.226 7.1 5214 6.33
7/4/2021 3:30:00 AM 21.15 70.07 0.226 7.09 5206 6.35
7/4/2021 3:45:00 AM 21.15 70.07 0.225 7.09 5187 6.35
7/4/2021 4:00:00 AM 21.15 70.07 0.226 7.1 5228 6.33
7/4/2021 4:15:00 AM 21.15 70.07 0.226 7.09 5234 6.33
7/4/2021 4:30:00 AM 21.13 70.034 0.224 7.09 5228 6.33
7/4/2021 4:45:00 AM 21.1 69.98 0.226 7.1 5220 6.35
7/4/2021 5:00:00 AM 21.06 69.908 0.226 7.1 5228 6.39
7/4/2021 5:15:00 AM 21.03 69.854 0.226 7.1 5234 6.4
7/4/2021 5:30:00 AM 21.01 69.818 0.226 7.09 5222 6.42
7/4/2021 5:45:00 AM 20.98 69.764 0.228 7.1 5234 6.43
7/4/2021 6:00:00 AM 20.96 69.728 0.227 7.1 5232 6.43
7/4/2021 6:15:00 AM 20.93 69.674 0.228 7.1 5221 6.45
7/4/2021 6:30:00 AM 20.91 69.638 0.228 7.1 5210 6.45
7/4/2021 6:45:00 AM 20.91 69.638 0.228 7.1 5234 6.44
7/4/2021 7:00:00 AM 20.86 69.548 0.228 7.1 5232 6.48
7/4/2021 7:15:00 AM 20.83 69.494 0.228 7.1 5233 6.51
7/4/2021 7:30:00 AM 20.79 69.422 0.228 7.1 5234 6.56
7/4/2021 7:45:00 AM 20.79 69.422 0.228 7.11 5224 6.6
7/4/2021 8:00:00 AM 20.82 69.476 0.228 7.1 5234 6.64
7/4/2021 8:15:00 AM 20.83 69.494 0.228 7.11 5234 6.69
7/4/2021 8:30:00 AM 20.89 69.602 0.228 7.12 5234 6.74
7/4/2021 8:45:00 AM 20.94 69.692 0.228 7.12 5232 6.77
7/4/2021 9:00:00 AM 21.01 69.818 0.228 7.13 5234 6.81
7/4/2021 9:15:00 AM 21.05 69.89 0.228 7.13 5234 6.84
7/4/2021 9:30:00 AM 21.14 70.052 0.228 7.14 5234 6.91
7/4/2021 9:45:00 AM 21.24 70.232 0.228 7.15 5234 7
7/4/2021 10:00:00 AM 21.34 70.412 0.228 7.16 5232 7.07
7/4/2021 10:15:00 AM 21.46 70.628 0.228 7.17 5234 7.14
7/4/2021 10:30:00 AM 21.59 70.862 0.228 7.18 5232 7.2
7/4/2021 10:45:00 AM 21.72 71.096 0.228 7.19 5234 7.26
7/4/2021 11:00:00 AM 21.86 71.348 0.228 7.2 5233 7.34
7/4/2021 11:15:00 AM 22.04 71.672 0.228 7.22 5229 7.37
7/4/2021 11:30:00 AM 22.23 72.014 0.228 7.23 5233 7.42
7/4/2021 11:45:00 AM 22.38 72.284 0.228 7.25 5233 7.48
7/4/2021 12:00:00 PM 22.58 72.644 0.227 7.26 5234 7.56
7/4/2021 12:15:00 PM 22.75 72.95 0.229 7.27 5231 7.63
7/4/2021 12:30:00 PM 22.94 73.292 0.229 7.29 5195 7.68
7/4/2021 12:45:00 PM 23.14 73.652 0.229 7.31 5227 7.73
7/4/2021 1:00:00 PM 23.35 74.03 0.229 7.33 5219 7.79
7/4/2021 1:15:00 PM 23.53 74.354 0.228 7.34 5222 7.82
7/4/2021 1:30:00 PM 23.71 74.67799 0.227 7.36 5227 7.84
7/4/2021 1:45:00 PM 23.9 75.02 0.229 7.37 5211 7.84
7/4/2021 2:00:00 PM 24.04 75.272 0.229 7.39 5202 7.85
7/4/2021 2:15:00 PM 24.18 75.524 0.229 7.4 5225 7.85
7/4/2021 2:30:00 PM 24.28 75.704 0.229 7.41 5201 7.84
7/4/2021 2:45:00 PM 24.38 75.884 0.229 7.43 5191 7.83
7/4/2021 3:00:00 PM 24.43 75.974 0.229 7.44 5219 7.82
7/4/2021 3:15:00 PM 24.48 76.064 0.229 7.47 5228 7.78
7/4/2021 3:30:00 PM 24.52 76.136 0.228 7.47 5227 7.71
7/4/2021 3:45:00 PM 24.5 76.1 0.229 7.47 5205 7.67
7/4/2021 4:00:00 PM 24.51 76.118 0.229 7.47 5184 7.56
7/4/2021 4:15:00 PM 24.46 76.028 0.228 7.48 5229 7.49
7/4/2021 4:30:00 PM 24.41 75.938 0.227 7.48 5170 7.38
7/4/2021 4:45:00 PM 24.35 75.83 0.228 7.47 5220 7.33
7/4/2021 5:00:00 PM 24.29 75.722 0.228 7.46 5221 7.25
7/4/2021 5:15:00 PM 24.23 75.614 0.228 7.45 5231 7.21
7/4/2021 5:30:00 PM 24.18 75.524 0.228 7.44 5210 7.17
7/4/2021 5:45:00 PM 24.15 75.47 0.229 7.44 5211 7.11
7/4/2021 6:00:00 PM 24.11 75.398 0.229 7.43 5220 7.06
7/4/2021 6:15:00 PM 24.09 75.362 0.228 7.42 5230 7.01
7/4/2021 6:30:00 PM 24.06 75.308 0.228 7.42 5229 6.91
7/4/2021 6:45:00 PM 24.02 75.236 0.228 7.41 5215 6.84
7/4/2021 7:00:00 PM 24 75.2 0.228 7.4 5224 6.76
7/4/2021 7:15:00 PM 23.94 75.092 0.228 7.39 5195 6.71
7/4/2021 7:30:00 PM 23.87 74.966 0.228 7.38 5232 6.67
7/4/2021 7:45:00 PM 23.79 74.82201 0.229 7.37 5233 6.62
7/4/2021 8:00:00 PM 23.73 74.714 0.229 7.37 5228 6.57
7/4/2021 8:15:00 PM 23.66 74.588 0.229 7.36 5234 6.55
7/4/2021 8:30:00 PM 23.59 74.462 0.229 7.34 5234 6.51
7/4/2021 8:45:00 PM 23.51 74.318 0.228 7.33 5234 6.46
7/4/2021 9:00:00 PM 23.43 74.174 0.228 7.32 5234 6.42
7/4/2021 9:15:00 PM 23.33 73.994 0.228 7.3 5234 6.37
7/4/2021 9:30:00 PM 23.23 73.814 0.228 7.29 5234 6.3
7/4/2021 9:45:00 PM 23.13 73.634 0.229 7.27 5234 6.26
7/4/2021 10:00:00 PM 23.02 73.436 0.229 7.26 5230 6.23
7/4/2021 10:15:00 PM 22.93 73.274 0.229 7.24 5232 6.21
7/4/2021 10:30:00 PM 22.84 73.112 0.23 7.23 5231 6.2
7/4/2021 10:45:00 PM 22.76 72.968 0.229 7.22 5234 6.21
7/4/2021 11:00:00 PM 22.69 72.842 0.229 7.21 5227 6.18
7/4/2021 11:15:00 PM 22.63 72.734 0.229 7.2 5234 6.18
7/4/2021 11:30:00 PM 22.58 72.644 0.229 7.19 5234 6.16
7/4/2021 11:45:00 PM 22.52 72.536 0.229 7.18 5233 6.14
7/5/2021 12:00:00 AM 22.47 72.446 0.228 7.17 5222 6.16
7/5/2021 12:15:00 AM 22.4 72.32 0.229 7.16 5231 6.17
7/5/2021 12:30:00 AM 22.33 72.194 0.23 7.15 5234 6.18
7/5/2021 12:45:00 AM 22.26 72.068 0.23 7.15 5232 6.19
7/5/2021 1:00:00 AM 22.2 71.96 0.23 7.14 5231 6.17
7/5/2021 1:15:00 AM 22.14 71.852 0.23 7.13 5222 6.14
7/5/2021 1:30:00 AM 22.07 71.726 0.23 7.13 5233 6.11
7/5/2021 1:45:00 AM 22.01 71.618 0.228 7.12 5234 6.09
7/5/2021 2:00:00 AM 21.95 71.51 0.229 7.1 5234 6.05
7/5/2021 2:15:00 AM 21.91 71.438 0.229 7.1 5233 6.06
7/5/2021 2:30:00 AM 21.86 71.348 0.229 7.09 5234 6.04
7/5/2021 2:45:00 AM 21.82 71.276 0.229 7.08 5234 6.07
7/5/2021 3:00:00 AM 21.77 71.186 0.23 7.08 5234 6.1
7/5/2021 3:15:00 AM 21.73 71.114 0.23 7.07 5234 6.12
7/5/2021 3:30:00 AM 21.7 71.06 0.23 7.08 5234 6.14
7/5/2021 3:45:00 AM 21.68 71.024 0.23 7.08 5234 6.13
7/5/2021 4:00:00 AM 21.66 70.988 0.23 7.08 5234 6.15
7/5/2021 4:15:00 AM 21.64 70.952 0.23 7.08 5234 6.14
7/5/2021 4:30:00 AM 21.63 70.934 0.23 7.07 5234 6.13
7/5/2021 4:45:00 AM 21.6 70.88 0.23 7.07 5234 6.14
7/5/2021 5:00:00 AM 21.57 70.826 0.23 7.07 5234 6.16
7/5/2021 5:15:00 AM 21.52 70.736 0.231 7.07 5234 6.17
7/5/2021 5:30:00 AM 21.49 70.682 0.231 7.07 5234 6.21
7/5/2021 5:45:00 AM 21.47 70.646 0.231 7.08 5234 6.22
7/5/2021 6:00:00 AM 21.45 70.61 0.231 7.08 5234 6.23
7/5/2021 6:15:00 AM 21.44 70.592 0.231 7.08 5234 6.25
7/5/2021 6:30:00 AM 21.43 70.574 0.231 7.08 5234 6.24
7/5/2021 6:45:00 AM 21.42 70.556 0.23 7.09 5234 6.25
7/5/2021 7:00:00 AM 21.43 70.574 0.23 7.08 5234 6.25
7/5/2021 7:15:00 AM 21.43 70.574 0.23 7.08 5234 6.26
7/5/2021 7:30:00 AM 21.4 70.52 0.231 7.08 5234 6.3
7/5/2021 7:45:00 AM 21.4 70.52 0.231 7.09 5234 6.35
7/5/2021 8:00:00 AM 21.42 70.556 0.232 7.09 5234 6.36
7/5/2021 8:15:00 AM 21.46 70.628 0.232 7.1 5234 6.42
7/5/2021 8:30:00 AM 21.53 70.754 0.232 7.1 5234 6.45
7/5/2021 8:45:00 AM 21.59 70.862 0.231 7.1 5234 6.52
7/5/2021 9:00:00 AM 21.68 71.024 0.231 7.11 5234 6.56
7/5/2021 9:15:00 AM 21.79 71.222 0.231 7.11 5234 6.6
7/5/2021 9:30:00 AM 21.88 71.384 0.231 7.12 5234 6.67
7/5/2021 9:45:00 AM 21.97 71.546 0.231 7.13 5234 6.74
7/5/2021 10:00:00 AM 22.09 71.762 0.231 7.14 5234 6.87
7/5/2021 10:15:00 AM 22.21 71.978 0.232 7.15 5234 6.96
7/5/2021 10:30:00 AM 22.33 72.194 0.232 7.17 5234 7.04
7/5/2021 10:45:00 AM 22.48 72.464 0.232 7.18 5234 7.13
7/5/2021 11:00:00 AM 22.67 72.806 0.231 7.19 5234 7.23
7/5/2021 11:15:00 AM 22.85 73.13 0.231 7.22 5234 7.3
7/5/2021 11:30:00 AM 23.06 73.508 0.231 7.24 5234 7.39
7/5/2021 11:45:00 AM 23.29 73.922 0.231 7.26 5234 7.47
7/5/2021 12:00:00 PM 23.45 74.21 0.231 7.28 5234 7.54
7/5/2021 12:15:00 PM 23.65 74.57 0.231 7.3 5234 7.58
7/5/2021 12:30:00 PM 23.85 74.93 0.231 7.32 5234 7.69
7/5/2021 12:45:00 PM 24 75.2 0.231 7.34 5233 7.68
7/5/2021 1:00:00 PM 24.2 75.56 0.231 7.36 5231 7.75
7/5/2021 1:15:00 PM 24.37 75.866 0.231 7.38 5233 7.77
7/5/2021 1:30:00 PM 24.58 76.244 0.231 7.41 5234 7.83
7/5/2021 1:45:00 PM 24.7 76.46 0.23 7.42 5232 7.78
7/5/2021 2:00:00 PM 24.82 76.676 0.23 7.44 5233 7.8
7/5/2021 2:15:00 PM 24.94 76.892 0.23 7.46 5234 7.82
7/5/2021 2:30:00 PM 25.03 77.054 0.23 7.47 5233 7.81
7/5/2021 2:45:00 PM 25.08 77.144 0.23 7.49 5233 7.86
7/5/2021 3:00:00 PM 25.11 77.198 0.23 7.5 5234 7.84
7/5/2021 3:15:00 PM 25.15 77.27 0.231 7.51 5233 7.82
7/5/2021 3:30:00 PM 25.19 77.342 0.23 7.52 5232 7.77
7/5/2021 3:45:00 PM 25.15 77.27 0.23 7.53 5234 7.7
7/5/2021 4:00:00 PM 25.13 77.234 0.23 7.52 5234 7.62
7/5/2021 4:15:00 PM 25.11 77.198 0.23 7.53 5233 7.51
7/5/2021 4:30:00 PM 25.1 77.18 0.23 7.53 5234 7.48
7/5/2021 4:45:00 PM 25.08 77.144 0.23 7.52 5233 7.35
7/5/2021 5:00:00 PM 25.05 77.09 0.23 7.51 5233 7.3
7/5/2021 5:15:00 PM 25.03 77.054 0.231 7.51 5234 7.27
7/5/2021 5:30:00 PM 25.02 77.036 0.231 7.51 5233 7.23
7/5/2021 5:45:00 PM 24.97 76.946 0.231 7.52 5233 7.16
7/5/2021 6:00:00 PM 24.96 76.92799 0.231 7.51 5233 7.13
7/5/2021 6:15:00 PM 24.93 76.874 0.231 7.51 5233 7.07
7/5/2021 6:30:00 PM 24.89 76.802 0.231 7.52 5233 7
7/5/2021 6:45:00 PM 24.83 76.694 0.231 7.52 5234 6.9
7/5/2021 7:00:00 PM 24.77 76.586 0.231 7.5 5232 6.81
7/5/2021 7:15:00 PM 24.71 76.478 0.231 7.48 5234 6.72
7/5/2021 7:30:00 PM 24.58 76.244 0.232 7.46 5234 6.62
7/5/2021 7:45:00 PM 24.49 76.082 0.232 7.43 5234 6.52
7/5/2021 8:00:00 PM 24.38 75.884 0.233 7.41 5234 6.44
7/5/2021 8:15:00 PM 24.28 75.704 0.233 7.39 5234 6.37
7/5/2021 8:30:00 PM 24.21 75.578 0.233 7.37 3891 6.31
7/5/2021 8:45:00 PM 24.14 75.452 0.233 7.35 3898 6.24
7/5/2021 9:00:00 PM 24.06 75.308 0.233 7.33 4009 6.17
7/5/2021 9:15:00 PM 23.98 75.164 0.233 7.31 4009 6.13
7/5/2021 9:30:00 PM 23.9 75.02 0.233 7.3 3840 6.1
7/5/2021 9:45:00 PM 23.84 74.912 0.233 7.28 4074 6.09
7/5/2021 10:00:00 PM 23.75 74.75 0.233 7.27 3802 6.09
7/5/2021 10:15:00 PM 23.67 74.606 0.234 7.26 4067 6.06
7/5/2021 10:30:00 PM 23.58 74.444 0.234 7.24 4046 6.04
7/5/2021 10:45:00 PM 23.5 74.3 0.234 7.24 3840 6.02
7/5/2021 11:00:00 PM 23.44 74.192 0.234 7.22 3693 6.01
7/5/2021 11:15:00 PM 23.37 74.066 0.234 7.21 3740 6.01
7/5/2021 11:30:00 PM 23.29 73.922 0.234 7.21 3488 5.99
7/5/2021 11:45:00 PM 23.25 73.85 0.233 7.19 3580 5.97
7/6/2021 12:00:00 AM 23.2 73.76 0.233 7.19 3637 5.97
7/6/2021 12:15:00 AM 23.14 73.652 0.233 7.18 3914 5.98
7/6/2021 12:30:00 AM 23.08 73.544 0.234 7.17 3700 5.99
7/6/2021 12:45:00 AM 23.03 73.454 0.234 7.17 3574 5.98
7/6/2021 1:00:00 AM 22.99 73.382 0.234 7.16 3510 5.97
7/6/2021 1:15:00 AM 22.95 73.31 0.234 7.16 3897 5.98
7/6/2021 1:30:00 AM 22.92 73.256 0.234 7.15 3548 5.96
7/6/2021 1:45:00 AM 22.89 73.202 0.233 7.15 3668 5.96
7/6/2021 2:00:00 AM 22.87 73.166 0.233 7.15 3611 5.95
7/6/2021 2:15:00 AM 22.84 73.112 0.233 7.14 3232 5.93
7/6/2021 2:30:00 AM 22.81 73.058 0.233 7.13 3562 5.95
7/6/2021 2:45:00 AM 22.77 72.986 0.233 7.13 2838 5.98
7/6/2021 3:00:00 AM 22.73 72.914 0.234 7.13 3239 5.97
7/6/2021 3:15:00 AM 22.7 72.86 0.234 7.13 3321 6
7/6/2021 3:30:00 AM 22.67 72.806 0.234 7.12 3286 5.99
7/6/2021 3:45:00 AM 22.65 72.77 0.234 7.12 3218 5.98
7/6/2021 4:00:00 AM 22.62 72.716 0.233 7.12 3292 5.98
7/6/2021 4:15:00 AM 22.59 72.662 0.233 7.11 3639 5.94
7/6/2021 4:30:00 AM 22.57 72.626 0.233 7.1 3594 5.93
7/6/2021 4:45:00 AM 22.56 72.608 0.233 7.1 3556 5.93
7/6/2021 5:00:00 AM 22.53 72.554 0.233 7.1 3407 5.95
7/6/2021 5:15:00 AM 22.51 72.518 0.233 7.09 3350 5.97
7/6/2021 5:30:00 AM 22.49 72.482 0.233 7.09 3710 5.99
7/6/2021 5:45:00 AM 22.49 72.482 0.234 7.09 3471 5.99
7/6/2021 6:00:00 AM 22.49 72.482 0.234 7.1 3044 6.02
7/6/2021 6:15:00 AM 22.5 72.5 0.233 7.1 3776 6.03
7/6/2021 6:30:00 AM 22.51 72.518 0.233 7.1 2854 6.03
7/6/2021 6:45:00 AM 22.53 72.554 0.233 7.1 2956 6.05
7/6/2021 7:00:00 AM 22.55 72.59 0.232 7.11 3538 6.06
7/6/2021 7:15:00 AM 22.57 72.626 0.233 7.11 3478 6.08
7/6/2021 7:30:00 AM 22.59 72.662 0.233 7.11 3660 6.14
7/6/2021 7:45:00 AM 22.62 72.716 0.233 7.12 3738 6.19
7/6/2021 8:00:00 AM 22.66 72.788 0.233 7.12 2955 6.23
7/6/2021 8:15:00 AM 22.73 72.914 0.233 7.13 3892 6.29
7/6/2021 8:30:00 AM 22.8 73.04 0.233 7.13 2746 6.33
7/6/2021 8:45:00 AM 22.89 73.202 0.232 7.13 3725 6.37
7/6/2021 9:00:00 AM 22.98 73.364 0.232 7.15 3953 6.44
7/6/2021 9:15:00 AM 23.09 73.562 0.232 7.15 2580 6.5
7/6/2021 9:30:00 AM 23.2 73.76 0.231 7.17 3440 6.57
7/6/2021 9:45:00 AM 23.31 73.958 0.231 7.18 4026 6.68
7/6/2021 10:00:00 AM 23.42 74.156 0.232 7.19 3824 6.76
7/6/2021 10:15:00 AM 23.54 74.372 0.232 7.21 3977 6.86
7/6/2021 10:30:00 AM 23.67 74.606 0.232 7.23 4045 6.96
7/6/2021 10:45:00 AM 23.81 74.858 0.232 7.24 2598 7.03
7/6/2021 11:00:00 AM 23.97 75.146 0.232 7.25 3873 7.11
7/6/2021 11:15:00 AM 24.15 75.47 0.231 7.26 3399 7.2
7/6/2021 11:30:00 AM 24.32 75.776 0.231 7.28 3870 7.3
7/6/2021 11:45:00 AM 24.51 76.118 0.231 7.31 2995 7.36
7/6/2021 12:00:00 PM 24.69 76.442 0.231 7.33 2569 7.43
7/6/2021 12:15:00 PM 24.86 76.748 0.231 7.35 3150 7.49
7/6/2021 12:30:00 PM 25.02 77.036 0.231 7.37 2981 7.59
7/6/2021 12:45:00 PM 25.18 77.324 0.232 7.39 3748 7.63
7/6/2021 1:00:00 PM 25.35 77.63 0.231 7.42 3252 7.68
7/6/2021 1:15:00 PM 25.52 77.936 0.232 7.44 3092 7.71
7/6/2021 1:30:00 PM 25.69 78.242 0.232 7.46 3054 7.74
7/6/2021 1:45:00 PM 25.78 78.404 0.232 7.47 3737 7.59
7/6/2021 2:00:00 PM 25.86 78.548 0.232 7.46 2510 7.44
7/6/2021 2:15:00 PM 25.9 78.62 0.232 7.46 3726 7.36
7/6/2021 2:30:00 PM 25.9 78.62 0.232 7.45 2815 7.32
7/6/2021 2:45:00 PM 25.89 78.602 0.233 7.45 3091 7.23
7/6/2021 3:00:00 PM 25.93 78.674 0.233 7.44 2815 7.21
7/6/2021 3:15:00 PM 25.9 78.62 0.233 7.44 3023 7.14
7/6/2021 3:30:00 PM 25.94 78.692 0.233 7.44 2273 7.1
7/6/2021 3:45:00 PM 25.93 78.674 0.232 7.45 2735 7.05
7/6/2021 4:00:00 PM 25.86 78.548 0.232 7.45 2361 6.99
7/6/2021 4:15:00 PM 25.84 78.512 0.232 7.44 3322 6.9
7/6/2021 4:30:00 PM 25.83 78.494 0.232 7.44 3100 6.84
7/6/2021 4:45:00 PM 25.77 78.386 0.231 7.44 2833 6.73
7/6/2021 5:00:00 PM 25.75 78.35 0.232 7.43 3415 6.72
7/6/2021 5:15:00 PM 25.69 78.242 0.232 7.43 2952 6.63
7/6/2021 5:30:00 PM 25.65 78.17 0.232 7.43 3176 6.59
7/6/2021 5:45:00 PM 25.66 78.188 0.232 7.42 3233 6.53
7/6/2021 6:00:00 PM 25.63 78.134 0.232 7.42 3284 6.52
7/6/2021 6:15:00 PM 25.64 78.152 0.232 7.41 3068 6.51
7/6/2021 6:30:00 PM 25.62 78.116 0.232 7.41 3119 6.47
7/6/2021 6:45:00 PM 25.62 78.116 0.231 7.41 2888 6.42
7/6/2021 7:00:00 PM 25.6 78.08 0.231 7.4 2674 6.36
7/6/2021 7:15:00 PM 25.54 77.972 0.231 7.39 3001 6.3
7/6/2021 7:30:00 PM 25.48 77.864 0.232 7.39 3292 6.25
7/6/2021 7:45:00 PM 25.46 77.828 0.232 7.38 2712 6.2
7/6/2021 8:00:00 PM 25.42 77.756 0.232 7.37 3222 6.12
7/6/2021 8:15:00 PM 25.34 77.612 0.232 7.36 2673 6.05
7/6/2021 8:30:00 PM 25.27 77.486 0.232 7.34 2911 5.95
7/6/2021 8:45:00 PM 25.18 77.324 0.232 7.31 3094 5.85
7/6/2021 9:00:00 PM 25.1 77.18 0.232 7.3 2542 5.78
7/6/2021 9:15:00 PM 25.02 77.036 0.232 7.28 2908 5.69
7/6/2021 9:30:00 PM 24.97 76.946 0.232 7.25 2783 5.64
7/6/2021 9:45:00 PM 24.93 76.874 0.232 7.23 2980 5.63
7/6/2021 10:00:00 PM 24.9 76.82 0.232 7.23 3071 5.6
7/6/2021 10:15:00 PM 24.84 76.712 0.233 7.21 2762 5.61
7/6/2021 10:30:00 PM 24.87 76.766 0.233 7.21 2973 5.59
7/6/2021 10:45:00 PM 24.79 76.622 0.233 7.2 3056 5.57
7/6/2021 11:00:00 PM 24.76 76.568 0.233 7.19 2896 5.55
7/6/2021 11:15:00 PM 24.73 76.514 0.232 7.18 3109 5.54
7/6/2021 11:30:00 PM 24.67 76.406 0.232 7.18 2956 5.53
7/6/2021 11:45:00 PM 24.62 76.316 0.232 7.17 3365 5.53
7/7/2021 12:00:00 AM 24.57 76.226 0.232 7.16 3045 5.51
7/7/2021 12:15:00 AM 24.51 76.118 0.232 7.15 2248 5.53
7/7/2021 12:30:00 AM 24.45 76.01 0.233 7.14 2789 5.52
7/7/2021 12:45:00 AM 24.4 75.92 0.233 7.14 3053 5.52
7/7/2021 1:00:00 AM 24.38 75.884 0.233 7.13 2255 5.52
7/7/2021 1:15:00 AM 24.32 75.776 0.233 7.13 3310 5.51
7/7/2021 1:30:00 AM 24.28 75.704 0.233 7.12 3288 5.5
7/7/2021 1:45:00 AM 24.24 75.632 0.232 7.12 2611 5.49
7/7/2021 2:00:00 AM 24.2 75.56 0.232 7.11 3172 5.49
7/7/2021 2:15:00 AM 24.2 75.56 0.231 7.11 2858 5.48
7/7/2021 2:30:00 AM 24.16 75.488 0.232 7.1 2984 5.5
7/7/2021 2:45:00 AM 24.13 75.434 0.232 7.1 2998 5.5
7/7/2021 3:00:00 AM 24.11 75.398 0.232 7.1 2889 5.5
7/7/2021 3:15:00 AM 24.09 75.362 0.233 7.1 3030 5.51
7/7/2021 3:30:00 AM 24.07 75.326 0.233 7.1 3563 5.51
7/7/2021 3:45:00 AM 24.06 75.308 0.232 7.1 2843 5.5
7/7/2021 4:00:00 AM 24.04 75.272 0.232 7.1 3525 5.51
7/7/2021 4:15:00 AM 24.02 75.236 0.232 7.1 3136 5.49
7/7/2021 4:30:00 AM 23.99 75.182 0.232 7.09 3059 5.49
7/7/2021 4:45:00 AM 23.97 75.146 0.232 7.09 2819 5.5
7/7/2021 5:00:00 AM 23.92 75.056 0.232 7.09 3424 5.5
7/7/2021 5:15:00 AM 23.92 75.056 0.233 7.08 2192 5.5
7/7/2021 5:30:00 AM 23.86 74.948 0.233 7.09 2679 5.51
7/7/2021 5:45:00 AM 23.86 74.948 0.233 7.08 3353 5.52
7/7/2021 6:00:00 AM 23.86 74.948 0.233 7.08 3333 5.51
7/7/2021 6:15:00 AM 23.87 74.966 0.232 7.08 3176 5.54
7/7/2021 6:30:00 AM 23.86 74.948 0.232 7.08 2359 5.54
7/7/2021 6:45:00 AM 23.86 74.948 0.232 7.08 2797 5.56
7/7/2021 7:00:00 AM 23.85 74.93 0.232 7.09 3236 5.58
7/7/2021 7:15:00 AM 23.84 74.912 0.232 7.08 3769 5.59
7/7/2021 7:30:00 AM 23.84 74.912 0.232 7.08 2883 5.63
7/7/2021 7:45:00 AM 23.86 74.948 0.233 7.09 2840 5.66
7/7/2021 8:00:00 AM 23.9 75.02 0.232 7.09 2878 5.7
7/7/2021 8:15:00 AM 23.97 75.146 0.232 7.09 2748 5.73
7/7/2021 8:30:00 AM 24 75.2 0.232 7.1 3002 5.77
7/7/2021 8:45:00 AM 24.06 75.308 0.232 7.1 3039 5.81
7/7/2021 9:00:00 AM 24.09 75.362 0.232 7.11 3071 5.77
7/7/2021 9:15:00 AM 24.14 75.452 0.232 7.11 3357 5.76
7/7/2021 9:30:00 AM 24.25 75.65 0.231 7.1 2696 5.8
7/7/2021 9:45:00 AM 24.34 75.812 0.231 7.1 2947 5.88
7/7/2021 10:00:00 AM 24.47 76.046 0.231 7.11 2650 6
7/7/2021 10:15:00 AM 24.59 76.262 0.231 7.12 2525 6.11
7/7/2021 10:30:00 AM 24.72 76.496 0.231 7.14 2965 6.24
7/7/2021 10:45:00 AM 24.84 76.712 0.231 7.16 3171 6.3
7/7/2021 11:00:00 AM 24.93 76.874 0.231 7.17 3053 6.36
7/7/2021 11:15:00 AM 24.98 76.964 0.231 7.19 3092 6.39
7/7/2021 11:30:00 AM 25.05 77.09 0.231 7.2 2328 6.42
7/7/2021 11:45:00 AM 25.12 77.216 0.23 7.21 2867 6.47
7/7/2021 12:00:00 PM 25.21 77.378 0.231 7.22 3266 6.54
7/7/2021 12:15:00 PM 25.32 77.576 0.231 7.22 2623 6.59
7/7/2021 12:30:00 PM 25.39 77.702 0.231 7.24 3648 6.64
7/7/2021 12:45:00 PM 25.52 77.936 0.231 7.25 3118 6.69
7/7/2021 1:00:00 PM 25.65 78.17 0.231 7.26 2813 6.75
7/7/2021 1:15:00 PM 25.81 78.458 0.231 7.29 2902 6.82
7/7/2021 1:30:00 PM 25.94 78.692 0.231 7.31 3010 6.87
7/7/2021 1:45:00 PM 26.01 78.818 0.231 7.33 3083 6.9
7/7/2021 2:00:00 PM 26.05 78.89 0.23 7.35 2822 6.86
7/7/2021 2:15:00 PM 26.11 78.998 0.231 7.35 3305 6.86
7/7/2021 2:30:00 PM 26.16 79.088 0.231 7.36 2851 6.89
7/7/2021 2:45:00 PM 26.19 79.142 0.231 7.36 2152 6.86
7/7/2021 3:00:00 PM 26.22 79.196 0.232 7.37 2820 6.83
7/7/2021 3:15:00 PM 26.21 79.17799 0.232 7.38 2831 6.79
7/7/2021 3:30:00 PM 26.26 79.268 0.231 7.38 2621 6.74
7/7/2021 3:45:00 PM 26.23 79.214 0.231 7.39 2836 6.71
7/7/2021 4:00:00 PM 26.25 79.25 0.231 7.39 2858 6.64
7/7/2021 4:15:00 PM 26.25 79.25 0.231 7.38 2804 6.59
7/7/2021 4:30:00 PM 26.19 79.142 0.23 7.39 2536 6.55
7/7/2021 4:45:00 PM 26.18 79.124 0.23 7.38 3096 6.48
7/7/2021 5:00:00 PM 26.12 79.016 0.231 7.37 3195 6.42
7/7/2021 5:15:00 PM 26.12 79.016 0.231 7.37 2566 6.39
7/7/2021 5:30:00 PM 26.08 78.944 0.232 7.37 3554 6.33
7/7/2021 5:45:00 PM 26.01 78.818 0.232 7.37 2763 6.26
7/7/2021 6:00:00 PM 26 78.8 0.232 7.36 2864 6.2
7/7/2021 6:15:00 PM 25.99 78.782 0.232 7.35 2989 6.15
7/7/2021 6:30:00 PM 25.92 78.656 0.232 7.35 2901 6.08
7/7/2021 6:45:00 PM 25.9 78.62 0.231 7.33 2700 6.02
7/7/2021 7:00:00 PM 25.77 78.386 0.231 7.31 2676 5.92
7/7/2021 7:15:00 PM 25.67 78.206 0.232 7.3 2901 5.85
7/7/2021 7:30:00 PM 25.64 78.152 0.232 7.28 2772 5.81
7/7/2021 7:45:00 PM 25.58 78.044 0.232 7.26 2795 5.74
7/7/2021 8:00:00 PM 25.55 77.99 0.232 7.26 2841 5.68
7/7/2021 8:15:00 PM 25.51 77.918 0.232 7.24 3158 5.64
7/7/2021 8:30:00 PM 25.44 77.792 0.232 7.22 2768 5.58
7/7/2021 8:45:00 PM 25.39 77.702 0.232 7.22 2825 5.55
7/7/2021 9:00:00 PM 25.36 77.648 0.232 7.2 3083 5.52
7/7/2021 9:15:00 PM 25.33 77.594 0.231 7.19 2847 5.48
7/7/2021 9:30:00 PM 25.26 77.468 0.232 7.19 3077 5.48
7/7/2021 9:45:00 PM 25.22 77.396 0.232 7.18 2603 5.5
7/7/2021 10:00:00 PM 25.19 77.342 0.232 7.18 2594 5.49
7/7/2021 10:15:00 PM 25.16 77.288 0.232 7.17 2751 5.47
7/7/2021 10:30:00 PM 25.14 77.252 0.232 7.16 2780 5.48
7/7/2021 10:45:00 PM 25.11 77.198 0.233 7.16 3136 5.46
7/7/2021 11:00:00 PM 25.07 77.126 0.232 7.16 2683 5.46
7/7/2021 11:15:00 PM 25.04 77.07201 0.232 7.15 2599 5.45
7/7/2021 11:30:00 PM 24.95 76.91 0.232 7.14 3240 5.41
7/7/2021 11:45:00 PM 24.85 76.73 0.232 7.13 2689 5.34
7/8/2021 12:00:00 AM 24.77 76.586 0.232 7.1 2855 5.3
7/8/2021 12:15:00 AM 24.72 76.496 0.233 7.1 2820 5.27
7/8/2021 12:30:00 AM 24.66 76.388 0.233 7.09 2655 5.3
7/8/2021 12:45:00 AM 24.66 76.388 0.233 7.08 2578 5.32
7/8/2021 1:00:00 AM 24.68 76.424 0.233 7.08 3097 5.34
7/8/2021 1:15:00 AM 24.68 76.424 0.232 7.08 2983 5.36
7/8/2021 1:30:00 AM 24.64 76.352 0.233 7.09 3242 5.36
7/8/2021 1:45:00 AM 24.61 76.298 0.232 7.09 3167 5.37
7/8/2021 2:00:00 AM 24.63 76.334 0.232 7.09 2366 5.38
7/8/2021 2:15:00 AM 24.6 76.28 0.231 7.09 2788 5.39
7/8/2021 2:30:00 AM 24.58 76.244 0.232 7.09 2975 5.42
7/8/2021 2:45:00 AM 24.54 76.172 0.232 7.09 3297 5.41
7/8/2021 3:00:00 AM 24.5 76.1 0.232 7.09 2772 5.41
7/8/2021 3:15:00 AM 24.46 76.028 0.232 7.08 3346 5.39
7/8/2021 3:30:00 AM 24.45 76.01 0.232 7.08 3104 5.37
7/8/2021 3:45:00 AM 24.39 75.902 0.232 7.07 2823 5.34
7/8/2021 4:00:00 AM 24.36 75.848 0.232 7.06 2705 5.31
7/8/2021 4:15:00 AM 24.35 75.83 0.232 7.06 2926 5.3
7/8/2021 4:30:00 AM 24.32 75.776 0.231 7.06 3017 5.3
7/8/2021 4:45:00 AM 24.32 75.776 0.231 7.05 2871 5.34
7/8/2021 5:00:00 AM 24.34 75.812 0.232 7.06 3374 5.37
7/8/2021 5:15:00 AM 24.35 75.83 0.232 7.07 2708 5.39
7/8/2021 5:30:00 AM 24.39 75.902 0.232 7.07 2889 5.43
7/8/2021 5:45:00 AM 24.35 75.83 0.232 7.07 2889 5.4
7/8/2021 6:00:00 AM 24.36 75.848 0.232 7.07 3135 5.42
7/8/2021 6:15:00 AM 24.36 75.848 0.231 7.07 3085 5.42
7/8/2021 6:30:00 AM 24.34 75.812 0.232 7.07 2908 5.41
7/8/2021 6:45:00 AM 24.35 75.83 0.231 7.07 2194 5.41
7/8/2021 7:00:00 AM 24.31 75.758 0.231 7.07 2565 5.42
7/8/2021 7:15:00 AM 24.32 75.776 0.231 7.07 2511 5.44
7/8/2021 7:30:00 AM 24.32 75.776 0.231 7.07 2767 5.48
7/8/2021 7:45:00 AM 24.32 75.776 0.231 7.08 2653 5.5
7/8/2021 8:00:00 AM 24.35 75.83 0.231 7.08 2526 5.53
7/8/2021 8:15:00 AM 24.41 75.938 0.231 7.08 2547 5.59
7/8/2021 8:30:00 AM 24.44 75.992 0.231 7.09 3312 5.63
7/8/2021 8:45:00 AM 24.47 76.046 0.231 7.09 3178 5.69
7/8/2021 9:00:00 AM 24.54 76.172 0.231 7.09 2410 5.78
7/8/2021 9:15:00 AM 24.6 76.28 0.23 7.1 2870 5.81
7/8/2021 9:30:00 AM 24.58 76.244 0.23 7.1 2648 5.8
7/8/2021 9:45:00 AM 24.57 76.226 0.23 7.11 2578 5.81
7/8/2021 10:00:00 AM 24.54 76.172 0.23 7.11 2249 5.8
7/8/2021 10:15:00 AM 24.53 76.154 0.23 7.11 2420 5.79
7/8/2021 10:30:00 AM 24.51 76.118 0.23 7.11 2957 5.79
7/8/2021 10:45:00 AM 24.53 76.154 0.23 7.11 2328 5.82
7/8/2021 11:00:00 AM 24.58 76.244 0.23 7.11 2190 5.9
7/8/2021 11:15:00 AM 24.63 76.334 0.23 7.13 2535 5.98
7/8/2021 11:30:00 AM 24.68 76.424 0.23 7.13 2637 6.06
7/8/2021 11:45:00 AM 24.77 76.586 0.23 7.15 2515 6.15
7/8/2021 12:00:00 PM 24.86 76.748 0.23 7.16 2168 6.28
7/8/2021 12:15:00 PM 24.91 76.838 0.23 7.18 2693 6.33
7/8/2021 12:30:00 PM 24.98 76.964 0.23 7.2 2252 6.41
7/8/2021 12:45:00 PM 25.02 77.036 0.23 7.21 2489 6.46
7/8/2021 1:00:00 PM 25.09 77.162 0.23 7.22 2448 6.47
7/8/2021 1:15:00 PM 25.15 77.27 0.23 7.23 2351 6.55
7/8/2021 1:30:00 PM 25.23 77.414 0.23 7.24 2487 6.6
7/8/2021 1:45:00 PM 25.3 77.54 0.231 7.24 2329 6.65
7/8/2021 2:00:00 PM 25.32 77.576 0.23 7.25 2344 6.6
7/8/2021 2:15:00 PM 25.27 77.486 0.23 7.25 2806 6.49
7/8/2021 2:30:00 PM 25.21 77.378 0.231 7.25 2154 6.4
7/8/2021 2:45:00 PM 25.13 77.234 0.231 7.25 2348 6.34
7/8/2021 3:00:00 PM 25.04 77.07201 0.231 7.25 2160 6.21
7/8/2021 3:15:00 PM 24.99 76.982 0.23 7.23 2473 6.14
7/8/2021 3:30:00 PM 24.91 76.838 0.23 7.23 2419 6.06
7/8/2021 3:45:00 PM 24.89 76.802 0.23 7.22 2538 5.99
7/8/2021 4:00:00 PM 24.87 76.766 0.23 7.22 2550 5.97
7/8/2021 4:15:00 PM 24.87 76.766 0.23 7.21 2506 5.87
7/8/2021 4:30:00 PM 24.83 76.694 0.229 7.2 2330 5.85
7/8/2021 4:45:00 PM 24.83 76.694 0.229 7.19 2123 5.83
7/8/2021 5:00:00 PM 24.78 76.604 0.23 7.19 2219 5.78
7/8/2021 5:15:00 PM 24.77 76.586 0.23 7.19 2610 5.78
7/8/2021 5:30:00 PM 24.72 76.496 0.231 7.18 2337 5.77
7/8/2021 5:45:00 PM 24.72 76.496 0.23 7.19 2298 5.81
7/8/2021 6:00:00 PM 24.7 76.46 0.23 7.19 2495 5.81
7/8/2021 6:15:00 PM 24.7 76.46 0.23 7.19 2119 5.84
7/8/2021 6:30:00 PM 24.67 76.406 0.23 7.19 2747 5.82
7/8/2021 6:45:00 PM 24.64 76.352 0.23 7.18 2122 5.8
7/8/2021 7:00:00 PM 24.56 76.208 0.23 7.18 2478 5.76
7/8/2021 7:15:00 PM 24.51 76.118 0.231 7.16 2474 5.71
7/8/2021 7:30:00 PM 24.44 75.992 0.232 7.15 2154 5.69
7/8/2021 7:45:00 PM 24.33 75.794 0.232 7.15 2819 5.71
7/8/2021 8:00:00 PM 24.26 75.668 0.234 7.14 2216 5.72
7/8/2021 8:15:00 PM 24.2 75.56 0.235 7.14 2974 5.68
7/8/2021 8:30:00 PM 24.18 75.524 0.235 7.14 2518 5.69
7/8/2021 8:45:00 PM 24.18 75.524 0.236 7.13 2310 5.69
7/8/2021 9:00:00 PM 24.19 75.542 0.235 7.14 2439 5.69
7/8/2021 9:15:00 PM 24.2 75.56 0.236 7.15 2237 5.67
7/8/2021 9:30:00 PM 24.16 75.488 0.236 7.17 2372 5.66
7/8/2021 9:45:00 PM 24.11 75.398 0.236 7.17 2340 5.66
7/8/2021 10:00:00 PM 24.06 75.308 0.237 7.16 3088 5.64
7/8/2021 10:15:00 PM 23.99 75.182 0.237 7.15 2581 5.64
7/8/2021 10:30:00 PM 23.96 75.128 0.237 7.14 2237 5.65
7/8/2021 10:45:00 PM 23.91 75.038 0.236 7.14 3240 5.61
7/8/2021 11:00:00 PM 23.87 74.966 0.235 7.13 2139 5.56
7/8/2021 11:15:00 PM 23.82 74.876 0.233 7.1 2371 5.5
7/8/2021 11:30:00 PM 23.79 74.82201 0.233 7.09 2666 5.45
7/8/2021 11:45:00 PM 23.79 74.82201 0.232 7.08 2659 5.44
7/9/2021 12:00:00 AM 23.8 74.84 0.232 7.08 2345 5.48
7/9/2021 12:15:00 AM 23.84 74.912 0.232 7.07 2390 5.5
7/9/2021 12:30:00 AM 23.86 74.948 0.231 7.08 2853 5.54
7/9/2021 12:45:00 AM 23.88 74.984 0.229 7.08 2261 5.61
7/9/2021 1:00:00 AM 23.9 75.02 0.229 7.08 2740 5.58
7/9/2021 1:15:00 AM 23.92 75.056 0.228 7.09 3279 5.58
7/9/2021 1:30:00 AM 23.92 75.056 0.228 7.09 2494 5.6
7/9/2021 1:45:00 AM 23.92 75.056 0.229 7.09 2354 5.6
7/9/2021 2:00:00 AM 23.9 75.02 0.229 7.09 2321 5.61
7/9/2021 2:15:00 AM 23.88 74.984 0.229 7.09 2740 5.6
7/9/2021 2:30:00 AM 23.84 74.912 0.229 7.08 2287 5.58
7/9/2021 2:45:00 AM 23.8 74.84 0.229 7.08 2535 5.53
7/9/2021 3:00:00 AM 23.75 74.75 0.23 7.07 2372 5.5
7/9/2021 3:15:00 AM 23.73 74.714 0.23 7.07 2502 5.47
7/9/2021 3:30:00 AM 23.71 74.67799 0.229 7.06 2729 5.47
7/9/2021 3:45:00 AM 23.71 74.67799 0.229 7.06 2394 5.46
7/9/2021 4:00:00 AM 23.71 74.67799 0.229 7.05 2646 5.47
7/9/2021 4:15:00 AM 23.7 74.66 0.228 7.05 2523 5.5
7/9/2021 4:30:00 AM 23.72 74.696 0.229 7.06 2657 5.53
7/9/2021 4:45:00 AM 23.73 74.714 0.229 7.07 2216 5.57
7/9/2021 5:00:00 AM 23.74 74.732 0.228 7.08 2329 5.61
7/9/2021 5:15:00 AM 23.74 74.732 0.228 7.09 2296 5.65
7/9/2021 5:30:00 AM 23.75 74.75 0.228 7.1 2635 5.67
7/9/2021 5:45:00 AM 23.75 74.75 0.229 7.1 2776 5.68
7/9/2021 6:00:00 AM 23.75 74.75 0.229 7.1 2364 5.67
7/9/2021 6:15:00 AM 23.73 74.714 0.228 7.1 2564 5.67
7/9/2021 6:30:00 AM 23.71 74.67799 0.228 7.1 2566 5.65
7/9/2021 6:45:00 AM 23.68 74.624 0.229 7.09 2281 5.65
7/9/2021 7:00:00 AM 23.65 74.57 0.229 7.09 2275 5.66
7/9/2021 7:15:00 AM 23.62 74.516 0.229 7.09 2595 5.67
7/9/2021 7:30:00 AM 23.62 74.516 0.229 7.08 2735 5.68
7/9/2021 7:45:00 AM 23.63 74.534 0.229 7.08 2719 5.73
7/9/2021 8:00:00 AM 23.65 74.57 0.229 7.09 2402 5.76
7/9/2021 8:15:00 AM 23.68 74.624 0.229 7.09 2774 5.84
7/9/2021 8:30:00 AM 23.67 74.606 0.229 7.11 2724 5.99
7/9/2021 8:45:00 AM 23.68 74.624 0.228 7.13 2333 6.1
7/9/2021 9:00:00 AM 23.7 74.66 0.229 7.15 2640 6.19
7/9/2021 9:15:00 AM 23.72 74.696 0.228 7.16 2255 6.3
7/9/2021 9:30:00 AM 23.77 74.786 0.229 7.18 2675 6.4
7/9/2021 9:45:00 AM 23.81 74.858 0.229 7.2 2580 6.47
7/9/2021 10:00:00 AM 23.91 75.038 0.229 7.21 2490 6.58
7/9/2021 10:15:00 AM 23.99 75.182 0.23 7.24 2742 6.65
7/9/2021 10:30:00 AM 24.03 75.254 0.23 7.25 2512 6.67
7/9/2021 10:45:00 AM 24.14 75.452 0.229 7.27 2595 6.75
7/9/2021 11:00:00 AM 24.25 75.65 0.229 7.28 2389 6.8
7/9/2021 11:15:00 AM 24.31 75.758 0.23 7.3 2420 6.84
7/9/2021 11:30:00 AM 24.42 75.956 0.229 7.31 2541 6.89
7/9/2021 11:45:00 AM 24.49 76.082 0.229 7.32 2815 6.94
7/9/2021 12:00:00 PM 24.51 76.118 0.229 7.33 2289 6.91
7/9/2021 12:15:00 PM 24.64 76.352 0.23 7.34 2613 7.02
7/9/2021 12:30:00 PM 24.64 76.352 0.23 7.36 2608 6.95
7/9/2021 12:45:00 PM 24.68 76.424 0.23 7.37 2785 7.04
7/9/2021 1:00:00 PM 24.78 76.604 0.23 7.38 2089 7.08
7/9/2021 1:15:00 PM 24.84 76.712 0.23 7.41 2343 7.18
7/9/2021 1:30:00 PM 24.89 76.802 0.229 7.43 3037 7.17
7/9/2021 1:45:00 PM 25.03 77.054 0.229 7.45 2129 7.23
7/9/2021 2:00:00 PM 25.1 77.18 0.228 7.46 2499 7.14
7/9/2021 2:15:00 PM 25.25 77.45 0.229 7.46 2534 7.22
7/9/2021 2:30:00 PM 25.28 77.504 0.229 7.49 2562 7.22
7/9/2021 2:45:00 PM 25.35 77.63 0.23 7.5 2431 7.26
7/9/2021 3:00:00 PM 25.39 77.702 0.23 7.51 2679 7.22
7/9/2021 3:15:00 PM 25.36 77.648 0.23 7.52 2675 7.18
7/9/2021 3:30:00 PM 25.32 77.576 0.231 7.51 2854 7.01
7/9/2021 3:45:00 PM 25.25 77.45 0.23 7.5 3066 6.91
7/9/2021 4:00:00 PM 25.13 77.234 0.229 7.49 2460 6.76
7/9/2021 4:15:00 PM 25.05 77.09 0.228 7.46 2615 6.64
7/9/2021 4:30:00 PM 25.06 77.108 0.228 7.43 2520 6.65
7/9/2021 4:45:00 PM 25.07 77.126 0.228 7.43 2465 6.64
7/9/2021 5:00:00 PM 25.07 77.126 0.228 7.42 2875 6.64
7/9/2021 5:15:00 PM 25.06 77.108 0.229 7.42 2830 6.65
7/9/2021 5:30:00 PM 25.07 77.126 0.229 7.43 2629 6.64
7/9/2021 5:45:00 PM 25.08 77.144 0.229 7.43 2414 6.6
7/9/2021 6:00:00 PM 25.03 77.054 0.229 7.42 3236 6.47
7/9/2021 6:15:00 PM 24.89 76.802 0.229 7.4 3101 6.29
7/9/2021 6:30:00 PM 24.79 76.622 0.23 7.36 2726 6.27
7/9/2021 6:45:00 PM 24.65 76.37 0.233 7.35 2599 6.34
7/9/2021 7:00:00 PM 24.55 76.19 0.235 7.36 2908 6.36
7/9/2021 7:15:00 PM 24.54 76.172 0.236 7.35 2729 6.34
7/9/2021 7:30:00 PM 24.53 76.154 0.237 7.35 2629 6.28
7/9/2021 7:45:00 PM 24.52 76.136 0.236 7.34 2678 6.22
7/9/2021 8:00:00 PM 24.51 76.118 0.234 7.33 2807 6.15
7/9/2021 8:15:00 PM 24.5 76.1 0.232 7.31 3324 6.09
7/9/2021 8:30:00 PM 24.47 76.046 0.23 7.31 3158 6.06
7/9/2021 8:45:00 PM 24.45 76.01 0.228 7.3 2750 6.03
7/9/2021 9:00:00 PM 24.41 75.938 0.226 7.3 2546 6.02
7/9/2021 9:15:00 PM 24.37 75.866 0.225 7.29 3244 5.96
7/9/2021 9:30:00 PM 24.33 75.794 0.225 7.28 3058 5.9
7/9/2021 9:45:00 PM 24.28 75.704 0.224 7.26 2874 5.85
7/9/2021 10:00:00 PM 24.23 75.614 0.223 7.25 3255 5.8
7/9/2021 10:15:00 PM 24.18 75.524 0.223 7.23 3243 5.73
7/9/2021 10:30:00 PM 24.13 75.434 0.222 7.22 2845 5.72
7/9/2021 10:45:00 PM 24.07 75.326 0.222 7.2 2962 5.72
7/9/2021 11:00:00 PM 24.04 75.272 0.222 7.19 3081 5.73
7/9/2021 11:15:00 PM 24.07 75.326 0.223 7.21 2984 5.94
7/9/2021 11:30:00 PM 24.1 75.38 0.222 7.24 2831 6.1
7/9/2021 11:45:00 PM 24.11 75.398 0.223 7.27 3068 6.19
7/10/2021 12:00:00 AM 24.13 75.434 0.223 7.29 3599 6.25
7/10/2021 12:15:00 AM 24.18 75.524 0.225 7.3 3031 6.3
7/10/2021 12:30:00 AM 24.22 75.596 0.225 7.32 3070 6.31
7/10/2021 12:45:00 AM 24.26 75.668 0.224 7.34 3498 6.35
7/10/2021 1:00:00 AM 24.27 75.686 0.224 7.34 3477 6.33
7/10/2021 1:15:00 AM 24.25 75.65 0.224 7.35 3290 6.33
7/10/2021 1:30:00 AM 24.21 75.578 0.224 7.35 3221 6.32
7/10/2021 1:45:00 AM 24.13 75.434 0.225 7.34 3239 6.32
7/10/2021 2:00:00 AM 24.03 75.254 0.225 7.33 3064 6.29
7/10/2021 2:15:00 AM 23.92 75.056 0.226 7.32 3142 6.28
7/10/2021 2:30:00 AM 23.8 74.84 0.227 7.32 3138 6.25
7/10/2021 2:45:00 AM 23.69 74.642 0.227 7.3 3179 6.27
7/10/2021 3:00:00 AM 23.59 74.462 0.228 7.29 3320 6.27
7/10/2021 3:15:00 AM 23.48 74.264 0.228 7.29 3065 6.25
7/10/2021 3:30:00 AM 23.39 74.102 0.228 7.27 3178 6.25
7/10/2021 3:45:00 AM 23.32 73.976 0.228 7.26 3067 6.24
7/10/2021 4:00:00 AM 23.24 73.832 0.229 7.26 3401 6.25
7/10/2021 4:15:00 AM 23.16 73.688 0.229 7.25 3240 6.25
7/10/2021 4:30:00 AM 23.08 73.544 0.23 7.24 3132 6.27
7/10/2021 4:45:00 AM 23.01 73.418 0.23 7.24 3088 6.28
7/10/2021 5:00:00 AM 22.93 73.274 0.231 7.25 3348 6.3
7/10/2021 5:15:00 AM 22.86 73.148 0.231 7.22 3273 6.33
7/10/2021 5:30:00 AM 22.8 73.04 0.231 7.22 3017 6.3
7/10/2021 5:45:00 AM 22.74 72.932 0.231 7.22 3182 6.31
7/10/2021 6:00:00 AM 22.68 72.824 0.231 7.21 3084 6.3
7/10/2021 6:15:00 AM 22.63 72.734 0.231 7.2 3057 6.28
7/10/2021 6:30:00 AM 22.58 72.644 0.231 7.19 3059 6.25
7/10/2021 6:45:00 AM 22.53 72.554 0.231 7.18 3061 6.27
7/10/2021 7:00:00 AM 22.46 72.42799 0.232 7.17 3066 6.28
7/10/2021 7:15:00 AM 22.39 72.302 0.232 7.16 3234 6.28
7/10/2021 7:30:00 AM 22.34 72.212 0.232 7.16 2765 6.27
7/10/2021 7:45:00 AM 22.32 72.176 0.231 7.15 2978 6.29
7/10/2021 8:00:00 AM 22.29 72.122 0.23 7.13 2544 6.28
7/10/2021 8:15:00 AM 22.32 72.176 0.23 7.13 2561 6.32
7/10/2021 8:30:00 AM 22.33 72.194 0.228 7.13 2754 6.35
7/10/2021 8:45:00 AM 22.37 72.266 0.227 7.13 2639 6.38
7/10/2021 9:00:00 AM 22.42 72.356 0.226 7.12 2712 6.4
7/10/2021 9:15:00 AM 22.46 72.42799 0.225 7.13 2639 6.47
7/10/2021 9:30:00 AM 22.52 72.536 0.224 7.13 2714 6.52
7/10/2021 9:45:00 AM 22.59 72.662 0.223 7.14 2718 6.59
7/10/2021 10:00:00 AM 22.63 72.734 0.222 7.16 2623 6.61
7/10/2021 10:15:00 AM 22.72 72.896 0.22 7.16 2538 6.69
7/10/2021 10:30:00 AM 22.82 73.076 0.218 7.17 2682 6.76
7/10/2021 10:45:00 AM 22.9 73.22 0.217 7.18 2704 6.82
7/10/2021 11:00:00 AM 23.01 73.418 0.215 7.19 2680 6.89
7/10/2021 11:15:00 AM 23.14 73.652 0.215 7.21 2718 6.93
7/10/2021 11:30:00 AM 23.26 73.868 0.213 7.22 2800 6.97
7/10/2021 11:45:00 AM 23.38 74.084 0.212 7.23 2816 7.06
7/10/2021 12:00:00 PM 23.45 74.21 0.212 7.25 2584 7.1
7/10/2021 12:15:00 PM 23.56 74.408 0.211 7.27 2801 7.13
7/10/2021 12:30:00 PM 23.77 74.786 0.211 7.28 2502 7.24
7/10/2021 12:45:00 PM 23.87 74.966 0.21 7.3 2774 7.26
7/10/2021 1:00:00 PM 24.04 75.272 0.21 7.32 2948 7.32
7/10/2021 1:15:00 PM 24.14 75.452 0.209 7.37 3370 7.34
7/10/2021 1:30:00 PM 24.27 75.686 0.209 7.38 2520 7.38
7/10/2021 1:45:00 PM 24.43 75.974 0.21 7.38 2896 7.36
7/10/2021 2:00:00 PM 24.56 76.208 0.21 7.39 2943 7.37
7/10/2021 2:15:00 PM 24.67 76.406 0.211 7.4 2690 7.4
7/10/2021 2:30:00 PM 24.68 76.424 0.213 7.41 2688 7.31
7/10/2021 2:45:00 PM 24.71 76.478 0.214 7.42 2652 7.28
7/10/2021 3:00:00 PM 24.74 76.532 0.214 7.42 2722 7.22
7/10/2021 3:15:00 PM 24.73 76.514 0.215 7.42 2728 7.11
7/10/2021 3:30:00 PM 24.83 76.694 0.215 7.4 2685 7.11
7/10/2021 3:45:00 PM 24.88 76.784 0.216 7.4 2760 7.07
7/10/2021 4:00:00 PM 24.89 76.802 0.216 7.39 2496 6.95
7/10/2021 4:15:00 PM 24.93 76.874 0.217 7.38 2531 6.89
7/10/2021 4:30:00 PM 24.93 76.874 0.217 7.37 2703 6.81
7/10/2021 4:45:00 PM 24.93 76.874 0.218 7.36 2679 6.81
7/10/2021 5:00:00 PM 24.9 76.82 0.219 7.37 2648 6.74
7/10/2021 5:15:00 PM 24.88 76.784 0.22 7.36 2715 6.7
7/10/2021 5:30:00 PM 24.86 76.748 0.22 7.36 2726 6.66
7/10/2021 5:45:00 PM 24.84 76.712 0.22 7.35 2580 6.64
7/10/2021 6:00:00 PM 24.83 76.694 0.22 7.33 2512 6.58
7/10/2021 6:15:00 PM 24.79 76.622 0.22 7.33 2784 6.53
7/10/2021 6:30:00 PM 24.76 76.568 0.22 7.31 2749 6.47
7/10/2021 6:45:00 PM 24.72 76.496 0.22 7.3 2672 6.41
7/10/2021 7:00:00 PM 24.69 76.442 0.22 7.29 2390 6.35
7/10/2021 7:15:00 PM 24.63 76.334 0.221 7.29 2474 6.33
7/10/2021 7:30:00 PM 24.58 76.244 0.221 7.28 2699 6.29
7/10/2021 7:45:00 PM 24.52 76.136 0.221 7.27 2563 6.25
7/10/2021 8:00:00 PM 24.47 76.046 0.222 7.27 2435 6.23
7/10/2021 8:15:00 PM 24.42 75.956 0.221 7.26 2821 6.18
7/10/2021 8:30:00 PM 24.36 75.848 0.221 7.25 2624 6.12
7/10/2021 8:45:00 PM 24.29 75.722 0.221 7.24 2577 6.05
7/10/2021 9:00:00 PM 24.22 75.596 0.221 7.23 2392 5.99
7/10/2021 9:15:00 PM 24.15 75.47 0.221 7.21 2062 5.92
7/10/2021 9:30:00 PM 24.05 75.29 0.221 7.19 2145 5.86
7/10/2021 9:45:00 PM 23.95 75.11 0.222 7.17 2140 5.81
7/10/2021 10:00:00 PM 23.85 74.93 0.223 7.15 2171 5.79
7/10/2021 10:15:00 PM 23.76 74.768 0.223 7.14 2196 5.77
7/10/2021 10:30:00 PM 23.7 74.66 0.223 7.13 2228 5.76
7/10/2021 10:45:00 PM 23.64 74.552 0.223 7.12 2235 5.73
7/10/2021 11:00:00 PM 23.6 74.48 0.222 7.11 2244 5.75
7/10/2021 11:15:00 PM 23.57 74.426 0.221 7.11 2260 5.75
7/10/2021 11:30:00 PM 23.55 74.39 0.221 7.11 2301 5.75
7/10/2021 11:45:00 PM 23.54 74.372 0.221 7.11 2358 5.76
7/11/2021 12:00:00 AM 23.51 74.318 0.222 7.11 2277 5.75
7/11/2021 12:15:00 AM 23.46 74.228 0.222 7.1 2302 5.77
7/11/2021 12:30:00 AM 23.41 74.138 0.223 7.1 2291 5.81
7/11/2021 12:45:00 AM 23.36 74.048 0.223 7.1 2342 5.78
7/11/2021 1:00:00 AM 23.31 73.958 0.223 7.1 2352 5.76
7/11/2021 1:15:00 AM 23.26 73.868 0.223 7.09 2356 5.76
7/11/2021 1:30:00 AM 23.22 73.796 0.222 7.08 2375 5.74
7/11/2021 1:45:00 AM 23.19 73.742 0.223 7.07 2382 5.72
7/11/2021 2:00:00 AM 23.16 73.688 0.222 7.06 2514 5.69
7/11/2021 2:15:00 AM 23.15 73.67 0.223 7.06 2437 5.66
7/11/2021 2:30:00 AM 23.12 73.616 0.224 7.06 2396 5.69
7/11/2021 2:45:00 AM 23.09 73.562 0.224 7.06 2408 5.71
7/11/2021 3:00:00 AM 23.07 73.526 0.225 7.05 2418 5.72
7/11/2021 3:15:00 AM 23.05 73.49 0.225 7.05 2535 5.74
7/11/2021 3:30:00 AM 23.04 73.472 0.225 7.05 1997 5.73
7/11/2021 3:45:00 AM 23.03 73.454 0.225 7.05 2096 5.73
7/11/2021 4:00:00 AM 23.04 73.472 0.225 7.04 1998 5.7
7/11/2021 4:15:00 AM 23.04 73.472 0.225 7.04 1991 5.68
7/11/2021 4:30:00 AM 23.05 73.49 0.225 7.04 1927 5.69
7/11/2021 4:45:00 AM 23.05 73.49 0.226 7.04 1934 5.7
7/11/2021 5:00:00 AM 23.03 73.454 0.227 7.04 1943 5.72
7/11/2021 5:15:00 AM 23.02 73.436 0.227 7.04 1897 5.71
7/11/2021 5:30:00 AM 23.01 73.418 0.228 7.05 1874 5.77
7/11/2021 5:45:00 AM 23.02 73.436 0.228 7.05 1988 5.77
7/11/2021 6:00:00 AM 23.03 73.454 0.227 7.05 1889 5.79
7/11/2021 6:15:00 AM 23.04 73.472 0.227 7.05 1870 5.78
7/11/2021 6:30:00 AM 23.06 73.508 0.227 7.06 1989 5.77
7/11/2021 6:45:00 AM 23.07 73.526 0.227 7.06 2014 5.79
7/11/2021 7:00:00 AM 23.08 73.544 0.227 7.06 2004 5.8
7/11/2021 7:15:00 AM 23.09 73.562 0.228 7.07 1919 5.81
7/11/2021 7:30:00 AM 23.07 73.526 0.228 7.08 1946 5.86
7/11/2021 7:45:00 AM 23.07 73.526 0.229 7.08 1943 5.88
7/11/2021 8:00:00 AM 23.07 73.526 0.229 7.09 1995 5.89
7/11/2021 8:15:00 AM 23.09 73.562 0.229 7.09 1912 5.92
7/11/2021 8:30:00 AM 23.11 73.598 0.229 7.1 1859 5.96
7/11/2021 8:45:00 AM 23.13 73.634 0.228 7.1 1851 5.97
7/11/2021 9:00:00 AM 23.16 73.688 0.228 7.1 2028 6
7/11/2021 9:15:00 AM 23.14 73.652 0.227 7.11 1916 6.07
7/11/2021 9:30:00 AM 23.15 73.67 0.226 7.11 1937 6.1
7/11/2021 9:45:00 AM 23.15 73.67 0.227 7.11 2030 6.15
7/11/2021 10:00:00 AM 23.18 73.724 0.227 7.11 2110 6.21
7/11/2021 10:15:00 AM 23.2 73.76 0.227 7.12 1994 6.24
7/11/2021 10:30:00 AM 23.27 73.886 0.227 7.13 2015 6.33
7/11/2021 10:45:00 AM 23.36 74.048 0.227 7.14 1961 6.43
7/11/2021 11:00:00 AM 23.45 74.21 0.227 7.16 1949 6.5
7/11/2021 11:15:00 AM 23.52 74.336 0.227 7.16 2016 6.52
7/11/2021 11:30:00 AM 23.59 74.462 0.228 7.17 1988 6.59
7/11/2021 11:45:00 AM 23.62 74.516 0.229 7.18 1988 6.6
7/11/2021 12:00:00 PM 23.68 74.624 0.23 7.2 1880 6.68
7/11/2021 12:15:00 PM 23.75 74.75 0.231 7.21 1886 6.81
7/11/2021 12:30:00 PM 23.82 74.876 0.232 7.22 1850 6.83
7/11/2021 12:45:00 PM 23.89 75.002 0.232 7.24 1889 6.91
7/11/2021 1:00:00 PM 23.96 75.128 0.233 7.25 2052 6.96
7/11/2021 1:15:00 PM 24.09 75.362 0.234 7.26 1905 7.12
7/11/2021 1:30:00 PM 24.22 75.596 0.235 7.29 1956 7.21
7/11/2021 1:45:00 PM 24.32 75.776 0.235 7.31 1852 7.29
7/11/2021 2:00:00 PM 24.4 75.92 0.234 7.34 1857 7.31
7/11/2021 2:15:00 PM 24.51 76.118 0.234 7.36 1871 7.32
7/11/2021 2:30:00 PM 24.57 76.226 0.233 7.38 1868 7.32
7/11/2021 2:45:00 PM 24.66 76.388 0.232 7.4 1924 7.35
7/11/2021 3:00:00 PM 24.73 76.514 0.231 7.41 1925 7.38
7/11/2021 3:15:00 PM 24.78 76.604 0.23 7.43 2043 7.39
7/11/2021 3:30:00 PM 24.84 76.712 0.231 7.44 1954 7.36
7/11/2021 3:45:00 PM 24.91 76.838 0.231 7.45 1921 7.33
7/11/2021 4:00:00 PM 24.93 76.874 0.231 7.46 1978 7.27
7/11/2021 4:15:00 PM 24.96 76.92799 0.231 7.46 1923 7.34
7/11/2021 4:30:00 PM 24.95 76.91 0.23 7.49 1982 7.39
7/11/2021 4:45:00 PM 24.93 76.874 0.23 7.52 1941 7.48
7/11/2021 5:00:00 PM 24.99 76.982 0.229 7.56 2031 7.54
7/11/2021 5:15:00 PM 24.99 76.982 0.229 7.59 1975 7.45
7/11/2021 5:30:00 PM 24.97 76.946 0.23 7.59 1888 7.34
7/11/2021 5:45:00 PM 24.96 76.92799 0.23 7.59 1992 7.24
7/11/2021 6:00:00 PM 24.93 76.874 0.23 7.58 2037 7.14
7/11/2021 6:15:00 PM 24.9 76.82 0.23 7.57 1897 7.05
7/11/2021 6:30:00 PM 24.87 76.766 0.23 7.55 1907 6.97
7/11/2021 6:45:00 PM 24.84 76.712 0.23 7.53 1950 6.91
7/11/2021 7:00:00 PM 24.81 76.658 0.23 7.51 1996 6.86
7/11/2021 7:15:00 PM 24.79 76.622 0.231 7.49 2126 6.78
7/11/2021 7:30:00 PM 24.79 76.622 0.231 7.47 2400 6.71
7/11/2021 7:45:00 PM 24.79 76.622 0.231 7.46 1962 6.65
7/11/2021 8:00:00 PM 24.78 76.604 0.231 7.44 2014 6.59
7/11/2021 8:15:00 PM 24.78 76.604 0.231 7.43 2074 6.52
7/11/2021 8:30:00 PM 24.77 76.586 0.231 7.41 2150 6.44
7/11/2021 8:45:00 PM 24.75 76.55 0.231 7.4 2049 6.38
7/11/2021 9:00:00 PM 24.73 76.514 0.231 7.38 2159 6.3
7/11/2021 9:15:00 PM 24.7 76.46 0.232 7.37 2119 6.24
7/11/2021 9:30:00 PM 24.65 76.37 0.232 7.35 2423 6.22
7/11/2021 9:45:00 PM 24.62 76.316 0.233 7.33 2082 6.18
7/11/2021 10:00:00 PM 24.57 76.226 0.233 7.32 2178 6.14
7/11/2021 10:15:00 PM 24.52 76.136 0.235 7.31 2110 6.13
7/11/2021 10:30:00 PM 24.48 76.064 0.234 7.3 2138 6.11
7/11/2021 10:45:00 PM 24.44 75.992 0.235 7.28 2239 6.08
7/11/2021 11:00:00 PM 24.4 75.92 0.235 7.27 2183 6.04
7/11/2021 11:15:00 PM 24.37 75.866 0.235 7.27 2148 6.02
7/11/2021 11:30:00 PM 24.34 75.812 0.235 7.26 2066 6.01
7/11/2021 11:45:00 PM 24.31 75.758 0.236 7.25 1970 6
7/12/2021 12:00:00 AM 24.29 75.722 0.236 7.25 2014 6.04
7/12/2021 12:15:00 AM 24.25 75.65 0.237 7.25 2166 6.02
7/12/2021 12:30:00 AM 24.22 75.596 0.237 7.25 2161 6.04
7/12/2021 12:45:00 AM 24.19 75.542 0.237 7.25 2461 6.06
7/12/2021 1:00:00 AM 24.16 75.488 0.238 7.25 2168 6.06
7/12/2021 1:15:00 AM 24.12 75.416 0.237 7.24 2241 6.05
7/12/2021 1:30:00 AM 24.08 75.344 0.237 7.23 2165 6.03
7/12/2021 1:45:00 AM 24.03 75.254 0.237 7.23 2124 5.98
7/12/2021 2:00:00 AM 23.98 75.164 0.237 7.22 2111 5.95
7/12/2021 2:15:00 AM 23.92 75.056 0.237 7.2 2450 5.93
7/12/2021 2:30:00 AM 23.86 74.948 0.237 7.18 1919 5.91
7/12/2021 2:45:00 AM 23.8 74.84 0.238 7.17 2141 5.92
7/12/2021 3:00:00 AM 23.74 74.732 0.238 7.16 2216 5.9
7/12/2021 3:15:00 AM 23.71 74.67799 0.237 7.15 2233 5.92
7/12/2021 3:30:00 AM 23.67 74.606 0.236 7.14 2368 5.91
7/12/2021 3:45:00 AM 23.65 74.57 0.236 7.13 2063 5.9
7/12/2021 4:00:00 AM 23.62 74.516 0.235 7.13 2282 5.89
7/12/2021 4:15:00 AM 23.59 74.462 0.234 7.13 2376 5.85
7/12/2021 4:30:00 AM 23.56 74.408 0.233 7.11 2142 5.85
7/12/2021 4:45:00 AM 23.53 74.354 0.234 7.11 2330 5.86
7/12/2021 5:00:00 AM 23.49 74.282 0.234 7.11 2213 5.88
7/12/2021 5:15:00 AM 23.46 74.228 0.233 7.1 2160 5.89
7/12/2021 5:30:00 AM 23.44 74.192 0.233 7.11 2114 5.92
7/12/2021 5:45:00 AM 23.42 74.156 0.232 7.1 2199 5.92
7/12/2021 6:00:00 AM 23.41 74.138 0.231 7.11 2061 5.93
7/12/2021 6:15:00 AM 23.4 74.12 0.23 7.1 1992 5.92
7/12/2021 6:30:00 AM 23.39 74.102 0.229 7.11 2341 5.94
7/12/2021 6:45:00 AM 23.4 74.12 0.229 7.1 2168 5.92
7/12/2021 7:00:00 AM 23.38 74.084 0.228 7.1 2086 5.96
7/12/2021 7:15:00 AM 23.38 74.084 0.228 7.1 2102 5.97
7/12/2021 7:30:00 AM 23.36 74.048 0.227 7.1 2029 5.99
7/12/2021 7:45:00 AM 23.38 74.084 0.227 7.09 2193 6
7/12/2021 8:00:00 AM 23.4 74.12 0.226 7.09 1944 6.01
7/12/2021 8:15:00 AM 23.44 74.192 0.225 7.09 1989 6.05
7/12/2021 8:30:00 AM 23.48 74.264 0.225 7.09 1983 6.08
7/12/2021 8:45:00 AM 23.55 74.39 0.224 7.1 2171 6.1
7/12/2021 9:00:00 AM 23.63 74.534 0.224 7.1 1986 6.15
7/12/2021 9:15:00 AM 23.72 74.696 0.223 7.11 2191 6.22
7/12/2021 9:30:00 AM 23.8 74.84 0.223 7.12 2217 6.25
7/12/2021 9:45:00 AM 23.91 75.038 0.224 7.14 2437 6.32
7/12/2021 10:00:00 AM 24.03 75.254 0.224 7.15 2132 6.37
7/12/2021 10:15:00 AM 24.19 75.542 0.225 7.16 2111 6.3
7/12/2021 10:30:00 AM 24.31 75.758 0.226 7.16 2505 6.39
7/12/2021 10:45:00 AM 24.42 75.956 0.225 7.18 2038 6.5
7/12/2021 11:00:00 AM 24.56 76.208 0.225 7.19 2195 6.6
7/12/2021 11:15:00 AM 24.72 76.496 0.224 7.22 2021 6.69
7/12/2021 11:30:00 AM 24.87 76.766 0.224 7.23 2442 6.75
7/12/2021 11:45:00 AM 25.03 77.054 0.224 7.25 2229 6.81
7/12/2021 12:00:00 PM 25.17 77.306 0.225 7.27 2191 6.89
7/12/2021 12:15:00 PM 25.33 77.594 0.225 7.28 2156 6.98
7/12/2021 12:30:00 PM 25.48 77.864 0.225 7.3 2180 7.04
7/12/2021 12:45:00 PM 25.65 78.17 0.225 7.32 2350 7.05
7/12/2021 1:00:00 PM 25.7 78.26 0.225 7.34 2445 7.08
7/12/2021 1:15:00 PM 25.88 78.584 0.225 7.35 2115 7.09
7/12/2021 1:30:00 PM 25.98 78.764 0.225 7.36 2141 7.04
7/12/2021 1:45:00 PM 26.07 78.926 0.225 7.36 2152 6.94
7/12/2021 2:00:00 PM 26.14 79.052 0.226 7.36 2234 6.93
7/12/2021 2:15:00 PM 26.18 79.124 0.226 7.37 2237 6.96
7/12/2021 2:30:00 PM 26.26 79.268 0.231 7.35 2155 6.24
7/12/2021 2:45:00 PM 26.34 79.412 0.231 7.29 2403 6.31
7/12/2021 3:00:00 PM 26.35 79.43 0.229 7.3 2177 6.4
7/12/2021 3:15:00 PM 26.32 79.376 0.228 7.31 2293 6.37
7/12/2021 3:30:00 PM 26.38 79.484 0.227 7.31 2282 6.42
7/12/2021 3:45:00 PM 26.39 79.502 0.226 7.31 2245 6.46
7/12/2021 4:00:00 PM 26.37 79.466 0.225 7.31 2171 6.44
7/12/2021 4:15:00 PM 26.32 79.376 0.225 7.31 2206 6.35
7/12/2021 4:30:00 PM 26.28 79.304 0.225 7.29 2235 6.3
7/12/2021 4:45:00 PM 26.24 79.232 0.225 7.29 2146 6.27
7/12/2021 5:00:00 PM 26.21 79.17799 0.226 7.28 2137 6.26
7/12/2021 5:15:00 PM 26.18 79.124 0.226 7.28 2058 6.22
7/12/2021 5:30:00 PM 26.19 79.142 0.225 7.27 2157 6.22
7/12/2021 5:45:00 PM 26.16 79.088 0.225 7.28 2182 6.24
7/12/2021 6:00:00 PM 26.14 79.052 0.224 7.28 2196 6.24
7/12/2021 6:15:00 PM 26.13 79.034 0.224 7.29 2288 6.25
7/12/2021 6:30:00 PM 25.92 78.656 0.226 7.28 2334 6
7/12/2021 6:45:00 PM 25.99 78.782 0.225 7.24 2253 5.98
7/12/2021 7:00:00 PM 25.94 78.692 0.225 7.25 2227 6.09
7/12/2021 7:15:00 PM 25.85 78.53 0.226 7.23 2087 5.95
7/12/2021 7:30:00 PM 25.72 78.296 0.227 7.22 2232 5.94
7/12/2021 7:45:00 PM 25.81 78.458 0.226 7.21 2226 6.06
7/12/2021 8:00:00 PM 25.76 78.368 0.226 7.22 2194 6.06
7/12/2021 8:15:00 PM 25.7 78.26 0.226 7.22 2111 6.03
7/12/2021 8:30:00 PM 25.64 78.152 0.225 7.21 2073 5.95
7/12/2021 8:45:00 PM 25.56 78.008 0.225 7.2 2122 5.93
7/12/2021 9:00:00 PM 25.51 77.918 0.225 7.19 2099 5.93
7/12/2021 9:15:00 PM 25.48 77.864 0.225 7.18 2206 5.91
7/12/2021 9:30:00 PM 25.45 77.81 0.224 7.17 2327 5.92
7/12/2021 9:45:00 PM 25.4 77.72 0.225 7.18 2943 5.91
7/12/2021 10:00:00 PM 25.38 77.684 0.226 7.17 2337 5.9
7/12/2021 10:15:00 PM 25.32 77.576 0.225 7.16 2253 5.86
7/12/2021 10:30:00 PM 25.21 77.378 0.227 7.14 2341 5.78
7/12/2021 10:45:00 PM 25.11 77.198 0.227 7.12 2506 5.71
7/12/2021 11:00:00 PM 25.06 77.108 0.227 7.1 2150 5.66
7/12/2021 11:15:00 PM 25.02 77.036 0.226 7.09 2392 5.65
7/12/2021 11:30:00 PM 24.98 76.964 0.226 7.08 2090 5.65
7/12/2021 11:45:00 PM 24.98 76.964 0.226 7.08 2083 5.69
7/13/2021 12:00:00 AM 25 77 0.226 7.08 2054 5.77
7/13/2021 12:15:00 AM 25 77 0.226 7.1 2113 5.81
7/13/2021 12:30:00 AM 25.02 77.036 0.226 7.1 2091 5.88
7/13/2021 12:45:00 AM 25.01 77.018 0.226 7.11 2012 5.9
7/13/2021 1:00:00 AM 25.02 77.036 0.225 7.12 2232 5.93
7/13/2021 1:15:00 AM 25.02 77.036 0.225 7.12 2244 5.95
7/13/2021 1:30:00 AM 25.03 77.054 0.224 7.13 2125 5.94
7/13/2021 1:45:00 AM 24.97 76.946 0.225 7.12 2167 5.89
7/13/2021 2:00:00 AM 24.92 76.856 0.225 7.11 2245 5.8
7/13/2021 2:15:00 AM 24.85 76.73 0.226 7.1 2412 5.77
7/13/2021 2:30:00 AM 24.79 76.622 0.227 7.09 2202 5.77
7/13/2021 2:45:00 AM 24.75 76.55 0.228 7.08 2266 5.72
7/13/2021 3:00:00 AM 24.72 76.496 0.228 7.07 2277 5.76
7/13/2021 3:15:00 AM 24.72 76.496 0.228 7.07 2264 5.78
7/13/2021 3:30:00 AM 24.75 76.55 0.227 7.08 2491 5.8
7/13/2021 3:45:00 AM 24.74 76.532 0.227 7.08 2364 5.82
7/13/2021 4:00:00 AM 24.77 76.586 0.227 7.08 2424 5.85
7/13/2021 4:15:00 AM 24.8 76.64 0.227 7.08 2436 5.84
7/13/2021 4:30:00 AM 24.79 76.622 0.227 7.09 3096 5.89
7/13/2021 4:45:00 AM 24.78 76.604 0.228 7.09 2667 5.91
7/13/2021 5:00:00 AM 24.77 76.586 0.229 7.09 3083 5.94
7/13/2021 5:15:00 AM 24.74 76.532 0.229 7.1 2516 5.92
7/13/2021 5:30:00 AM 24.71 76.478 0.229 7.1 2494 5.9
7/13/2021 5:45:00 AM 24.69 76.442 0.23 7.09 2407 5.87
7/13/2021 6:00:00 AM 24.68 76.424 0.23 7.09 2472 5.87
7/13/2021 6:15:00 AM 24.66 76.388 0.23 7.09 2528 5.88
7/13/2021 6:30:00 AM 24.65 76.37 0.23 7.09 2725 5.87
7/13/2021 6:45:00 AM 24.66 76.388 0.23 7.09 2758 5.88
7/13/2021 7:00:00 AM 24.67 76.406 0.23 7.09 2759 5.91
7/13/2021 7:15:00 AM 24.66 76.388 0.231 7.09 2698 5.96
7/13/2021 7:30:00 AM 24.67 76.406 0.231 7.1 2831 6
7/13/2021 7:45:00 AM 24.68 76.424 0.231 7.1 2769 6.03
7/13/2021 8:00:00 AM 24.71 76.478 0.231 7.11 2751 6.06
7/13/2021 8:15:00 AM 24.73 76.514 0.231 7.12 2830 6.07
7/13/2021 8:30:00 AM 24.76 76.568 0.231 7.12 2871 6.07
7/13/2021 8:45:00 AM 24.8 76.64 0.23 7.13 2944 6.16
7/13/2021 9:00:00 AM 24.86 76.748 0.23 7.14 2784 6.19
7/13/2021 9:15:00 AM 24.89 76.802 0.23 7.15 2748 6.25
7/13/2021 9:30:00 AM 24.93 76.874 0.231 7.16 2789 6.27
7/13/2021 9:45:00 AM 24.97 76.946 0.231 7.17 2751 6.3
7/13/2021 10:00:00 AM 25.02 77.036 0.232 7.19 3071 6.38
7/13/2021 10:15:00 AM 25.12 77.216 0.23 7.4 2982 6.86
7/13/2021 10:30:00 AM 25.14 77.252 0.229 7.56 2577 6.72
7/13/2021 10:45:00 AM 25.17 77.306 0.229 7.52 2537 6.71
7/13/2021 11:00:00 AM 25.22 77.396 0.23 7.48 2863 6.74
7/13/2021 11:15:00 AM 25.26 77.468 0.23 7.46 2621 6.76
7/13/2021 11:30:00 AM 25.33 77.594 0.23 7.44 2790 6.79
7/13/2021 11:45:00 AM 25.36 77.648 0.23 7.43 2751 6.8
7/13/2021 12:00:00 PM 25.5 77.9 0.231 7.42 2722 6.88
7/13/2021 12:15:00 PM 25.56 78.008 0.231 7.43 2784 6.88
7/13/2021 12:30:00 PM 25.65 78.17 0.231 7.43 2808 6.93
7/13/2021 12:45:00 PM 25.75 78.35 0.231 7.43 2842 6.99
7/13/2021 1:00:00 PM 25.87 78.566 0.231 7.45 2566 7.05
7/13/2021 1:15:00 PM 25.93 78.674 0.231 7.45 2730 7.02
7/13/2021 1:30:00 PM 26.01 78.818 0.231 7.46 2577 7.06
7/13/2021 1:45:00 PM 26.09 78.962 0.23 7.47 2620 7.05
7/13/2021 2:00:00 PM 26.17 79.106 0.23 7.47 2536 7.08
7/13/2021 2:15:00 PM 26.25 79.25 0.231 7.48 2627 7.09
7/13/2021 2:30:00 PM 26.28 79.304 0.231 7.49 2500 7.14
7/13/2021 2:45:00 PM 26.36 79.448 0.231 7.49 2337 7.16
7/13/2021 3:00:00 PM 26.44 79.592 0.231 7.5 2464 7.16
7/13/2021 3:15:00 PM 26.45 79.61 0.231 7.51 2405 7.11
7/13/2021 3:30:00 PM 26.55 79.79 0.231 7.51 2212 7.15
7/13/2021 3:45:00 PM 26.59 79.862 0.231 7.52 2407 7.1
7/13/2021 4:00:00 PM 26.63 79.934 0.231 7.53 2377 7.05
7/13/2021 4:15:00 PM 26.67 80.006 0.231 7.52 2361 7.01
7/13/2021 4:30:00 PM 26.62 79.916 0.231 7.51 2298 6.9
7/13/2021 4:45:00 PM 26.62 79.916 0.231 7.51 2424 6.9
7/13/2021 5:00:00 PM 26.63 79.934 0.231 7.51 2278 6.87
7/13/2021 5:15:00 PM 26.61 79.898 0.232 7.51 2304 6.79
7/13/2021 5:30:00 PM 26.57 79.826 0.232 7.5 2919 6.73
7/13/2021 5:45:00 PM 26.55 79.79 0.232 7.5 2823 6.67
7/13/2021 6:00:00 PM 26.56 79.808 0.232 7.48 2565 6.62
7/13/2021 6:15:00 PM 26.57 79.826 0.232 7.47 2712 6.56
7/13/2021 6:30:00 PM 26.55 79.79 0.232 7.46 2761 6.51
7/13/2021 6:45:00 PM 26.55 79.79 0.232 7.44 2902 6.4
7/13/2021 7:00:00 PM 26.53 79.754 0.232 7.43 2735 6.35
7/13/2021 7:15:00 PM 26.5 79.7 0.232 7.41 2781 6.31
7/13/2021 7:30:00 PM 26.45 79.61 0.233 7.4 2721 6.23
7/13/2021 7:45:00 PM 26.4 79.52 0.234 7.39 2800 6.18
7/13/2021 8:00:00 PM 26.34 79.412 0.234 7.37 2552 6.12
7/13/2021 8:15:00 PM 26.28 79.304 0.234 7.35 2766 6.06
7/13/2021 8:30:00 PM 26.2 79.16 0.234 7.33 2729 6
7/13/2021 8:45:00 PM 26.14 79.052 0.234 7.31 2733 5.93
7/13/2021 9:00:00 PM 26.07 78.926 0.234 7.29 2747 5.88
7/13/2021 9:15:00 PM 25.99 78.782 0.234 7.26 2744 5.81
7/13/2021 9:30:00 PM 25.95 78.71 0.234 7.25 2737 5.78
7/13/2021 9:45:00 PM 25.87 78.566 0.235 7.23 2860 5.75
7/13/2021 10:00:00 PM 25.8 78.44 0.235 7.23 2729 5.75
7/13/2021 10:15:00 PM 25.78 78.404 0.236 7.22 2676 5.75
7/13/2021 10:30:00 PM 25.73 78.314 0.236 7.21 2492 5.74
7/13/2021 10:45:00 PM 25.68 78.224 0.236 7.2 2629 5.73
7/13/2021 11:00:00 PM 25.62 78.116 0.236 7.2 2570 5.71
7/13/2021 11:15:00 PM 25.57 78.026 0.235 7.19 2646 5.68
7/13/2021 11:30:00 PM 25.52 77.936 0.234 7.18 2827 5.66
7/13/2021 11:45:00 PM 25.47 77.846 0.236 7.17 2687 5.65
7/14/2021 12:00:00 AM 25.45 77.81 0.236 7.17 2747 5.66
7/14/2021 12:15:00 AM 25.42 77.756 0.237 7.16 2806 5.67
7/14/2021 12:30:00 AM 25.38 77.684 0.235 7.16 2721 5.65
7/14/2021 12:45:00 AM 25.36 77.648 0.236 7.15 2698 5.67
7/14/2021 1:00:00 AM 25.3 77.54 0.237 7.15 2734 5.64
7/14/2021 1:15:00 AM 25.26 77.468 0.237 7.14 2701 5.62
7/14/2021 1:30:00 AM 25.23 77.414 0.239 7.14 2509 5.61
7/14/2021 1:45:00 AM 25.19 77.342 0.239 7.13 2810 5.57
7/14/2021 2:00:00 AM 25.12 77.216 0.239 7.12 2804 5.53
7/14/2021 2:15:00 AM 25.06 77.108 0.239 7.11 3574 5.5
7/14/2021 2:30:00 AM 25.03 77.054 0.24 7.1 2572 5.52
7/14/2021 2:45:00 AM 24.99 76.982 0.24 7.09 2843 5.53
7/14/2021 3:00:00 AM 24.99 76.982 0.241 7.09 2757 5.56
7/14/2021 3:15:00 AM 24.96 76.92799 0.241 7.09 2703 5.57
7/14/2021 3:30:00 AM 24.99 76.982 0.24 7.1 2895 5.61
7/14/2021 3:45:00 AM 24.97 76.946 0.239 7.1 2816 5.62
7/14/2021 4:00:00 AM 24.99 76.982 0.239 7.1 2708 5.63
7/14/2021 4:15:00 AM 24.97 76.946 0.237 7.1 2583 5.65
7/14/2021 4:30:00 AM 24.97 76.946 0.237 7.1 2451 5.65
7/14/2021 4:45:00 AM 24.93 76.874 0.237 7.1 2606 5.65
7/14/2021 5:00:00 AM 24.89 76.802 0.237 7.1 2512 5.65
7/14/2021 5:15:00 AM 24.85 76.73 0.237 7.11 2555 5.67
7/14/2021 5:30:00 AM 24.82 76.676 0.237 7.11 2671 5.67
7/14/2021 5:45:00 AM 24.8 76.64 0.236 7.1 2484 5.67
7/14/2021 6:00:00 AM 24.77 76.586 0.234 7.1 2595 5.68
7/14/2021 6:15:00 AM 24.74 76.532 0.234 7.11 2587 5.67
7/14/2021 6:30:00 AM 24.73 76.514 0.233 7.09 2761 5.67
7/14/2021 6:45:00 AM 24.7 76.46 0.232 7.09 2598 5.66
7/14/2021 7:00:00 AM 24.7 76.46 0.231 7.09 2778 5.68
7/14/2021 7:15:00 AM 24.67 76.406 0.231 7.12 2652 5.69
7/14/2021 7:30:00 AM 24.65 76.37 0.231 7.14 2528 5.72
7/14/2021 7:45:00 AM 24.68 76.424 0.231 7.27 2604 5.77
7/14/2021 8:00:00 AM 24.69 76.442 0.231 7.29 2653 5.76
7/14/2021 8:15:00 AM 24.72 76.496 0.229 7.29 2634 5.82
7/14/2021 8:30:00 AM 24.77 76.586 0.228 7.24 2549 5.89
7/14/2021 8:45:00 AM 24.83 76.694 0.227 7.23 2636 5.99
7/14/2021 9:00:00 AM 24.87 76.766 0.227 7.2 2723 5.94
7/14/2021 9:15:00 AM 24.93 76.874 0.227 7.17 2872 5.96
7/14/2021 9:30:00 AM 25 77 0.227 7.17 2629 6.03
7/14/2021 9:45:00 AM 25.06 77.108 0.227 7.17 2729 6.1
7/14/2021 10:00:00 AM 25.14 77.252 0.228 7.22 2629 6.12
7/14/2021 10:15:00 AM 25.23 77.414 0.227 7.27 2848 6.18
7/14/2021 10:30:00 AM 25.31 77.558 0.227 7.26 2929 6.27
7/14/2021 10:45:00 AM 25.37 77.666 0.227 7.25 2861 6.26
7/14/2021 11:00:00 AM 25.5 77.9 0.226 7.25 2924 6.37
7/14/2021 11:15:00 AM 25.62 78.116 0.226 7.26 2791 6.44
7/14/2021 11:30:00 AM 25.75 78.35 0.225 7.26 2866 6.5
7/14/2021 11:45:00 AM 25.9 78.62 0.226 7.28 2709 6.51
7/14/2021 12:00:00 PM 25.95 78.71 0.225 7.29 2864 6.57
7/14/2021 12:15:00 PM 26.02 78.836 0.226 7.3 2853 6.62
7/14/2021 12:30:00 PM 26.15 79.07 0.226 7.31 3014 6.72
7/14/2021 12:45:00 PM 26.16 79.088 0.226 7.32 2935 6.69
7/14/2021 1:00:00 PM 26.24 79.232 0.226 7.33 2801 6.74
7/14/2021 1:15:00 PM 26.21 79.17799 0.226 7.33 3032 6.68
7/14/2021 1:30:00 PM 26.32 79.376 0.226 7.33 2844 6.75
7/14/2021 1:45:00 PM 26.42 79.556 0.225 7.34 2555 6.78
7/14/2021 2:00:00 PM 26.48 79.664 0.225 7.35 2557 6.79
7/14/2021 2:15:00 PM 26.49 79.682 0.225 7.36 2963 6.7
7/14/2021 2:30:00 PM 26.56 79.808 0.226 7.37 2795 6.75
7/14/2021 2:45:00 PM 26.57 79.826 0.227 7.38 2992 6.75
7/14/2021 3:00:00 PM 26.56 79.808 0.227 7.39 2896 6.74
7/14/2021 3:15:00 PM 26.53 79.754 0.226 7.4 2809 6.71
7/14/2021 3:30:00 PM 26.51 79.718 0.226 7.4 2613 6.68
7/14/2021 3:45:00 PM 26.49 79.682 0.227 7.4 2730 6.64
7/14/2021 4:00:00 PM 26.5 79.7 0.226 7.39 2739 6.59
7/14/2021 4:15:00 PM 26.51 79.718 0.226 7.39 2856 6.56
7/14/2021 4:30:00 PM 26.48 79.664 0.226 7.38 2974 6.49
7/14/2021 4:45:00 PM 26.43 79.574 0.227 7.38 3486 6.41
7/14/2021 5:00:00 PM 26.42 79.556 0.227 7.38 3343 6.42
7/14/2021 5:15:00 PM 26.39 79.502 0.228 7.38 2966 6.39
7/14/2021 5:30:00 PM 26.39 79.502 0.228 7.38 3106 6.38
7/14/2021 5:45:00 PM 26.46 79.628 0.228 7.38 2588 6.42
7/14/2021 6:00:00 PM 26.48 79.664 0.228 7.39 3271 6.42
7/14/2021 6:15:00 PM 26.49 79.682 0.227 7.4 3349 6.43
7/14/2021 6:30:00 PM 26.45 79.61 0.227 7.41 3345 6.37
7/14/2021 6:45:00 PM 26.39 79.502 0.228 7.4 3188 6.29
7/14/2021 7:00:00 PM 26.34 79.412 0.228 7.39 3327 6.22
7/14/2021 7:15:00 PM 26.27 79.286 0.228 7.37 3220 6.15
7/14/2021 7:30:00 PM 26.23 79.214 0.227 7.36 3203 6.13
7/14/2021 7:45:00 PM 26.15 79.07 0.229 7.35 3137 6.07
7/14/2021 8:00:00 PM 26.14 79.052 0.23 7.34 3356 6.04
7/14/2021 8:15:00 PM 26.09 78.962 0.23 7.34 3021 5.97
7/14/2021 8:30:00 PM 26.03 78.854 0.23 7.33 3093 5.91
7/14/2021 8:45:00 PM 25.96 78.728 0.23 7.31 2793 5.87
7/14/2021 9:00:00 PM 25.89 78.602 0.23 7.3 3147 5.83
7/14/2021 9:15:00 PM 25.81 78.458 0.23 7.28 4031 5.77
7/14/2021 9:30:00 PM 25.71 78.278 0.23 7.27 3094 5.73
7/14/2021 9:45:00 PM 25.58 78.044 0.23 7.26 2727 5.71
7/14/2021 10:00:00 PM 25.47 77.846 0.23 7.24 2872 5.67
7/14/2021 10:15:00 PM 25.37 77.666 0.231 7.22 2916 5.62
7/14/2021 10:30:00 PM 25.27 77.486 0.232 7.2 3225 5.57
7/14/2021 10:45:00 PM 25.2 77.36 0.233 7.18 2992 5.55
7/14/2021 11:00:00 PM 25.11 77.198 0.235 7.17 2987 5.59
7/14/2021 11:15:00 PM 25.08 77.144 0.236 7.17 3131 5.61
7/14/2021 11:30:00 PM 25.02 77.036 0.237 7.17 3088 5.61
7/14/2021 11:45:00 PM 24.94 76.892 0.238 7.16 2944 5.54
7/15/2021 12:00:00 AM 24.84 76.712 0.24 7.16 3149 5.6
7/15/2021 12:15:00 AM 24.71 76.478 0.243 7.16 2807 5.68
7/15/2021 12:30:00 AM 24.63 76.334 0.243 7.15 3006 5.76
7/15/2021 12:45:00 AM 24.59 76.262 0.24 7.17 2902 5.77
7/15/2021 1:00:00 AM 24.6 76.28 0.236 7.16 2669 5.77
7/15/2021 1:15:00 AM 24.61 76.298 0.232 7.16 2317 5.76
7/15/2021 1:30:00 AM 24.63 76.334 0.23 7.16 2237 5.75
7/15/2021 1:45:00 AM 24.66 76.388 0.229 7.16 2333 5.73
7/15/2021 2:00:00 AM 24.66 76.388 0.228 7.16 2342 5.7
7/15/2021 2:15:00 AM 24.65 76.37 0.228 7.16 1936 5.7
7/15/2021 2:30:00 AM 24.64 76.352 0.228 7.15 1917 5.66
7/15/2021 2:45:00 AM 24.62 76.316 0.228 7.15 2056 5.65
7/15/2021 3:00:00 AM 24.6 76.28 0.228 7.15 1944 5.66
7/15/2021 3:15:00 AM 24.58 76.244 0.228 7.15 2055 5.63
7/15/2021 3:30:00 AM 24.55 76.19 0.227 7.16 1932 5.66
7/15/2021 3:45:00 AM 24.52 76.136 0.228 7.15 1961 5.67
7/15/2021 4:00:00 AM 24.5 76.1 0.228 7.15 2039 5.68
7/15/2021 4:15:00 AM 24.48 76.064 0.228 7.13 2239 5.68
7/15/2021 4:30:00 AM 24.47 76.046 0.228 7.14 1900 5.7
7/15/2021 4:45:00 AM 24.45 76.01 0.228 7.13 1935 5.7
7/15/2021 5:00:00 AM 24.42 75.956 0.229 7.14 3271 5.69
7/15/2021 5:15:00 AM 24.42 75.956 0.229 7.14 1969 5.7
7/15/2021 5:30:00 AM 24.41 75.938 0.229 7.14 1914 5.69
7/15/2021 5:45:00 AM 24.4 75.92 0.229 7.14 1951 5.7
7/15/2021 6:00:00 AM 24.4 75.92 0.229 7.15 2046 5.69
7/15/2021 6:15:00 AM 24.4 75.92 0.229 7.14 1968 5.69
7/15/2021 6:30:00 AM 24.37 75.866 0.23 7.13 2028 5.7
7/15/2021 6:45:00 AM 24.34 75.812 0.23 7.14 2013 5.74
7/15/2021 7:00:00 AM 24.3 75.74 0.23 7.15 2047 5.74
7/15/2021 7:15:00 AM 24.27 75.686 0.231 7.15 2141 5.75
7/15/2021 7:30:00 AM 24.26 75.668 0.231 7.18 2072 5.76
7/15/2021 7:45:00 AM 24.26 75.668 0.232 7.18 1945 5.8
7/15/2021 8:00:00 AM 24.27 75.686 0.232 7.21 2058 5.8
7/15/2021 8:15:00 AM 24.31 75.758 0.232 7.19 2060 5.86
7/15/2021 8:30:00 AM 24.35 75.83 0.233 7.23 2110 5.84
7/15/2021 8:45:00 AM 24.4 75.92 0.233 7.27 2047 5.93
7/15/2021 9:00:00 AM 24.47 76.046 0.233 7.23 2415 5.96
7/15/2021 9:15:00 AM 24.53 76.154 0.233 7.23 2132 6.03
7/15/2021 9:30:00 AM 24.61 76.298 0.234 7.24 1854 6.1
7/15/2021 9:45:00 AM 24.73 76.514 0.233 7.25 1898 6.2
7/15/2021 10:00:00 AM 24.85 76.73 0.233 7.26 2100 6.29
7/15/2021 10:15:00 AM 24.96 76.92799 0.234 7.28 1948 6.34
7/15/2021 10:30:00 AM 25.07 77.126 0.233 7.3 2230 6.46
7/15/2021 10:45:00 AM 25.2 77.36 0.233 7.32 2323 6.54
7/15/2021 11:00:00 AM 25.34 77.612 0.233 7.34 2150 6.64
7/15/2021 11:15:00 AM 25.49 77.882 0.233 7.37 1958 6.71
7/15/2021 11:30:00 AM 25.63 78.134 0.233 7.38 2041 6.76
7/15/2021 11:45:00 AM 25.75 78.35 0.233 7.4 1671 6.84
7/15/2021 12:00:00 PM 25.84 78.512 0.234 7.42 2228 6.92
7/15/2021 12:15:00 PM 25.96 78.728 0.234 7.45 2153 6.96
7/15/2021 12:30:00 PM 26.12 79.016 0.234 7.47 2549 7
7/15/2021 12:45:00 PM 26.29 79.32201 0.234 7.49 2083 7.05
7/15/2021 1:00:00 PM 26.47 79.646 0.234 7.51 1910 7.07
7/15/2021 1:15:00 PM 26.59 79.862 0.234 7.53 1920 7.09
7/15/2021 1:30:00 PM 26.74 80.132 0.234 7.54 1991 7.08
7/15/2021 1:45:00 PM 26.83 80.294 0.234 7.57 1793 7.05
7/15/2021 2:00:00 PM 26.9 80.42 0.235 7.6 1975 7.01
7/15/2021 2:15:00 PM 26.99 80.582 0.235 7.63 2065 7.06
7/15/2021 2:30:00 PM 27.07 80.726 0.235 7.63 2498 7.08
7/15/2021 2:45:00 PM 27.12 80.816 0.235 7.64 2158 7.08
7/15/2021 3:00:00 PM 27.17 80.906 0.235 7.64 1824 7.03
7/15/2021 3:15:00 PM 27.23 81.014 0.235 7.66 1959 7.01
7/15/2021 3:30:00 PM 27.27 81.086 0.235 7.67 2087 6.94
7/15/2021 3:45:00 PM 27.27 81.086 0.235 7.68 2185 6.88
7/15/2021 4:00:00 PM 27.28 81.104 0.235 7.67 2229 6.81
7/15/2021 4:15:00 PM 27.25 81.05 0.235 7.65 2103 6.71
7/15/2021 4:30:00 PM 27.23 81.014 0.235 7.67 2892 6.66
7/15/2021 4:45:00 PM 27.19 80.942 0.235 7.65 2273 6.63
7/15/2021 5:00:00 PM 27.19 80.942 0.235 7.64 3019 6.64
7/15/2021 5:15:00 PM 27.14 80.852 0.236 7.63 2283 6.57
7/15/2021 5:30:00 PM 27.15 80.87 0.235 7.62 2399 6.53
7/15/2021 5:45:00 PM 27.12 80.816 0.235 7.62 2529 6.5
7/15/2021 6:00:00 PM 27.12 80.816 0.235 7.61 1999 6.47
7/15/2021 6:15:00 PM 27.07 80.726 0.235 7.6 2463 6.39
7/15/2021 6:30:00 PM 27.02 80.636 0.235 7.58 2473 6.33
7/15/2021 6:45:00 PM 26.95 80.51 0.235 7.56 2335 6.23
7/15/2021 7:00:00 PM 26.87 80.366 0.235 7.54 2696 6.16
7/15/2021 7:15:00 PM 26.79 80.222 0.236 7.52 2280 6.1
7/15/2021 7:30:00 PM 26.73 80.114 0.236 7.49 2246 6.02
7/15/2021 7:45:00 PM 26.65 79.97 0.236 7.47 2804 5.97
7/15/2021 8:00:00 PM 26.55 79.79 0.236 7.45 2093 5.9
7/15/2021 8:15:00 PM 26.49 79.682 0.236 7.43 2347 5.84
7/15/2021 8:30:00 PM 26.44 79.592 0.236 7.4 2256 5.79
7/15/2021 8:45:00 PM 26.35 79.43 0.236 7.39 2298 5.73
7/15/2021 9:00:00 PM 26.3 79.34 0.235 7.37 2864 5.68
7/15/2021 9:15:00 PM 26.24 79.232 0.235 7.36 225.8 5.63
7/15/2021 9:30:00 PM 26.17 79.106 0.235 7.34 222.3 5.61
7/15/2021 9:45:00 PM 26.12 79.016 0.236 7.33 243.2 5.61
7/15/2021 10:00:00 PM 26.03 78.854 0.236 7.32 222.7 5.6
7/15/2021 10:15:00 PM 25.98 78.764 0.237 7.31 226.9 5.58
7/15/2021 10:30:00 PM 25.93 78.674 0.236 7.3 256.9 5.58
7/15/2021 10:45:00 PM 25.87 78.566 0.236 7.29 234.9 5.55
7/15/2021 11:00:00 PM 25.83 78.494 0.236 7.28 230.5 5.53
7/15/2021 11:15:00 PM 25.77 78.386 0.236 7.27 241.3 5.5
7/15/2021 11:30:00 PM 25.7 78.26 0.236 7.26 271.5 5.48
7/15/2021 11:45:00 PM 25.66 78.188 0.236 7.25 261.6 5.46
7/16/2021 12:00:00 AM 25.59 78.062 0.236 7.24 259.6 5.47
7/16/2021 12:15:00 AM 25.53 77.954 0.237 7.24 263.6 5.47
7/16/2021 12:30:00 AM 25.48 77.864 0.237 7.23 235 5.47
7/16/2021 12:45:00 AM 25.45 77.81 0.237 7.21 243.4 5.47
7/16/2021 1:00:00 AM 25.4 77.72 0.237 7.21 330.7 5.47
7/16/2021 1:15:00 AM 25.36 77.648 0.237 7.2 242.2 5.46
7/16/2021 1:30:00 AM 25.32 77.576 0.237 7.19 267.5 5.42
7/16/2021 1:45:00 AM 25.28 77.504 0.237 7.19 234.7 5.44
7/16/2021 2:00:00 AM 25.25 77.45 0.236 7.18 233.7 5.43
7/16/2021 2:15:00 AM 25.19 77.342 0.237 7.18 249.1 5.41
7/16/2021 2:30:00 AM 25.15 77.27 0.237 7.17 234.4 5.42
7/16/2021 2:45:00 AM 25.1 77.18 0.238 7.16 224.6 5.43
7/16/2021 3:00:00 AM 25.06 77.108 0.238 7.16 239.9 5.44
7/16/2021 3:15:00 AM 25.04 77.07201 0.238 7.15 228.8 5.43
7/16/2021 3:30:00 AM 25.01 77.018 0.238 7.14 230.9 5.42
7/16/2021 3:45:00 AM 24.96 76.92799 0.238 7.14 234 5.42
7/16/2021 4:00:00 AM 24.93 76.874 0.238 7.13 228.8 5.4
7/16/2021 4:15:00 AM 24.91 76.838 0.238 7.13 272.5 5.39
7/16/2021 4:30:00 AM 24.88 76.784 0.238 7.13 236.3 5.39
7/16/2021 4:45:00 AM 24.83 76.694 0.238 7.13 222.6 5.4
7/16/2021 5:00:00 AM 24.81 76.658 0.238 7.13 236.2 5.43
7/16/2021 5:15:00 AM 24.77 76.586 0.239 7.13 195.9 5.46
7/16/2021 5:30:00 AM 24.74 76.532 0.239 7.12 238.5 5.44
7/16/2021 5:45:00 AM 24.72 76.496 0.239 7.13 196.6 5.47
7/16/2021 6:00:00 AM 24.71 76.478 0.238 7.13 249.2 5.48
7/16/2021 6:15:00 AM 24.7 76.46 0.238 7.13 221.4 5.5
7/16/2021 6:30:00 AM 24.68 76.424 0.238 7.12 210.6 5.49
7/16/2021 6:45:00 AM 24.7 76.46 0.238 7.12 221.9 5.53
7/16/2021 7:00:00 AM 24.69 76.442 0.238 7.12 335.1 5.54
7/16/2021 7:15:00 AM 24.68 76.424 0.238 7.12 223.9 5.58
7/16/2021 7:30:00 AM 24.67 76.406 0.238 7.13 236.7 5.61
7/16/2021 7:45:00 AM 24.7 76.46 0.239 7.14 244.7 5.65
7/16/2021 8:00:00 AM 24.74 76.532 0.239 7.15 296.1 5.7
7/16/2021 8:15:00 AM 24.8 76.64 0.238 7.16 294.3 5.73
7/16/2021 8:30:00 AM 24.86 76.748 0.238 7.16 322.7 5.77
7/16/2021 8:45:00 AM 24.94 76.892 0.238 7.18 250.7 5.83
7/16/2021 9:00:00 AM 25.02 77.036 0.238 7.19 237.2 5.89
7/16/2021 9:15:00 AM 25.11 77.198 0.238 7.21 338.2 5.92
7/16/2021 9:30:00 AM 25.2 77.36 0.238 7.22 273.4 5.99
7/16/2021 9:45:00 AM 25.29 77.522 0.238 7.23 300.7 6.07
7/16/2021 10:00:00 AM 25.38 77.684 0.238 7.24 209.5 6.13
7/16/2021 10:15:00 AM 25.5 77.9 0.239 7.26 342.6 6.22
7/16/2021 10:30:00 AM 25.61 78.098 0.238 7.28 311.7 6.28
7/16/2021 10:45:00 AM